<?xml version="1.0" encoding="UTF-8" standalone="no" ?>
<gpx xmlns="http://www.topografix.com/GPX/1/1" xmlns:xsi="http://www.w3.org/2001/XMLSchema-instance" xsi:schemaLocation="http://www.topografix.com/GPX/1/1 http://www.topografix.com/GPX/1/1/gpx.xsd" version="1.1" creator="VisuGPX - https://www.visugpx.com">
  <metadata>
    <name>20090625laFelgereMontassetLaBlatteBonnecombeLaFelgere31km 1050m</name>
    <desc><![CDATA[20090625laFelgereMontassetLaBlatteBonnecombeLaFelgere31km 1050m]]></desc>
  </metadata>
  <trk>
    <name><![CDATA[20090625laFelgereLaBlatte]]></name>
    <trkseg>
      <trkpt lat="44.51296" lon="3.19192">
        <ele>904.7</ele>
        <time>2009-06-25T06:55:50Z</time>
      </trkpt>
      <trkpt lat="44.51293" lon="3.19195">
        <ele>904.7</ele>
        <time>2009-06-25T06:56:24Z</time>
      </trkpt>
      <trkpt lat="44.51292" lon="3.19201">
        <ele>905.2</ele>
        <time>2009-06-25T06:56:28Z</time>
      </trkpt>
      <trkpt lat="44.51282" lon="3.19227">
        <ele>905.2</ele>
        <time>2009-06-25T06:56:51Z</time>
      </trkpt>
      <trkpt lat="44.5128" lon="3.19229">
        <ele>906.2</ele>
        <time>2009-06-25T06:56:59Z</time>
      </trkpt>
      <trkpt lat="44.51262" lon="3.19238">
        <ele>906.7</ele>
        <time>2009-06-25T06:57:18Z</time>
      </trkpt>
      <trkpt lat="44.51241" lon="3.19252">
        <ele>906.2</ele>
        <time>2009-06-25T06:57:41Z</time>
      </trkpt>
      <trkpt lat="44.51224" lon="3.19261">
        <ele>907.1</ele>
        <time>2009-06-25T06:57:59Z</time>
      </trkpt>
      <trkpt lat="44.51202" lon="3.19272">
        <ele>906.7</ele>
        <time>2009-06-25T06:58:20Z</time>
      </trkpt>
      <trkpt lat="44.51181" lon="3.19286">
        <ele>906.2</ele>
        <time>2009-06-25T06:58:42Z</time>
      </trkpt>
      <trkpt lat="44.51161" lon="3.19298">
        <ele>908.6</ele>
        <time>2009-06-25T06:59:02Z</time>
      </trkpt>
      <trkpt lat="44.51138" lon="3.19303">
        <ele>910</ele>
        <time>2009-06-25T06:59:24Z</time>
      </trkpt>
      <trkpt lat="44.51134" lon="3.19303">
        <ele>910</ele>
        <time>2009-06-25T06:59:28Z</time>
      </trkpt>
      <trkpt lat="44.51109" lon="3.19306">
        <ele>912</ele>
        <time>2009-06-25T06:59:51Z</time>
      </trkpt>
      <trkpt lat="44.51087" lon="3.19313">
        <ele>912.9</ele>
        <time>2009-06-25T07:00:12Z</time>
      </trkpt>
      <trkpt lat="44.51066" lon="3.19328">
        <ele>914.3</ele>
        <time>2009-06-25T07:00:35Z</time>
      </trkpt>
      <trkpt lat="44.51044" lon="3.19356">
        <ele>915.3</ele>
        <time>2009-06-25T07:01:02Z</time>
      </trkpt>
      <trkpt lat="44.51044" lon="3.19383">
        <ele>916.3</ele>
        <time>2009-06-25T07:01:24Z</time>
      </trkpt>
      <trkpt lat="44.51065" lon="3.19392">
        <ele>919.2</ele>
        <time>2009-06-25T07:01:47Z</time>
      </trkpt>
      <trkpt lat="44.51084" lon="3.194">
        <ele>922.5</ele>
        <time>2009-06-25T07:02:08Z</time>
      </trkpt>
      <trkpt lat="44.51097" lon="3.19403">
        <ele>923.5</ele>
        <time>2009-06-25T07:02:23Z</time>
      </trkpt>
      <trkpt lat="44.51101" lon="3.19405">
        <ele>923.5</ele>
        <time>2009-06-25T07:02:27Z</time>
      </trkpt>
      <trkpt lat="44.51123" lon="3.19413">
        <ele>924.5</ele>
        <time>2009-06-25T07:02:53Z</time>
      </trkpt>
      <trkpt lat="44.51135" lon="3.19418">
        <ele>926.4</ele>
        <time>2009-06-25T07:03:05Z</time>
      </trkpt>
      <trkpt lat="44.51157" lon="3.19429">
        <ele>928.8</ele>
        <time>2009-06-25T07:03:28Z</time>
      </trkpt>
      <trkpt lat="44.51177" lon="3.19443">
        <ele>928.8</ele>
        <time>2009-06-25T07:03:50Z</time>
      </trkpt>
      <trkpt lat="44.51196" lon="3.19456">
        <ele>931.2</ele>
        <time>2009-06-25T07:04:12Z</time>
      </trkpt>
      <trkpt lat="44.51213" lon="3.19461">
        <ele>935</ele>
        <time>2009-06-25T07:04:30Z</time>
      </trkpt>
      <trkpt lat="44.51232" lon="3.19467">
        <ele>937.9</ele>
        <time>2009-06-25T07:04:50Z</time>
      </trkpt>
      <trkpt lat="44.51256" lon="3.19469">
        <ele>939.8</ele>
        <time>2009-06-25T07:05:15Z</time>
      </trkpt>
      <trkpt lat="44.51276" lon="3.19466">
        <ele>942.2</ele>
        <time>2009-06-25T07:05:36Z</time>
      </trkpt>
      <trkpt lat="44.51297" lon="3.19466">
        <ele>945.1</ele>
        <time>2009-06-25T07:05:58Z</time>
      </trkpt>
      <trkpt lat="44.51317" lon="3.1947">
        <ele>949.5</ele>
        <time>2009-06-25T07:06:21Z</time>
      </trkpt>
      <trkpt lat="44.51338" lon="3.19477">
        <ele>950.4</ele>
        <time>2009-06-25T07:06:42Z</time>
      </trkpt>
      <trkpt lat="44.51362" lon="3.19482">
        <ele>954.2</ele>
        <time>2009-06-25T07:07:07Z</time>
      </trkpt>
      <trkpt lat="44.51385" lon="3.19477">
        <ele>955.7</ele>
        <time>2009-06-25T07:07:30Z</time>
      </trkpt>
      <trkpt lat="44.51408" lon="3.1947">
        <ele>958.1</ele>
        <time>2009-06-25T07:07:54Z</time>
      </trkpt>
      <trkpt lat="44.51426" lon="3.19465">
        <ele>960</ele>
        <time>2009-06-25T07:08:15Z</time>
      </trkpt>
      <trkpt lat="44.51439" lon="3.19459">
        <ele>962.9</ele>
        <time>2009-06-25T07:08:34Z</time>
      </trkpt>
      <trkpt lat="44.51458" lon="3.19451">
        <ele>963.9</ele>
        <time>2009-06-25T07:08:56Z</time>
      </trkpt>
      <trkpt lat="44.51479" lon="3.19444">
        <ele>965.8</ele>
        <time>2009-06-25T07:09:19Z</time>
      </trkpt>
      <trkpt lat="44.51504" lon="3.19435">
        <ele>968.2</ele>
        <time>2009-06-25T07:09:46Z</time>
      </trkpt>
      <trkpt lat="44.51525" lon="3.19438">
        <ele>972</ele>
        <time>2009-06-25T07:10:10Z</time>
      </trkpt>
      <trkpt lat="44.51536" lon="3.19436">
        <ele>972.5</ele>
        <time>2009-06-25T07:10:25Z</time>
      </trkpt>
      <trkpt lat="44.51555" lon="3.19418">
        <ele>973</ele>
        <time>2009-06-25T07:10:48Z</time>
      </trkpt>
      <trkpt lat="44.51556" lon="3.19417">
        <ele>973.5</ele>
        <time>2009-06-25T07:10:48Z</time>
      </trkpt>
      <trkpt lat="44.5157" lon="3.19402">
        <ele>974.4</ele>
        <time>2009-06-25T07:11:10Z</time>
      </trkpt>
      <trkpt lat="44.51587" lon="3.19389">
        <ele>975.4</ele>
        <time>2009-06-25T07:11:29Z</time>
      </trkpt>
      <trkpt lat="44.51611" lon="3.19388">
        <ele>978.3</ele>
        <time>2009-06-25T07:11:54Z</time>
      </trkpt>
      <trkpt lat="44.51619" lon="3.19409">
        <ele>979.2</ele>
        <time>2009-06-25T07:12:09Z</time>
      </trkpt>
      <trkpt lat="44.51641" lon="3.19422">
        <ele>981.6</ele>
        <time>2009-06-25T07:12:32Z</time>
      </trkpt>
      <trkpt lat="44.51667" lon="3.19415">
        <ele>982.6</ele>
        <time>2009-06-25T07:12:55Z</time>
      </trkpt>
      <trkpt lat="44.5169" lon="3.19419">
        <ele>985</ele>
        <time>2009-06-25T07:13:19Z</time>
      </trkpt>
      <trkpt lat="44.51712" lon="3.19429">
        <ele>987.4</ele>
        <time>2009-06-25T07:13:41Z</time>
      </trkpt>
      <trkpt lat="44.51735" lon="3.19435">
        <ele>989.8</ele>
        <time>2009-06-25T07:14:01Z</time>
      </trkpt>
      <trkpt lat="44.51759" lon="3.19429">
        <ele>991.3</ele>
        <time>2009-06-25T07:14:24Z</time>
      </trkpt>
      <trkpt lat="44.51783" lon="3.19422">
        <ele>990.3</ele>
        <time>2009-06-25T07:14:47Z</time>
      </trkpt>
      <trkpt lat="44.51803" lon="3.19408">
        <ele>991.3</ele>
        <time>2009-06-25T07:15:07Z</time>
      </trkpt>
      <trkpt lat="44.51828" lon="3.19392">
        <ele>994.6</ele>
        <time>2009-06-25T07:15:33Z</time>
      </trkpt>
      <trkpt lat="44.51849" lon="3.19378">
        <ele>994.6</ele>
        <time>2009-06-25T07:15:53Z</time>
      </trkpt>
      <trkpt lat="44.51873" lon="3.19362">
        <ele>994.6</ele>
        <time>2009-06-25T07:16:16Z</time>
      </trkpt>
      <trkpt lat="44.51896" lon="3.19353">
        <ele>993.2</ele>
        <time>2009-06-25T07:16:39Z</time>
      </trkpt>
      <trkpt lat="44.51921" lon="3.19341">
        <ele>996.1</ele>
        <time>2009-06-25T07:17:03Z</time>
      </trkpt>
      <trkpt lat="44.5195" lon="3.19336">
        <ele>998</ele>
        <time>2009-06-25T07:17:29Z</time>
      </trkpt>
      <trkpt lat="44.51976" lon="3.19334">
        <ele>1000.9</ele>
        <time>2009-06-25T07:17:55Z</time>
      </trkpt>
      <trkpt lat="44.51999" lon="3.1933">
        <ele>1003.8</ele>
        <time>2009-06-25T07:18:18Z</time>
      </trkpt>
      <trkpt lat="44.52018" lon="3.19321">
        <ele>1006.1</ele>
        <time>2009-06-25T07:18:39Z</time>
      </trkpt>
      <trkpt lat="44.52026" lon="3.19315">
        <ele>1009</ele>
        <time>2009-06-25T07:18:55Z</time>
      </trkpt>
      <trkpt lat="44.52037" lon="3.19301">
        <ele>1009</ele>
        <time>2009-06-25T07:19:16Z</time>
      </trkpt>
      <trkpt lat="44.52052" lon="3.19271">
        <ele>1013.9</ele>
        <time>2009-06-25T07:19:43Z</time>
      </trkpt>
      <trkpt lat="44.52055" lon="3.19266">
        <ele>1014.3</ele>
        <time>2009-06-25T07:19:48Z</time>
      </trkpt>
      <trkpt lat="44.52073" lon="3.1924">
        <ele>1016.7</ele>
        <time>2009-06-25T07:20:12Z</time>
      </trkpt>
      <trkpt lat="44.52092" lon="3.19217">
        <ele>1018.2</ele>
        <time>2009-06-25T07:20:37Z</time>
      </trkpt>
      <trkpt lat="44.52109" lon="3.192">
        <ele>1018.6</ele>
        <time>2009-06-25T07:20:58Z</time>
      </trkpt>
      <trkpt lat="44.52135" lon="3.19181">
        <ele>1020.1</ele>
        <time>2009-06-25T07:21:25Z</time>
      </trkpt>
      <trkpt lat="44.52161" lon="3.19171">
        <ele>1022</ele>
        <time>2009-06-25T07:21:50Z</time>
      </trkpt>
      <trkpt lat="44.52184" lon="3.19155">
        <ele>1023.9</ele>
        <time>2009-06-25T07:22:15Z</time>
      </trkpt>
      <trkpt lat="44.52204" lon="3.19133">
        <ele>1026.4</ele>
        <time>2009-06-25T07:22:42Z</time>
      </trkpt>
      <trkpt lat="44.52227" lon="3.19114">
        <ele>1026.4</ele>
        <time>2009-06-25T07:23:08Z</time>
      </trkpt>
      <trkpt lat="44.5225" lon="3.19106">
        <ele>1023</ele>
        <time>2009-06-25T07:23:31Z</time>
      </trkpt>
      <trkpt lat="44.52274" lon="3.19085">
        <ele>1019.1</ele>
        <time>2009-06-25T07:23:58Z</time>
      </trkpt>
      <trkpt lat="44.523" lon="3.19064">
        <ele>1017.2</ele>
        <time>2009-06-25T07:24:23Z</time>
      </trkpt>
      <trkpt lat="44.52331" lon="3.19051">
        <ele>1014.8</ele>
        <time>2009-06-25T07:24:52Z</time>
      </trkpt>
      <trkpt lat="44.52364" lon="3.1905">
        <ele>1013.4</ele>
        <time>2009-06-25T07:25:20Z</time>
      </trkpt>
      <trkpt lat="44.52394" lon="3.1905">
        <ele>1011</ele>
        <time>2009-06-25T07:25:46Z</time>
      </trkpt>
      <trkpt lat="44.52428" lon="3.19043">
        <ele>1008.6</ele>
        <time>2009-06-25T07:26:14Z</time>
      </trkpt>
      <trkpt lat="44.52454" lon="3.19027">
        <ele>1007.1</ele>
        <time>2009-06-25T07:26:37Z</time>
      </trkpt>
      <trkpt lat="44.52481" lon="3.19009">
        <ele>1004.2</ele>
        <time>2009-06-25T07:27:04Z</time>
      </trkpt>
      <trkpt lat="44.52484" lon="3.19008">
        <ele>1005.2</ele>
        <time>2009-06-25T07:27:26Z</time>
      </trkpt>
      <trkpt lat="44.52505" lon="3.19">
        <ele>1003.3</ele>
        <time>2009-06-25T07:27:46Z</time>
      </trkpt>
      <trkpt lat="44.52534" lon="3.19006">
        <ele>1003.3</ele>
        <time>2009-06-25T07:28:09Z</time>
      </trkpt>
      <trkpt lat="44.52556" lon="3.1902">
        <ele>999.9</ele>
        <time>2009-06-25T07:28:29Z</time>
      </trkpt>
      <trkpt lat="44.52587" lon="3.19008">
        <ele>999</ele>
        <time>2009-06-25T07:28:57Z</time>
      </trkpt>
      <trkpt lat="44.52622" lon="3.18982">
        <ele>994.6</ele>
        <time>2009-06-25T07:29:30Z</time>
      </trkpt>
      <trkpt lat="44.52655" lon="3.18977">
        <ele>990.3</ele>
        <time>2009-06-25T07:29:58Z</time>
      </trkpt>
      <trkpt lat="44.52688" lon="3.18973">
        <ele>987.4</ele>
        <time>2009-06-25T07:30:25Z</time>
      </trkpt>
      <trkpt lat="44.52721" lon="3.18968">
        <ele>984.5</ele>
        <time>2009-06-25T07:30:52Z</time>
      </trkpt>
      <trkpt lat="44.52749" lon="3.18949">
        <ele>979.2</ele>
        <time>2009-06-25T07:31:15Z</time>
      </trkpt>
      <trkpt lat="44.52783" lon="3.18931">
        <ele>976.8</ele>
        <time>2009-06-25T07:31:45Z</time>
      </trkpt>
      <trkpt lat="44.5281" lon="3.18918">
        <ele>975.9</ele>
        <time>2009-06-25T07:32:09Z</time>
      </trkpt>
      <trkpt lat="44.52845" lon="3.18908">
        <ele>974.4</ele>
        <time>2009-06-25T07:32:36Z</time>
      </trkpt>
      <trkpt lat="44.52875" lon="3.18928">
        <ele>971.5</ele>
        <time>2009-06-25T07:33:03Z</time>
      </trkpt>
      <trkpt lat="44.52905" lon="3.18952">
        <ele>968.2</ele>
        <time>2009-06-25T07:33:32Z</time>
      </trkpt>
      <trkpt lat="44.52935" lon="3.18973">
        <ele>964.3</ele>
        <time>2009-06-25T07:33:59Z</time>
      </trkpt>
      <trkpt lat="44.52945" lon="3.18979">
        <ele>965.8</ele>
        <time>2009-06-25T07:34:08Z</time>
      </trkpt>
      <trkpt lat="44.52976" lon="3.18986">
        <ele>963.4</ele>
        <time>2009-06-25T07:34:34Z</time>
      </trkpt>
      <trkpt lat="44.53008" lon="3.18984">
        <ele>961.5</ele>
        <time>2009-06-25T07:34:59Z</time>
      </trkpt>
      <trkpt lat="44.53038" lon="3.18974">
        <ele>958.6</ele>
        <time>2009-06-25T07:35:24Z</time>
      </trkpt>
      <trkpt lat="44.53071" lon="3.18964">
        <ele>955.2</ele>
        <time>2009-06-25T07:35:52Z</time>
      </trkpt>
      <trkpt lat="44.53096" lon="3.18955">
        <ele>952.3</ele>
        <time>2009-06-25T07:36:14Z</time>
      </trkpt>
      <trkpt lat="44.53125" lon="3.18946">
        <ele>952.3</ele>
        <time>2009-06-25T07:36:39Z</time>
      </trkpt>
      <trkpt lat="44.53156" lon="3.18938">
        <ele>950.4</ele>
        <time>2009-06-25T07:37:08Z</time>
      </trkpt>
      <trkpt lat="44.53187" lon="3.18933">
        <ele>946.1</ele>
        <time>2009-06-25T07:37:33Z</time>
      </trkpt>
      <trkpt lat="44.532" lon="3.18964">
        <ele>943.7</ele>
        <time>2009-06-25T07:37:56Z</time>
      </trkpt>
      <trkpt lat="44.53179" lon="3.19003">
        <ele>943.7</ele>
        <time>2009-06-25T07:38:24Z</time>
      </trkpt>
      <trkpt lat="44.53145" lon="3.19026">
        <ele>944.6</ele>
        <time>2009-06-25T07:38:54Z</time>
      </trkpt>
      <trkpt lat="44.53116" lon="3.19041">
        <ele>946.6</ele>
        <time>2009-06-25T07:39:18Z</time>
      </trkpt>
      <trkpt lat="44.53084" lon="3.19063">
        <ele>945.6</ele>
        <time>2009-06-25T07:39:45Z</time>
      </trkpt>
      <trkpt lat="44.53056" lon="3.19078">
        <ele>944.1</ele>
        <time>2009-06-25T07:40:08Z</time>
      </trkpt>
      <trkpt lat="44.53029" lon="3.19092">
        <ele>945.6</ele>
        <time>2009-06-25T07:40:33Z</time>
      </trkpt>
      <trkpt lat="44.5301" lon="3.19107">
        <ele>946.6</ele>
        <time>2009-06-25T07:40:52Z</time>
      </trkpt>
      <trkpt lat="44.52985" lon="3.19127">
        <ele>946.1</ele>
        <time>2009-06-25T07:41:13Z</time>
      </trkpt>
      <trkpt lat="44.52963" lon="3.19147">
        <ele>944.1</ele>
        <time>2009-06-25T07:41:36Z</time>
      </trkpt>
      <trkpt lat="44.52941" lon="3.19173">
        <ele>941.3</ele>
        <time>2009-06-25T07:41:58Z</time>
      </trkpt>
      <trkpt lat="44.52923" lon="3.19213">
        <ele>940.3</ele>
        <time>2009-06-25T07:42:23Z</time>
      </trkpt>
      <trkpt lat="44.5291" lon="3.19266">
        <ele>936.5</ele>
        <time>2009-06-25T07:42:56Z</time>
      </trkpt>
      <trkpt lat="44.52909" lon="3.19287">
        <ele>937.4</ele>
        <time>2009-06-25T07:43:11Z</time>
      </trkpt>
      <trkpt lat="44.52904" lon="3.19316">
        <ele>938.9</ele>
        <time>2009-06-25T07:43:32Z</time>
      </trkpt>
      <trkpt lat="44.52894" lon="3.19346">
        <ele>943.2</ele>
        <time>2009-06-25T07:43:55Z</time>
      </trkpt>
      <trkpt lat="44.52888" lon="3.19382">
        <ele>946.1</ele>
        <time>2009-06-25T07:44:22Z</time>
      </trkpt>
      <trkpt lat="44.52891" lon="3.19396">
        <ele>947.5</ele>
        <time>2009-06-25T07:44:33Z</time>
      </trkpt>
      <trkpt lat="44.52898" lon="3.19401">
        <ele>949.5</ele>
        <time>2009-06-25T07:44:59Z</time>
      </trkpt>
      <trkpt lat="44.52904" lon="3.19406">
        <ele>950.4</ele>
        <time>2009-06-25T07:45:12Z</time>
      </trkpt>
      <trkpt lat="44.52916" lon="3.19437">
        <ele>950.4</ele>
        <time>2009-06-25T07:45:35Z</time>
      </trkpt>
      <trkpt lat="44.52916" lon="3.19443">
        <ele>951.4</ele>
        <time>2009-06-25T07:45:41Z</time>
      </trkpt>
      <trkpt lat="44.52925" lon="3.19469">
        <ele>952.3</ele>
        <time>2009-06-25T07:46:02Z</time>
      </trkpt>
      <trkpt lat="44.52941" lon="3.19497">
        <ele>954.2</ele>
        <time>2009-06-25T07:46:25Z</time>
      </trkpt>
      <trkpt lat="44.52957" lon="3.19524">
        <ele>956.6</ele>
        <time>2009-06-25T07:46:48Z</time>
      </trkpt>
      <trkpt lat="44.5297" lon="3.19553">
        <ele>957.6</ele>
        <time>2009-06-25T07:47:11Z</time>
      </trkpt>
      <trkpt lat="44.52987" lon="3.19586">
        <ele>960.5</ele>
        <time>2009-06-25T07:47:38Z</time>
      </trkpt>
      <trkpt lat="44.53011" lon="3.19607">
        <ele>962.4</ele>
        <time>2009-06-25T07:48:02Z</time>
      </trkpt>
      <trkpt lat="44.53033" lon="3.19631">
        <ele>964.8</ele>
        <time>2009-06-25T07:48:27Z</time>
      </trkpt>
      <trkpt lat="44.53051" lon="3.19654">
        <ele>964.3</ele>
        <time>2009-06-25T07:48:48Z</time>
      </trkpt>
      <trkpt lat="44.53071" lon="3.19674">
        <ele>964.3</ele>
        <time>2009-06-25T07:49:07Z</time>
      </trkpt>
      <trkpt lat="44.53096" lon="3.19702">
        <ele>969.1</ele>
        <time>2009-06-25T07:49:37Z</time>
      </trkpt>
      <trkpt lat="44.5312" lon="3.19722">
        <ele>968.2</ele>
        <time>2009-06-25T07:50:04Z</time>
      </trkpt>
      <trkpt lat="44.53143" lon="3.19735">
        <ele>966.7</ele>
        <time>2009-06-25T07:50:28Z</time>
      </trkpt>
      <trkpt lat="44.5317" lon="3.19752">
        <ele>964.8</ele>
        <time>2009-06-25T07:50:52Z</time>
      </trkpt>
      <trkpt lat="44.53198" lon="3.19772">
        <ele>963.9</ele>
        <time>2009-06-25T07:51:19Z</time>
      </trkpt>
      <trkpt lat="44.53224" lon="3.19792">
        <ele>964.3</ele>
        <time>2009-06-25T07:51:45Z</time>
      </trkpt>
      <trkpt lat="44.53257" lon="3.19807">
        <ele>963.9</ele>
        <time>2009-06-25T07:52:16Z</time>
      </trkpt>
      <trkpt lat="44.53281" lon="3.19814">
        <ele>959.5</ele>
        <time>2009-06-25T07:52:39Z</time>
      </trkpt>
      <trkpt lat="44.53307" lon="3.19822">
        <ele>955.7</ele>
        <time>2009-06-25T07:53:05Z</time>
      </trkpt>
      <trkpt lat="44.53318" lon="3.19821">
        <ele>951.8</ele>
        <time>2009-06-25T07:53:20Z</time>
      </trkpt>
      <trkpt lat="44.53344" lon="3.19818">
        <ele>946.1</ele>
        <time>2009-06-25T07:53:44Z</time>
      </trkpt>
      <trkpt lat="44.53357" lon="3.19816">
        <ele>942.7</ele>
        <time>2009-06-25T07:54:00Z</time>
      </trkpt>
      <trkpt lat="44.53382" lon="3.19817">
        <ele>937.9</ele>
        <time>2009-06-25T07:54:24Z</time>
      </trkpt>
      <trkpt lat="44.53384" lon="3.19815">
        <ele>937.4</ele>
        <time>2009-06-25T07:54:27Z</time>
      </trkpt>
      <trkpt lat="44.53388" lon="3.19793">
        <ele>940.3</ele>
        <time>2009-06-25T07:54:47Z</time>
      </trkpt>
      <trkpt lat="44.53392" lon="3.19765">
        <ele>943.2</ele>
        <time>2009-06-25T07:55:09Z</time>
      </trkpt>
      <trkpt lat="44.53398" lon="3.19752">
        <ele>946.6</ele>
        <time>2009-06-25T07:55:22Z</time>
      </trkpt>
      <trkpt lat="44.53409" lon="3.19741">
        <ele>949</ele>
        <time>2009-06-25T07:55:37Z</time>
      </trkpt>
      <trkpt lat="44.53425" lon="3.19727">
        <ele>953.8</ele>
        <time>2009-06-25T07:55:59Z</time>
      </trkpt>
      <trkpt lat="44.53445" lon="3.19704">
        <ele>958.6</ele>
        <time>2009-06-25T07:56:24Z</time>
      </trkpt>
      <trkpt lat="44.53452" lon="3.19687">
        <ele>960</ele>
        <time>2009-06-25T07:56:39Z</time>
      </trkpt>
      <trkpt lat="44.53454" lon="3.19685">
        <ele>960.5</ele>
        <time>2009-06-25T07:56:42Z</time>
      </trkpt>
      <trkpt lat="44.53458" lon="3.19677">
        <ele>960.5</ele>
        <time>2009-06-25T07:56:50Z</time>
      </trkpt>
      <trkpt lat="44.53472" lon="3.19657">
        <ele>964.8</ele>
        <time>2009-06-25T07:57:10Z</time>
      </trkpt>
      <trkpt lat="44.53475" lon="3.19651">
        <ele>967.7</ele>
        <time>2009-06-25T07:57:32Z</time>
      </trkpt>
      <trkpt lat="44.53487" lon="3.19641">
        <ele>969.6</ele>
        <time>2009-06-25T07:57:50Z</time>
      </trkpt>
      <trkpt lat="44.53498" lon="3.19629">
        <ele>971.5</ele>
        <time>2009-06-25T07:58:11Z</time>
      </trkpt>
      <trkpt lat="44.53511" lon="3.19614">
        <ele>975.4</ele>
        <time>2009-06-25T07:59:06Z</time>
      </trkpt>
      <trkpt lat="44.53528" lon="3.19592">
        <ele>976.8</ele>
        <time>2009-06-25T07:59:32Z</time>
      </trkpt>
      <trkpt lat="44.53542" lon="3.19568">
        <ele>979.7</ele>
        <time>2009-06-25T07:59:58Z</time>
      </trkpt>
      <trkpt lat="44.53553" lon="3.19551">
        <ele>981.6</ele>
        <time>2009-06-25T08:00:18Z</time>
      </trkpt>
      <trkpt lat="44.53569" lon="3.19528">
        <ele>983.1</ele>
        <time>2009-06-25T08:00:40Z</time>
      </trkpt>
      <trkpt lat="44.53578" lon="3.19511">
        <ele>985</ele>
        <time>2009-06-25T08:01:01Z</time>
      </trkpt>
      <trkpt lat="44.53585" lon="3.19497">
        <ele>986.5</ele>
        <time>2009-06-25T08:01:16Z</time>
      </trkpt>
      <trkpt lat="44.53591" lon="3.19489">
        <ele>989.8</ele>
        <time>2009-06-25T08:01:38Z</time>
      </trkpt>
      <trkpt lat="44.53603" lon="3.19472">
        <ele>990.3</ele>
        <time>2009-06-25T08:01:58Z</time>
      </trkpt>
      <trkpt lat="44.53616" lon="3.19453">
        <ele>993.6</ele>
        <time>2009-06-25T08:02:18Z</time>
      </trkpt>
      <trkpt lat="44.53623" lon="3.19435">
        <ele>997.5</ele>
        <time>2009-06-25T08:02:36Z</time>
      </trkpt>
      <trkpt lat="44.53635" lon="3.19426">
        <ele>999</ele>
        <time>2009-06-25T08:02:56Z</time>
      </trkpt>
      <trkpt lat="44.53661" lon="3.19421">
        <ele>993.2</ele>
        <time>2009-06-25T08:03:23Z</time>
      </trkpt>
      <trkpt lat="44.53681" lon="3.19404">
        <ele>995.6</ele>
        <time>2009-06-25T08:03:46Z</time>
      </trkpt>
      <trkpt lat="44.5369" lon="3.19399">
        <ele>997</ele>
        <time>2009-06-25T08:03:55Z</time>
      </trkpt>
      <trkpt lat="44.53717" lon="3.19386">
        <ele>996.5</ele>
        <time>2009-06-25T08:04:21Z</time>
      </trkpt>
      <trkpt lat="44.53735" lon="3.19355">
        <ele>1000.4</ele>
        <time>2009-06-25T08:04:44Z</time>
      </trkpt>
      <trkpt lat="44.5374" lon="3.19318">
        <ele>1004.2</ele>
        <time>2009-06-25T08:05:07Z</time>
      </trkpt>
      <trkpt lat="44.53749" lon="3.19278">
        <ele>1008.1</ele>
        <time>2009-06-25T08:05:33Z</time>
      </trkpt>
      <trkpt lat="44.53761" lon="3.19243">
        <ele>1011</ele>
        <time>2009-06-25T08:05:58Z</time>
      </trkpt>
      <trkpt lat="44.53771" lon="3.19214">
        <ele>1012.4</ele>
        <time>2009-06-25T08:06:20Z</time>
      </trkpt>
      <trkpt lat="44.53787" lon="3.19187">
        <ele>1015.3</ele>
        <time>2009-06-25T08:06:43Z</time>
      </trkpt>
      <trkpt lat="44.53794" lon="3.19162">
        <ele>1015.8</ele>
        <time>2009-06-25T08:07:06Z</time>
      </trkpt>
      <trkpt lat="44.53795" lon="3.19133">
        <ele>1018.6</ele>
        <time>2009-06-25T08:07:29Z</time>
      </trkpt>
      <trkpt lat="44.53795" lon="3.19131">
        <ele>1018.6</ele>
        <time>2009-06-25T08:07:30Z</time>
      </trkpt>
      <trkpt lat="44.53809" lon="3.191">
        <ele>1024.9</ele>
        <time>2009-06-25T08:07:53Z</time>
      </trkpt>
      <trkpt lat="44.53828" lon="3.19074">
        <ele>1025.4</ele>
        <time>2009-06-25T08:08:16Z</time>
      </trkpt>
      <trkpt lat="44.53844" lon="3.19039">
        <ele>1028.8</ele>
        <time>2009-06-25T08:08:42Z</time>
      </trkpt>
      <trkpt lat="44.53853" lon="3.19017">
        <ele>1032.1</ele>
        <time>2009-06-25T08:09:03Z</time>
      </trkpt>
      <trkpt lat="44.53863" lon="3.18992">
        <ele>1035</ele>
        <time>2009-06-25T08:09:23Z</time>
      </trkpt>
      <trkpt lat="44.53879" lon="3.18966">
        <ele>1036</ele>
        <time>2009-06-25T08:09:45Z</time>
      </trkpt>
      <trkpt lat="44.53886" lon="3.1895">
        <ele>1036.4</ele>
        <time>2009-06-25T08:10:04Z</time>
      </trkpt>
      <trkpt lat="44.53897" lon="3.18915">
        <ele>1039.3</ele>
        <time>2009-06-25T08:10:28Z</time>
      </trkpt>
      <trkpt lat="44.53904" lon="3.1888">
        <ele>1039.8</ele>
        <time>2009-06-25T08:10:51Z</time>
      </trkpt>
      <trkpt lat="44.53911" lon="3.18845">
        <ele>1043.6</ele>
        <time>2009-06-25T08:11:15Z</time>
      </trkpt>
      <trkpt lat="44.53914" lon="3.18819">
        <ele>1047</ele>
        <time>2009-06-25T08:11:37Z</time>
      </trkpt>
      <trkpt lat="44.53913" lon="3.18789">
        <ele>1048.9</ele>
        <time>2009-06-25T08:11:59Z</time>
      </trkpt>
      <trkpt lat="44.53911" lon="3.18752">
        <ele>1050.9</ele>
        <time>2009-06-25T08:12:26Z</time>
      </trkpt>
      <trkpt lat="44.53911" lon="3.1872">
        <ele>1050.4</ele>
        <time>2009-06-25T08:12:47Z</time>
      </trkpt>
      <trkpt lat="44.53906" lon="3.18688">
        <ele>1049.4</ele>
        <time>2009-06-25T08:13:10Z</time>
      </trkpt>
      <trkpt lat="44.53899" lon="3.18658">
        <ele>1055.2</ele>
        <time>2009-06-25T08:13:33Z</time>
      </trkpt>
      <trkpt lat="44.53888" lon="3.18628">
        <ele>1058.1</ele>
        <time>2009-06-25T08:13:56Z</time>
      </trkpt>
      <trkpt lat="44.53871" lon="3.18599">
        <ele>1061.9</ele>
        <time>2009-06-25T08:14:19Z</time>
      </trkpt>
      <trkpt lat="44.53855" lon="3.1857">
        <ele>1064.8</ele>
        <time>2009-06-25T08:14:46Z</time>
      </trkpt>
      <trkpt lat="44.53837" lon="3.18543">
        <ele>1071.5</ele>
        <time>2009-06-25T08:15:13Z</time>
      </trkpt>
      <trkpt lat="44.53824" lon="3.18518">
        <ele>1073</ele>
        <time>2009-06-25T08:15:36Z</time>
      </trkpt>
      <trkpt lat="44.53823" lon="3.18509">
        <ele>1073.4</ele>
        <time>2009-06-25T08:15:44Z</time>
      </trkpt>
      <trkpt lat="44.53828" lon="3.18478">
        <ele>1075.4</ele>
        <time>2009-06-25T08:16:07Z</time>
      </trkpt>
      <trkpt lat="44.53838" lon="3.18444">
        <ele>1076.3</ele>
        <time>2009-06-25T08:16:31Z</time>
      </trkpt>
      <trkpt lat="44.53851" lon="3.18411">
        <ele>1077.8</ele>
        <time>2009-06-25T08:16:56Z</time>
      </trkpt>
      <trkpt lat="44.53862" lon="3.18391">
        <ele>1077.8</ele>
        <time>2009-06-25T08:17:11Z</time>
      </trkpt>
      <trkpt lat="44.53865" lon="3.1839">
        <ele>1080.7</ele>
        <time>2009-06-25T08:17:13Z</time>
      </trkpt>
      <trkpt lat="44.53882" lon="3.18366">
        <ele>1081.6</ele>
        <time>2009-06-25T08:17:36Z</time>
      </trkpt>
      <trkpt lat="44.53899" lon="3.18347">
        <ele>1086.4</ele>
        <time>2009-06-25T08:18:00Z</time>
      </trkpt>
      <trkpt lat="44.53911" lon="3.1833">
        <ele>1088.8</ele>
        <time>2009-06-25T08:18:26Z</time>
      </trkpt>
      <trkpt lat="44.53929" lon="3.1831">
        <ele>1091.2</ele>
        <time>2009-06-25T08:18:49Z</time>
      </trkpt>
      <trkpt lat="44.53944" lon="3.18296">
        <ele>1098</ele>
        <time>2009-06-25T08:19:12Z</time>
      </trkpt>
      <trkpt lat="44.53946" lon="3.18294">
        <ele>1097.5</ele>
        <time>2009-06-25T08:19:15Z</time>
      </trkpt>
      <trkpt lat="44.5397" lon="3.18285">
        <ele>1102.8</ele>
        <time>2009-06-25T08:19:40Z</time>
      </trkpt>
      <trkpt lat="44.53985" lon="3.18277">
        <ele>1102.3</ele>
        <time>2009-06-25T08:19:57Z</time>
      </trkpt>
      <trkpt lat="44.54006" lon="3.18259">
        <ele>1100.4</ele>
        <time>2009-06-25T08:20:18Z</time>
      </trkpt>
      <trkpt lat="44.54027" lon="3.18243">
        <ele>1104.2</ele>
        <time>2009-06-25T08:20:41Z</time>
      </trkpt>
      <trkpt lat="44.54047" lon="3.18227">
        <ele>1106.1</ele>
        <time>2009-06-25T08:21:05Z</time>
      </trkpt>
      <trkpt lat="44.54068" lon="3.18215">
        <ele>1110.9</ele>
        <time>2009-06-25T08:21:27Z</time>
      </trkpt>
      <trkpt lat="44.54072" lon="3.18213">
        <ele>1110.4</ele>
        <time>2009-06-25T08:21:31Z</time>
      </trkpt>
      <trkpt lat="44.54086" lon="3.18202">
        <ele>1113.3</ele>
        <time>2009-06-25T08:21:53Z</time>
      </trkpt>
      <trkpt lat="44.54096" lon="3.18201">
        <ele>1112.9</ele>
        <time>2009-06-25T08:22:09Z</time>
      </trkpt>
      <trkpt lat="44.54099" lon="3.182">
        <ele>1115.8</ele>
        <time>2009-06-25T08:22:44Z</time>
      </trkpt>
      <trkpt lat="44.54124" lon="3.1819">
        <ele>1115.8</ele>
        <time>2009-06-25T08:23:07Z</time>
      </trkpt>
      <trkpt lat="44.54146" lon="3.18183">
        <ele>1117.7</ele>
        <time>2009-06-25T08:23:26Z</time>
      </trkpt>
      <trkpt lat="44.54167" lon="3.18174">
        <ele>1120.1</ele>
        <time>2009-06-25T08:23:46Z</time>
      </trkpt>
      <trkpt lat="44.54193" lon="3.18169">
        <ele>1122</ele>
        <time>2009-06-25T08:24:10Z</time>
      </trkpt>
      <trkpt lat="44.54227" lon="3.18167">
        <ele>1122.5</ele>
        <time>2009-06-25T08:24:40Z</time>
      </trkpt>
      <trkpt lat="44.54257" lon="3.18173">
        <ele>1124.9</ele>
        <time>2009-06-25T08:25:07Z</time>
      </trkpt>
      <trkpt lat="44.54285" lon="3.18186">
        <ele>1126.3</ele>
        <time>2009-06-25T08:25:34Z</time>
      </trkpt>
      <trkpt lat="44.54313" lon="3.18206">
        <ele>1128.2</ele>
        <time>2009-06-25T08:26:00Z</time>
      </trkpt>
      <trkpt lat="44.54339" lon="3.18222">
        <ele>1131.1</ele>
        <time>2009-06-25T08:26:24Z</time>
      </trkpt>
      <trkpt lat="44.54366" lon="3.18241">
        <ele>1134</ele>
        <time>2009-06-25T08:26:52Z</time>
      </trkpt>
      <trkpt lat="44.54391" lon="3.18257">
        <ele>1135.9</ele>
        <time>2009-06-25T08:27:17Z</time>
      </trkpt>
      <trkpt lat="44.54422" lon="3.1827">
        <ele>1137.4</ele>
        <time>2009-06-25T08:27:45Z</time>
      </trkpt>
      <trkpt lat="44.54436" lon="3.18273">
        <ele>1138.8</ele>
        <time>2009-06-25T08:28:08Z</time>
      </trkpt>
      <trkpt lat="44.54438" lon="3.18272">
        <ele>1135</ele>
        <time>2009-06-25T08:28:34Z</time>
      </trkpt>
      <trkpt lat="44.54453" lon="3.18268">
        <ele>1137.4</ele>
        <time>2009-06-25T08:28:55Z</time>
      </trkpt>
      <trkpt lat="44.54459" lon="3.18272">
        <ele>1136.4</ele>
        <time>2009-06-25T08:29:56Z</time>
      </trkpt>
      <trkpt lat="44.54475" lon="3.18271">
        <ele>1138.3</ele>
        <time>2009-06-25T08:30:12Z</time>
      </trkpt>
      <trkpt lat="44.54501" lon="3.18277">
        <ele>1141.7</ele>
        <time>2009-06-25T08:30:36Z</time>
      </trkpt>
      <trkpt lat="44.54529" lon="3.1829">
        <ele>1145.1</ele>
        <time>2009-06-25T08:31:03Z</time>
      </trkpt>
      <trkpt lat="44.54562" lon="3.18306">
        <ele>1147</ele>
        <time>2009-06-25T08:31:33Z</time>
      </trkpt>
      <trkpt lat="44.5458" lon="3.18309">
        <ele>1147.9</ele>
        <time>2009-06-25T08:31:57Z</time>
      </trkpt>
      <trkpt lat="44.54597" lon="3.18301">
        <ele>1150.3</ele>
        <time>2009-06-25T08:32:50Z</time>
      </trkpt>
      <trkpt lat="44.54628" lon="3.18286">
        <ele>1154.2</ele>
        <time>2009-06-25T08:33:18Z</time>
      </trkpt>
      <trkpt lat="44.5466" lon="3.18277">
        <ele>1156.6</ele>
        <time>2009-06-25T08:33:43Z</time>
      </trkpt>
      <trkpt lat="44.5469" lon="3.1826">
        <ele>1157.6</ele>
        <time>2009-06-25T08:34:07Z</time>
      </trkpt>
      <trkpt lat="44.54718" lon="3.18236">
        <ele>1153.2</ele>
        <time>2009-06-25T08:34:34Z</time>
      </trkpt>
      <trkpt lat="44.54741" lon="3.18211">
        <ele>1151.3</ele>
        <time>2009-06-25T08:34:57Z</time>
      </trkpt>
      <trkpt lat="44.54767" lon="3.18183">
        <ele>1151.8</ele>
        <time>2009-06-25T08:35:24Z</time>
      </trkpt>
      <trkpt lat="44.54789" lon="3.1816">
        <ele>1151.8</ele>
        <time>2009-06-25T08:35:47Z</time>
      </trkpt>
      <trkpt lat="44.5481" lon="3.18138">
        <ele>1151.8</ele>
        <time>2009-06-25T08:36:11Z</time>
      </trkpt>
      <trkpt lat="44.54814" lon="3.18122">
        <ele>1153.2</ele>
        <time>2009-06-25T08:36:32Z</time>
      </trkpt>
      <trkpt lat="44.54806" lon="3.18118">
        <ele>1153.2</ele>
        <time>2009-06-25T08:36:45Z</time>
      </trkpt>
      <trkpt lat="44.54793" lon="3.18103">
        <ele>1156.1</ele>
        <time>2009-06-25T08:37:08Z</time>
      </trkpt>
      <trkpt lat="44.54786" lon="3.18089">
        <ele>1158.5</ele>
        <time>2009-06-25T08:37:21Z</time>
      </trkpt>
      <trkpt lat="44.54774" lon="3.18063">
        <ele>1162.8</ele>
        <time>2009-06-25T08:37:47Z</time>
      </trkpt>
      <trkpt lat="44.54761" lon="3.18039">
        <ele>1167.7</ele>
        <time>2009-06-25T08:38:14Z</time>
      </trkpt>
      <trkpt lat="44.54754" lon="3.18019">
        <ele>1170.1</ele>
        <time>2009-06-25T08:38:33Z</time>
      </trkpt>
      <trkpt lat="44.54755" lon="3.17993">
        <ele>1171.5</ele>
        <time>2009-06-25T08:38:56Z</time>
      </trkpt>
      <trkpt lat="44.5476" lon="3.17984">
        <ele>1172</ele>
        <time>2009-06-25T08:39:15Z</time>
      </trkpt>
      <trkpt lat="44.54783" lon="3.1796">
        <ele>1173.4</ele>
        <time>2009-06-25T08:39:42Z</time>
      </trkpt>
      <trkpt lat="44.54808" lon="3.17941">
        <ele>1175.8</ele>
        <time>2009-06-25T08:40:08Z</time>
      </trkpt>
      <trkpt lat="44.54826" lon="3.17929">
        <ele>1178.2</ele>
        <time>2009-06-25T08:40:30Z</time>
      </trkpt>
      <trkpt lat="44.54828" lon="3.17927">
        <ele>1178.7</ele>
        <time>2009-06-25T08:40:33Z</time>
      </trkpt>
      <trkpt lat="44.54849" lon="3.17911">
        <ele>1181.1</ele>
        <time>2009-06-25T08:40:59Z</time>
      </trkpt>
      <trkpt lat="44.54868" lon="3.17903">
        <ele>1184</ele>
        <time>2009-06-25T08:41:23Z</time>
      </trkpt>
      <trkpt lat="44.54879" lon="3.17897">
        <ele>1185.9</ele>
        <time>2009-06-25T08:41:39Z</time>
      </trkpt>
      <trkpt lat="44.54899" lon="3.17887">
        <ele>1189.3</ele>
        <time>2009-06-25T08:42:02Z</time>
      </trkpt>
      <trkpt lat="44.54916" lon="3.17881">
        <ele>1191.7</ele>
        <time>2009-06-25T08:42:25Z</time>
      </trkpt>
      <trkpt lat="44.54918" lon="3.1788">
        <ele>1193.1</ele>
        <time>2009-06-25T08:43:03Z</time>
      </trkpt>
      <trkpt lat="44.54932" lon="3.17871">
        <ele>1195.1</ele>
        <time>2009-06-25T08:43:35Z</time>
      </trkpt>
      <trkpt lat="44.54944" lon="3.17848">
        <ele>1197.5</ele>
        <time>2009-06-25T08:43:58Z</time>
      </trkpt>
      <trkpt lat="44.54952" lon="3.17823">
        <ele>1200.3</ele>
        <time>2009-06-25T08:44:21Z</time>
      </trkpt>
      <trkpt lat="44.54952" lon="3.17809">
        <ele>1200.3</ele>
        <time>2009-06-25T08:44:40Z</time>
      </trkpt>
      <trkpt lat="44.54953" lon="3.17803">
        <ele>1199.4</ele>
        <time>2009-06-25T08:45:10Z</time>
      </trkpt>
      <trkpt lat="44.54946" lon="3.17786">
        <ele>1200.3</ele>
        <time>2009-06-25T08:45:26Z</time>
      </trkpt>
      <trkpt lat="44.54946" lon="3.17758">
        <ele>1203.2</ele>
        <time>2009-06-25T08:45:50Z</time>
      </trkpt>
      <trkpt lat="44.54954" lon="3.1775">
        <ele>1205.1</ele>
        <time>2009-06-25T08:46:08Z</time>
      </trkpt>
      <trkpt lat="44.54955" lon="3.17743">
        <ele>1205.1</ele>
        <time>2009-06-25T08:46:28Z</time>
      </trkpt>
      <trkpt lat="44.54958" lon="3.17737">
        <ele>1207.1</ele>
        <time>2009-06-25T08:46:47Z</time>
      </trkpt>
      <trkpt lat="44.54965" lon="3.17723">
        <ele>1207.6</ele>
        <time>2009-06-25T08:47:10Z</time>
      </trkpt>
      <trkpt lat="44.54975" lon="3.1771">
        <ele>1208.5</ele>
        <time>2009-06-25T08:47:29Z</time>
      </trkpt>
      <trkpt lat="44.55009" lon="3.17669">
        <ele>1209.5</ele>
        <time>2009-06-25T08:48:19Z</time>
      </trkpt>
      <trkpt lat="44.55023" lon="3.17651">
        <ele>1210</ele>
        <time>2009-06-25T08:48:43Z</time>
      </trkpt>
      <trkpt lat="44.55029" lon="3.17648">
        <ele>1211.9</ele>
        <time>2009-06-25T08:48:53Z</time>
      </trkpt>
      <trkpt lat="44.55037" lon="3.17654">
        <ele>1211.9</ele>
        <time>2009-06-25T08:49:13Z</time>
      </trkpt>
      <trkpt lat="44.55048" lon="3.17671">
        <ele>1217.2</ele>
        <time>2009-06-25T08:50:51Z</time>
      </trkpt>
      <trkpt lat="44.55045" lon="3.17723">
        <ele>1224.4</ele>
        <time>2009-06-25T08:51:24Z</time>
      </trkpt>
      <trkpt lat="44.5504" lon="3.17771">
        <ele>1226.3</ele>
        <time>2009-06-25T08:51:55Z</time>
      </trkpt>
      <trkpt lat="44.55041" lon="3.17785">
        <ele>1226.3</ele>
        <time>2009-06-25T08:52:03Z</time>
      </trkpt>
      <trkpt lat="44.5505" lon="3.17829">
        <ele>1223.4</ele>
        <time>2009-06-25T08:52:31Z</time>
      </trkpt>
      <trkpt lat="44.55065" lon="3.17867">
        <ele>1221</ele>
        <time>2009-06-25T08:52:58Z</time>
      </trkpt>
      <trkpt lat="44.5507" lon="3.17873">
        <ele>1220.1</ele>
        <time>2009-06-25T08:53:05Z</time>
      </trkpt>
      <trkpt lat="44.55075" lon="3.17875">
        <ele>1220.1</ele>
        <time>2009-06-25T08:53:09Z</time>
      </trkpt>
      <trkpt lat="44.55085" lon="3.17882">
        <ele>1220.5</ele>
        <time>2009-06-25T08:53:17Z</time>
      </trkpt>
      <trkpt lat="44.55107" lon="3.17905">
        <ele>1221</ele>
        <time>2009-06-25T08:53:42Z</time>
      </trkpt>
      <trkpt lat="44.55124" lon="3.17922">
        <ele>1221</ele>
        <time>2009-06-25T08:53:59Z</time>
      </trkpt>
      <trkpt lat="44.55149" lon="3.17945">
        <ele>1220.5</ele>
        <time>2009-06-25T08:54:30Z</time>
      </trkpt>
      <trkpt lat="44.55166" lon="3.17961">
        <ele>1217.6</ele>
        <time>2009-06-25T08:55:19Z</time>
      </trkpt>
      <trkpt lat="44.5519" lon="3.1798">
        <ele>1216.7</ele>
        <time>2009-06-25T08:55:43Z</time>
      </trkpt>
      <trkpt lat="44.55209" lon="3.18014">
        <ele>1218.1</ele>
        <time>2009-06-25T08:56:10Z</time>
      </trkpt>
      <trkpt lat="44.55218" lon="3.18053">
        <ele>1215.2</ele>
        <time>2009-06-25T08:56:36Z</time>
      </trkpt>
      <trkpt lat="44.55228" lon="3.18083">
        <ele>1217.6</ele>
        <time>2009-06-25T08:56:56Z</time>
      </trkpt>
      <trkpt lat="44.55241" lon="3.18123">
        <ele>1217.2</ele>
        <time>2009-06-25T08:57:23Z</time>
      </trkpt>
      <trkpt lat="44.55245" lon="3.18168">
        <ele>1219.6</ele>
        <time>2009-06-25T08:57:50Z</time>
      </trkpt>
      <trkpt lat="44.55252" lon="3.18205">
        <ele>1224.9</ele>
        <time>2009-06-25T08:58:14Z</time>
      </trkpt>
      <trkpt lat="44.55256" lon="3.18248">
        <ele>1230.1</ele>
        <time>2009-06-25T08:58:43Z</time>
      </trkpt>
      <trkpt lat="44.55256" lon="3.18289">
        <ele>1231.6</ele>
        <time>2009-06-25T08:59:07Z</time>
      </trkpt>
      <trkpt lat="44.55263" lon="3.18331">
        <ele>1230.1</ele>
        <time>2009-06-25T08:59:33Z</time>
      </trkpt>
      <trkpt lat="44.5527" lon="3.18367">
        <ele>1227.2</ele>
        <time>2009-06-25T08:59:58Z</time>
      </trkpt>
      <trkpt lat="44.55277" lon="3.18402">
        <ele>1224.9</ele>
        <time>2009-06-25T09:00:25Z</time>
      </trkpt>
      <trkpt lat="44.55282" lon="3.18423">
        <ele>1227.7</ele>
        <time>2009-06-25T09:00:40Z</time>
      </trkpt>
      <trkpt lat="44.55293" lon="3.18437">
        <ele>1228.7</ele>
        <time>2009-06-25T09:00:58Z</time>
      </trkpt>
      <trkpt lat="44.5531" lon="3.18449">
        <ele>1232.1</ele>
        <time>2009-06-25T09:01:15Z</time>
      </trkpt>
      <trkpt lat="44.55332" lon="3.18446">
        <ele>1236.4</ele>
        <time>2009-06-25T09:01:34Z</time>
      </trkpt>
      <trkpt lat="44.55332" lon="3.1845">
        <ele>1235.9</ele>
        <time>2009-06-25T09:01:38Z</time>
      </trkpt>
      <trkpt lat="44.55343" lon="3.18446">
        <ele>1237.4</ele>
        <time>2009-06-25T09:01:49Z</time>
      </trkpt>
      <trkpt lat="44.55369" lon="3.18441">
        <ele>1240.2</ele>
        <time>2009-06-25T09:02:17Z</time>
      </trkpt>
      <trkpt lat="44.55399" lon="3.18427">
        <ele>1243.1</ele>
        <time>2009-06-25T09:02:47Z</time>
      </trkpt>
      <trkpt lat="44.55418" lon="3.18406">
        <ele>1247.5</ele>
        <time>2009-06-25T09:03:10Z</time>
      </trkpt>
      <trkpt lat="44.55446" lon="3.18394">
        <ele>1248.9</ele>
        <time>2009-06-25T09:03:37Z</time>
      </trkpt>
      <trkpt lat="44.55471" lon="3.184">
        <ele>1252.7</ele>
        <time>2009-06-25T09:04:01Z</time>
      </trkpt>
      <trkpt lat="44.55478" lon="3.18402">
        <ele>1252.7</ele>
        <time>2009-06-25T09:04:08Z</time>
      </trkpt>
      <trkpt lat="44.55508" lon="3.18408">
        <ele>1251.3</ele>
        <time>2009-06-25T09:04:35Z</time>
      </trkpt>
      <trkpt lat="44.55536" lon="3.1841">
        <ele>1250.8</ele>
        <time>2009-06-25T09:04:58Z</time>
      </trkpt>
      <trkpt lat="44.55543" lon="3.1841">
        <ele>1251.8</ele>
        <time>2009-06-25T09:05:20Z</time>
      </trkpt>
      <trkpt lat="44.55559" lon="3.18407">
        <ele>1253.7</ele>
        <time>2009-06-25T09:05:42Z</time>
      </trkpt>
      <trkpt lat="44.55581" lon="3.18401">
        <ele>1253.2</ele>
        <time>2009-06-25T09:06:05Z</time>
      </trkpt>
      <trkpt lat="44.55584" lon="3.18403">
        <ele>1253.2</ele>
        <time>2009-06-25T09:06:09Z</time>
      </trkpt>
      <trkpt lat="44.55601" lon="3.18435">
        <ele>1248.4</ele>
        <time>2009-06-25T09:06:35Z</time>
      </trkpt>
      <trkpt lat="44.55617" lon="3.1846">
        <ele>1251.8</ele>
        <time>2009-06-25T09:06:58Z</time>
      </trkpt>
      <trkpt lat="44.55617" lon="3.18466">
        <ele>1251.8</ele>
        <time>2009-06-25T09:07:02Z</time>
      </trkpt>
      <trkpt lat="44.55619" lon="3.18479">
        <ele>1251.8</ele>
        <time>2009-06-25T09:07:10Z</time>
      </trkpt>
      <trkpt lat="44.55616" lon="3.18486">
        <ele>1252.7</ele>
        <time>2009-06-25T09:07:29Z</time>
      </trkpt>
      <trkpt lat="44.55618" lon="3.18489">
        <ele>1251.8</ele>
        <time>2009-06-25T09:07:43Z</time>
      </trkpt>
      <trkpt lat="44.55619" lon="3.18489">
        <ele>1251.3</ele>
        <time>2009-06-25T09:16:45Z</time>
      </trkpt>
      <trkpt lat="44.55623" lon="3.18493">
        <ele>1251.3</ele>
        <time>2009-06-25T09:16:49Z</time>
      </trkpt>
      <trkpt lat="44.55635" lon="3.18531">
        <ele>1250.3</ele>
        <time>2009-06-25T09:17:15Z</time>
      </trkpt>
      <trkpt lat="44.55642" lon="3.18572">
        <ele>1251.3</ele>
        <time>2009-06-25T09:17:39Z</time>
      </trkpt>
      <trkpt lat="44.55647" lon="3.18606">
        <ele>1251.3</ele>
        <time>2009-06-25T09:18:01Z</time>
      </trkpt>
      <trkpt lat="44.55647" lon="3.18641">
        <ele>1247</ele>
        <time>2009-06-25T09:18:24Z</time>
      </trkpt>
      <trkpt lat="44.55648" lon="3.18677">
        <ele>1243.1</ele>
        <time>2009-06-25T09:18:48Z</time>
      </trkpt>
      <trkpt lat="44.55648" lon="3.18689">
        <ele>1241.2</ele>
        <time>2009-06-25T09:18:55Z</time>
      </trkpt>
      <trkpt lat="44.55647" lon="3.18695">
        <ele>1241.2</ele>
        <time>2009-06-25T09:18:59Z</time>
      </trkpt>
      <trkpt lat="44.55647" lon="3.18727">
        <ele>1238.3</ele>
        <time>2009-06-25T09:19:21Z</time>
      </trkpt>
      <trkpt lat="44.55648" lon="3.18761">
        <ele>1239.7</ele>
        <time>2009-06-25T09:19:42Z</time>
      </trkpt>
      <trkpt lat="44.55649" lon="3.18798">
        <ele>1240.7</ele>
        <time>2009-06-25T09:20:05Z</time>
      </trkpt>
      <trkpt lat="44.55649" lon="3.18826">
        <ele>1236.9</ele>
        <time>2009-06-25T09:20:27Z</time>
      </trkpt>
      <trkpt lat="44.55645" lon="3.18853">
        <ele>1235.9</ele>
        <time>2009-06-25T09:20:44Z</time>
      </trkpt>
      <trkpt lat="44.5564" lon="3.18889">
        <ele>1235</ele>
        <time>2009-06-25T09:21:07Z</time>
      </trkpt>
      <trkpt lat="44.55626" lon="3.18919">
        <ele>1235</ele>
        <time>2009-06-25T09:21:32Z</time>
      </trkpt>
      <trkpt lat="44.55607" lon="3.18963">
        <ele>1235.4</ele>
        <time>2009-06-25T09:22:05Z</time>
      </trkpt>
      <trkpt lat="44.55604" lon="3.18999">
        <ele>1236.9</ele>
        <time>2009-06-25T09:22:31Z</time>
      </trkpt>
      <trkpt lat="44.55607" lon="3.19041">
        <ele>1237.8</ele>
        <time>2009-06-25T09:22:58Z</time>
      </trkpt>
      <trkpt lat="44.55613" lon="3.19076">
        <ele>1238.8</ele>
        <time>2009-06-25T09:23:21Z</time>
      </trkpt>
      <trkpt lat="44.55617" lon="3.19117">
        <ele>1237.4</ele>
        <time>2009-06-25T09:23:45Z</time>
      </trkpt>
      <trkpt lat="44.55623" lon="3.19158">
        <ele>1236.4</ele>
        <time>2009-06-25T09:24:12Z</time>
      </trkpt>
      <trkpt lat="44.55636" lon="3.19192">
        <ele>1234.5</ele>
        <time>2009-06-25T09:24:36Z</time>
      </trkpt>
      <trkpt lat="44.5565" lon="3.19224">
        <ele>1234.5</ele>
        <time>2009-06-25T09:25:01Z</time>
      </trkpt>
      <trkpt lat="44.55665" lon="3.19254">
        <ele>1234.5</ele>
        <time>2009-06-25T09:25:24Z</time>
      </trkpt>
      <trkpt lat="44.55668" lon="3.19269">
        <ele>1235.4</ele>
        <time>2009-06-25T09:25:33Z</time>
      </trkpt>
      <trkpt lat="44.55682" lon="3.19303">
        <ele>1236.9</ele>
        <time>2009-06-25T09:25:56Z</time>
      </trkpt>
      <trkpt lat="44.55695" lon="3.19343">
        <ele>1236.4</ele>
        <time>2009-06-25T09:26:20Z</time>
      </trkpt>
      <trkpt lat="44.55699" lon="3.1939">
        <ele>1237.4</ele>
        <time>2009-06-25T09:26:47Z</time>
      </trkpt>
      <trkpt lat="44.55703" lon="3.19428">
        <ele>1237.4</ele>
        <time>2009-06-25T09:27:12Z</time>
      </trkpt>
      <trkpt lat="44.55709" lon="3.19467">
        <ele>1235.9</ele>
        <time>2009-06-25T09:27:39Z</time>
      </trkpt>
      <trkpt lat="44.55706" lon="3.19485">
        <ele>1234</ele>
        <time>2009-06-25T09:27:59Z</time>
      </trkpt>
      <trkpt lat="44.55709" lon="3.195">
        <ele>1233.5</ele>
        <time>2009-06-25T09:28:14Z</time>
      </trkpt>
      <trkpt lat="44.55709" lon="3.19524">
        <ele>1233</ele>
        <time>2009-06-25T09:28:34Z</time>
      </trkpt>
      <trkpt lat="44.55709" lon="3.19562">
        <ele>1232.6</ele>
        <time>2009-06-25T09:29:01Z</time>
      </trkpt>
      <trkpt lat="44.55712" lon="3.19564">
        <ele>1233.5</ele>
        <time>2009-06-25T09:29:29Z</time>
      </trkpt>
      <trkpt lat="44.55714" lon="3.19562">
        <ele>1231.6</ele>
        <time>2009-06-25T09:29:47Z</time>
      </trkpt>
      <trkpt lat="44.55714" lon="3.19561">
        <ele>1232.1</ele>
        <time>2009-06-25T09:30:03Z</time>
      </trkpt>
      <trkpt lat="44.55716" lon="3.1956">
        <ele>1232.1</ele>
        <time>2009-06-25T09:30:10Z</time>
      </trkpt>
      <trkpt lat="44.55729" lon="3.19544">
        <ele>1230.6</ele>
        <time>2009-06-25T09:30:27Z</time>
      </trkpt>
      <trkpt lat="44.55745" lon="3.19536">
        <ele>1229.7</ele>
        <time>2009-06-25T09:30:41Z</time>
      </trkpt>
      <trkpt lat="44.5575" lon="3.19536">
        <ele>1229.2</ele>
        <time>2009-06-25T09:30:48Z</time>
      </trkpt>
      <trkpt lat="44.55759" lon="3.19539">
        <ele>1227.7</ele>
        <time>2009-06-25T09:30:57Z</time>
      </trkpt>
      <trkpt lat="44.5577" lon="3.19547">
        <ele>1226.3</ele>
        <time>2009-06-25T09:31:08Z</time>
      </trkpt>
      <trkpt lat="44.5579" lon="3.19533">
        <ele>1222.5</ele>
        <time>2009-06-25T09:31:31Z</time>
      </trkpt>
      <trkpt lat="44.5581" lon="3.19511">
        <ele>1219.6</ele>
        <time>2009-06-25T09:31:55Z</time>
      </trkpt>
      <trkpt lat="44.55834" lon="3.19509">
        <ele>1217.6</ele>
        <time>2009-06-25T09:32:17Z</time>
      </trkpt>
      <trkpt lat="44.55846" lon="3.19507">
        <ele>1213.8</ele>
        <time>2009-06-25T09:32:34Z</time>
      </trkpt>
      <trkpt lat="44.55849" lon="3.19505">
        <ele>1212.8</ele>
        <time>2009-06-25T09:32:40Z</time>
      </trkpt>
      <trkpt lat="44.55856" lon="3.19508">
        <ele>1211.4</ele>
        <time>2009-06-25T09:32:48Z</time>
      </trkpt>
      <trkpt lat="44.5586" lon="3.1951">
        <ele>1210.9</ele>
        <time>2009-06-25T09:32:52Z</time>
      </trkpt>
      <trkpt lat="44.55872" lon="3.19513">
        <ele>1208.5</ele>
        <time>2009-06-25T09:33:07Z</time>
      </trkpt>
      <trkpt lat="44.55878" lon="3.19517">
        <ele>1207.1</ele>
        <time>2009-06-25T09:33:14Z</time>
      </trkpt>
      <trkpt lat="44.55883" lon="3.19513">
        <ele>1206.1</ele>
        <time>2009-06-25T09:33:19Z</time>
      </trkpt>
      <trkpt lat="44.55895" lon="3.1951">
        <ele>1203.7</ele>
        <time>2009-06-25T09:33:31Z</time>
      </trkpt>
      <trkpt lat="44.55917" lon="3.19505">
        <ele>1199.9</ele>
        <time>2009-06-25T09:33:54Z</time>
      </trkpt>
      <trkpt lat="44.5593" lon="3.19499">
        <ele>1197.5</ele>
        <time>2009-06-25T09:34:10Z</time>
      </trkpt>
      <trkpt lat="44.55943" lon="3.19488">
        <ele>1194.6</ele>
        <time>2009-06-25T09:34:29Z</time>
      </trkpt>
      <trkpt lat="44.55943" lon="3.19487">
        <ele>1194.6</ele>
        <time>2009-06-25T09:34:30Z</time>
      </trkpt>
      <trkpt lat="44.55954" lon="3.19473">
        <ele>1191.2</ele>
        <time>2009-06-25T09:34:49Z</time>
      </trkpt>
      <trkpt lat="44.55952" lon="3.19462">
        <ele>1191.7</ele>
        <time>2009-06-25T09:35:06Z</time>
      </trkpt>
      <trkpt lat="44.55954" lon="3.19457">
        <ele>1191.2</ele>
        <time>2009-06-25T09:35:22Z</time>
      </trkpt>
      <trkpt lat="44.55958" lon="3.1945">
        <ele>1191.7</ele>
        <time>2009-06-25T09:35:35Z</time>
      </trkpt>
      <trkpt lat="44.55961" lon="3.19448">
        <ele>1192.2</ele>
        <time>2009-06-25T09:35:58Z</time>
      </trkpt>
      <trkpt lat="44.55961" lon="3.19447">
        <ele>1190.7</ele>
        <time>2009-06-25T09:36:29Z</time>
      </trkpt>
      <trkpt lat="44.55963" lon="3.19444">
        <ele>1191.2</ele>
        <time>2009-06-25T09:36:59Z</time>
      </trkpt>
      <trkpt lat="44.55961" lon="3.19435">
        <ele>1191.2</ele>
        <time>2009-06-25T09:37:15Z</time>
      </trkpt>
      <trkpt lat="44.5596" lon="3.19419">
        <ele>1192.7</ele>
        <time>2009-06-25T09:37:34Z</time>
      </trkpt>
      <trkpt lat="44.55962" lon="3.19402">
        <ele>1193.1</ele>
        <time>2009-06-25T09:37:53Z</time>
      </trkpt>
      <trkpt lat="44.55961" lon="3.194">
        <ele>1192.7</ele>
        <time>2009-06-25T09:38:16Z</time>
      </trkpt>
      <trkpt lat="44.55965" lon="3.19373">
        <ele>1193.6</ele>
        <time>2009-06-25T09:38:36Z</time>
      </trkpt>
      <trkpt lat="44.55968" lon="3.19342">
        <ele>1193.1</ele>
        <time>2009-06-25T09:38:59Z</time>
      </trkpt>
      <trkpt lat="44.55975" lon="3.19321">
        <ele>1192.7</ele>
        <time>2009-06-25T09:39:18Z</time>
      </trkpt>
      <trkpt lat="44.55982" lon="3.19312">
        <ele>1192.2</ele>
        <time>2009-06-25T09:39:34Z</time>
      </trkpt>
      <trkpt lat="44.55985" lon="3.19312">
        <ele>1191.2</ele>
        <time>2009-06-25T09:39:49Z</time>
      </trkpt>
      <trkpt lat="44.55992" lon="3.19307">
        <ele>1190.7</ele>
        <time>2009-06-25T09:40:12Z</time>
      </trkpt>
      <trkpt lat="44.55996" lon="3.19306">
        <ele>1190.2</ele>
        <time>2009-06-25T09:40:28Z</time>
      </trkpt>
      <trkpt lat="44.56002" lon="3.19307">
        <ele>1189.3</ele>
        <time>2009-06-25T09:40:43Z</time>
      </trkpt>
      <trkpt lat="44.56006" lon="3.19304">
        <ele>1190.7</ele>
        <time>2009-06-25T09:40:59Z</time>
      </trkpt>
      <trkpt lat="44.56013" lon="3.193">
        <ele>1188.8</ele>
        <time>2009-06-25T09:41:14Z</time>
      </trkpt>
      <trkpt lat="44.56026" lon="3.19292">
        <ele>1185.9</ele>
        <time>2009-06-25T09:41:30Z</time>
      </trkpt>
      <trkpt lat="44.56036" lon="3.19284">
        <ele>1184</ele>
        <time>2009-06-25T09:41:48Z</time>
      </trkpt>
      <trkpt lat="44.56046" lon="3.19276">
        <ele>1183.1</ele>
        <time>2009-06-25T09:42:04Z</time>
      </trkpt>
      <trkpt lat="44.56059" lon="3.19275">
        <ele>1182.1</ele>
        <time>2009-06-25T09:42:23Z</time>
      </trkpt>
      <trkpt lat="44.5607" lon="3.19277">
        <ele>1180.6</ele>
        <time>2009-06-25T09:42:41Z</time>
      </trkpt>
      <trkpt lat="44.56072" lon="3.19276">
        <ele>1181.6</ele>
        <time>2009-06-25T09:43:05Z</time>
      </trkpt>
      <trkpt lat="44.56078" lon="3.19274">
        <ele>1181.1</ele>
        <time>2009-06-25T09:43:17Z</time>
      </trkpt>
      <trkpt lat="44.56082" lon="3.19274">
        <ele>1181.1</ele>
        <time>2009-06-25T09:43:32Z</time>
      </trkpt>
      <trkpt lat="44.56085" lon="3.19273">
        <ele>1180.6</ele>
        <time>2009-06-25T09:43:49Z</time>
      </trkpt>
      <trkpt lat="44.56088" lon="3.19271">
        <ele>1181.1</ele>
        <time>2009-06-25T09:44:08Z</time>
      </trkpt>
      <trkpt lat="44.56095" lon="3.19274">
        <ele>1180.2</ele>
        <time>2009-06-25T09:44:24Z</time>
      </trkpt>
      <trkpt lat="44.56099" lon="3.19272">
        <ele>1179.7</ele>
        <time>2009-06-25T09:44:42Z</time>
      </trkpt>
      <trkpt lat="44.56108" lon="3.19275">
        <ele>1180.2</ele>
        <time>2009-06-25T09:44:58Z</time>
      </trkpt>
      <trkpt lat="44.56111" lon="3.19279">
        <ele>1180.2</ele>
        <time>2009-06-25T09:45:02Z</time>
      </trkpt>
      <trkpt lat="44.5613" lon="3.19298">
        <ele>1181.1</ele>
        <time>2009-06-25T09:45:27Z</time>
      </trkpt>
      <trkpt lat="44.56144" lon="3.19312">
        <ele>1181.1</ele>
        <time>2009-06-25T09:45:45Z</time>
      </trkpt>
      <trkpt lat="44.56157" lon="3.19328">
        <ele>1180.2</ele>
        <time>2009-06-25T09:46:03Z</time>
      </trkpt>
      <trkpt lat="44.56172" lon="3.1934">
        <ele>1180.2</ele>
        <time>2009-06-25T09:46:23Z</time>
      </trkpt>
      <trkpt lat="44.56184" lon="3.19349">
        <ele>1182.1</ele>
        <time>2009-06-25T09:46:42Z</time>
      </trkpt>
      <trkpt lat="44.56194" lon="3.19355">
        <ele>1184</ele>
        <time>2009-06-25T09:47:01Z</time>
      </trkpt>
      <trkpt lat="44.562" lon="3.19351">
        <ele>1185.4</ele>
        <time>2009-06-25T09:47:17Z</time>
      </trkpt>
      <trkpt lat="44.56203" lon="3.19351">
        <ele>1185.9</ele>
        <time>2009-06-25T09:47:25Z</time>
      </trkpt>
      <trkpt lat="44.56214" lon="3.19338">
        <ele>1186.4</ele>
        <time>2009-06-25T09:47:43Z</time>
      </trkpt>
      <trkpt lat="44.56226" lon="3.19324">
        <ele>1187.4</ele>
        <time>2009-06-25T09:48:00Z</time>
      </trkpt>
      <trkpt lat="44.56234" lon="3.19318">
        <ele>1187.8</ele>
        <time>2009-06-25T09:48:10Z</time>
      </trkpt>
      <trkpt lat="44.56257" lon="3.19315">
        <ele>1188.8</ele>
        <time>2009-06-25T09:48:34Z</time>
      </trkpt>
      <trkpt lat="44.56275" lon="3.19313">
        <ele>1190.2</ele>
        <time>2009-06-25T09:48:54Z</time>
      </trkpt>
      <trkpt lat="44.56296" lon="3.19312">
        <ele>1190.2</ele>
        <time>2009-06-25T09:49:16Z</time>
      </trkpt>
      <trkpt lat="44.56298" lon="3.19312">
        <ele>1190.2</ele>
        <time>2009-06-25T09:49:19Z</time>
      </trkpt>
      <trkpt lat="44.56321" lon="3.19312">
        <ele>1190.2</ele>
        <time>2009-06-25T09:49:43Z</time>
      </trkpt>
      <trkpt lat="44.5633" lon="3.19315">
        <ele>1190.2</ele>
        <time>2009-06-25T09:49:51Z</time>
      </trkpt>
      <trkpt lat="44.56344" lon="3.19319">
        <ele>1189.8</ele>
        <time>2009-06-25T09:50:10Z</time>
      </trkpt>
      <trkpt lat="44.56357" lon="3.19308">
        <ele>1186.9</ele>
        <time>2009-06-25T09:50:32Z</time>
      </trkpt>
      <trkpt lat="44.56363" lon="3.19299">
        <ele>1185.4</ele>
        <time>2009-06-25T09:50:45Z</time>
      </trkpt>
      <trkpt lat="44.56371" lon="3.19296">
        <ele>1184.5</ele>
        <time>2009-06-25T09:50:52Z</time>
      </trkpt>
      <trkpt lat="44.56391" lon="3.19298">
        <ele>1182.1</ele>
        <time>2009-06-25T09:51:15Z</time>
      </trkpt>
      <trkpt lat="44.56393" lon="3.19297">
        <ele>1182.1</ele>
        <time>2009-06-25T09:51:16Z</time>
      </trkpt>
      <trkpt lat="44.56402" lon="3.1929">
        <ele>1181.1</ele>
        <time>2009-06-25T09:51:28Z</time>
      </trkpt>
      <trkpt lat="44.5642" lon="3.19299">
        <ele>1179.7</ele>
        <time>2009-06-25T09:51:50Z</time>
      </trkpt>
      <trkpt lat="44.5643" lon="3.19297">
        <ele>1178.7</ele>
        <time>2009-06-25T09:52:02Z</time>
      </trkpt>
      <trkpt lat="44.56437" lon="3.19295">
        <ele>1178.2</ele>
        <time>2009-06-25T09:52:10Z</time>
      </trkpt>
      <trkpt lat="44.56442" lon="3.19296">
        <ele>1177.7</ele>
        <time>2009-06-25T09:52:16Z</time>
      </trkpt>
      <trkpt lat="44.56446" lon="3.19294">
        <ele>1177.7</ele>
        <time>2009-06-25T09:52:20Z</time>
      </trkpt>
      <trkpt lat="44.56449" lon="3.19293">
        <ele>1177.3</ele>
        <time>2009-06-25T09:52:24Z</time>
      </trkpt>
      <trkpt lat="44.56466" lon="3.19293">
        <ele>1176.8</ele>
        <time>2009-06-25T09:52:41Z</time>
      </trkpt>
      <trkpt lat="44.56468" lon="3.19294">
        <ele>1176.8</ele>
        <time>2009-06-25T09:52:44Z</time>
      </trkpt>
      <trkpt lat="44.56473" lon="3.19292">
        <ele>1176.3</ele>
        <time>2009-06-25T09:52:48Z</time>
      </trkpt>
      <trkpt lat="44.56489" lon="3.19274">
        <ele>1175.3</ele>
        <time>2009-06-25T09:53:12Z</time>
      </trkpt>
      <trkpt lat="44.565" lon="3.1926">
        <ele>1172.9</ele>
        <time>2009-06-25T09:53:33Z</time>
      </trkpt>
      <trkpt lat="44.565" lon="3.19259">
        <ele>1172.9</ele>
        <time>2009-06-25T09:53:34Z</time>
      </trkpt>
      <trkpt lat="44.565" lon="3.19224">
        <ele>1170.6</ele>
        <time>2009-06-25T09:53:58Z</time>
      </trkpt>
      <trkpt lat="44.56507" lon="3.19195">
        <ele>1169.1</ele>
        <time>2009-06-25T09:54:20Z</time>
      </trkpt>
      <trkpt lat="44.56516" lon="3.1917">
        <ele>1166.7</ele>
        <time>2009-06-25T09:54:40Z</time>
      </trkpt>
      <trkpt lat="44.56525" lon="3.19144">
        <ele>1165.3</ele>
        <time>2009-06-25T09:55:00Z</time>
      </trkpt>
      <trkpt lat="44.56527" lon="3.19138">
        <ele>1165.3</ele>
        <time>2009-06-25T09:55:04Z</time>
      </trkpt>
      <trkpt lat="44.56537" lon="3.19099">
        <ele>1162.4</ele>
        <time>2009-06-25T09:55:31Z</time>
      </trkpt>
      <trkpt lat="44.56539" lon="3.19089">
        <ele>1161.4</ele>
        <time>2009-06-25T09:55:39Z</time>
      </trkpt>
      <trkpt lat="44.5654" lon="3.19082">
        <ele>1160.4</ele>
        <time>2009-06-25T09:55:45Z</time>
      </trkpt>
      <trkpt lat="44.56537" lon="3.19048">
        <ele>1159</ele>
        <time>2009-06-25T09:56:06Z</time>
      </trkpt>
      <trkpt lat="44.56528" lon="3.19016">
        <ele>1159</ele>
        <time>2009-06-25T09:56:31Z</time>
      </trkpt>
      <trkpt lat="44.56528" lon="3.19013">
        <ele>1159</ele>
        <time>2009-06-25T09:56:32Z</time>
      </trkpt>
      <trkpt lat="44.56525" lon="3.18982">
        <ele>1156.1</ele>
        <time>2009-06-25T09:56:56Z</time>
      </trkpt>
      <trkpt lat="44.5653" lon="3.1897">
        <ele>1154.7</ele>
        <time>2009-06-25T09:57:07Z</time>
      </trkpt>
      <trkpt lat="44.56536" lon="3.18958">
        <ele>1153.7</ele>
        <time>2009-06-25T09:57:18Z</time>
      </trkpt>
      <trkpt lat="44.56558" lon="3.18943">
        <ele>1149.9</ele>
        <time>2009-06-25T09:57:42Z</time>
      </trkpt>
      <trkpt lat="44.56559" lon="3.1894">
        <ele>1149.4</ele>
        <time>2009-06-25T09:57:45Z</time>
      </trkpt>
      <trkpt lat="44.56564" lon="3.18922">
        <ele>1146</ele>
        <time>2009-06-25T09:58:01Z</time>
      </trkpt>
      <trkpt lat="44.56571" lon="3.18924">
        <ele>1146</ele>
        <time>2009-06-25T09:58:07Z</time>
      </trkpt>
      <trkpt lat="44.5659" lon="3.18936">
        <ele>1142.7</ele>
        <time>2009-06-25T09:58:24Z</time>
      </trkpt>
      <trkpt lat="44.56591" lon="3.1894">
        <ele>1142.2</ele>
        <time>2009-06-25T09:58:28Z</time>
      </trkpt>
      <trkpt lat="44.56603" lon="3.18953">
        <ele>1141.2</ele>
        <time>2009-06-25T09:58:42Z</time>
      </trkpt>
      <trkpt lat="44.56615" lon="3.18962">
        <ele>1136.9</ele>
        <time>2009-06-25T09:58:57Z</time>
      </trkpt>
      <trkpt lat="44.5662" lon="3.18964">
        <ele>1135</ele>
        <time>2009-06-25T09:59:02Z</time>
      </trkpt>
      <trkpt lat="44.56628" lon="3.18983">
        <ele>1132.6</ele>
        <time>2009-06-25T09:59:25Z</time>
      </trkpt>
      <trkpt lat="44.56636" lon="3.18994">
        <ele>1131.1</ele>
        <time>2009-06-25T09:59:42Z</time>
      </trkpt>
      <trkpt lat="44.5664" lon="3.18997">
        <ele>1130.7</ele>
        <time>2009-06-25T10:00:05Z</time>
      </trkpt>
      <trkpt lat="44.56644" lon="3.19002">
        <ele>1131.6</ele>
        <time>2009-06-25T10:00:35Z</time>
      </trkpt>
      <trkpt lat="44.56651" lon="3.19016">
        <ele>1127.3</ele>
        <time>2009-06-25T10:00:53Z</time>
      </trkpt>
      <trkpt lat="44.56658" lon="3.19037">
        <ele>1124.4</ele>
        <time>2009-06-25T10:01:14Z</time>
      </trkpt>
      <trkpt lat="44.56663" lon="3.19053">
        <ele>1122.9</ele>
        <time>2009-06-25T10:01:36Z</time>
      </trkpt>
      <trkpt lat="44.56663" lon="3.19055">
        <ele>1121.5</ele>
        <time>2009-06-25T10:01:37Z</time>
      </trkpt>
      <trkpt lat="44.56681" lon="3.19069">
        <ele>1115.3</ele>
        <time>2009-06-25T10:02:00Z</time>
      </trkpt>
      <trkpt lat="44.56698" lon="3.19071">
        <ele>1110.4</ele>
        <time>2009-06-25T10:02:20Z</time>
      </trkpt>
      <trkpt lat="44.56704" lon="3.19062">
        <ele>1110</ele>
        <time>2009-06-25T10:02:30Z</time>
      </trkpt>
      <trkpt lat="44.56716" lon="3.19044">
        <ele>1106.1</ele>
        <time>2009-06-25T10:02:49Z</time>
      </trkpt>
      <trkpt lat="44.56733" lon="3.19025">
        <ele>1103.7</ele>
        <time>2009-06-25T10:03:12Z</time>
      </trkpt>
      <trkpt lat="44.56736" lon="3.19024">
        <ele>1102.8</ele>
        <time>2009-06-25T10:03:28Z</time>
      </trkpt>
      <trkpt lat="44.56735" lon="3.19025">
        <ele>1103.3</ele>
        <time>2009-06-25T10:04:07Z</time>
      </trkpt>
      <trkpt lat="44.56736" lon="3.19024">
        <ele>1100.8</ele>
        <time>2009-06-25T10:04:42Z</time>
      </trkpt>
      <trkpt lat="44.56735" lon="3.19025">
        <ele>1100.8</ele>
        <time>2009-06-25T10:05:13Z</time>
      </trkpt>
      <trkpt lat="44.56733" lon="3.19025">
        <ele>1099.9</ele>
        <time>2009-06-25T10:07:19Z</time>
      </trkpt>
      <trkpt lat="44.56738" lon="3.19017">
        <ele>1102.3</ele>
        <time>2009-06-25T10:08:14Z</time>
      </trkpt>
      <trkpt lat="44.5675" lon="3.18998">
        <ele>1098.4</ele>
        <time>2009-06-25T10:08:37Z</time>
      </trkpt>
      <trkpt lat="44.56754" lon="3.18994">
        <ele>1097</ele>
        <time>2009-06-25T10:08:56Z</time>
      </trkpt>
      <trkpt lat="44.56756" lon="3.18994">
        <ele>1096.5</ele>
        <time>2009-06-25T10:09:15Z</time>
      </trkpt>
      <trkpt lat="44.56757" lon="3.18993">
        <ele>1096</ele>
        <time>2009-06-25T10:09:31Z</time>
      </trkpt>
      <trkpt lat="44.56757" lon="3.18991">
        <ele>1096</ele>
        <time>2009-06-25T10:09:32Z</time>
      </trkpt>
      <trkpt lat="44.56755" lon="3.1898">
        <ele>1094.6</ele>
        <time>2009-06-25T10:09:39Z</time>
      </trkpt>
      <trkpt lat="44.56762" lon="3.1894">
        <ele>1093.2</ele>
        <time>2009-06-25T10:10:05Z</time>
      </trkpt>
      <trkpt lat="44.56768" lon="3.18903">
        <ele>1091.7</ele>
        <time>2009-06-25T10:10:29Z</time>
      </trkpt>
      <trkpt lat="44.56776" lon="3.18859">
        <ele>1092.7</ele>
        <time>2009-06-25T10:11:00Z</time>
      </trkpt>
      <trkpt lat="44.5678" lon="3.1883">
        <ele>1091.7</ele>
        <time>2009-06-25T10:11:19Z</time>
      </trkpt>
      <trkpt lat="44.56781" lon="3.18806">
        <ele>1091.2</ele>
        <time>2009-06-25T10:11:41Z</time>
      </trkpt>
      <trkpt lat="44.56784" lon="3.18769">
        <ele>1091.2</ele>
        <time>2009-06-25T10:12:04Z</time>
      </trkpt>
      <trkpt lat="44.56786" lon="3.18728">
        <ele>1092.7</ele>
        <time>2009-06-25T10:12:31Z</time>
      </trkpt>
      <trkpt lat="44.56795" lon="3.18686">
        <ele>1093.2</ele>
        <time>2009-06-25T10:12:56Z</time>
      </trkpt>
      <trkpt lat="44.56798" lon="3.18654">
        <ele>1092.7</ele>
        <time>2009-06-25T10:13:19Z</time>
      </trkpt>
      <trkpt lat="44.56797" lon="3.1865">
        <ele>1093.2</ele>
        <time>2009-06-25T10:13:30Z</time>
      </trkpt>
      <trkpt lat="44.56803" lon="3.18613">
        <ele>1092.2</ele>
        <time>2009-06-25T10:13:56Z</time>
      </trkpt>
      <trkpt lat="44.56813" lon="3.18568">
        <ele>1092.7</ele>
        <time>2009-06-25T10:14:24Z</time>
      </trkpt>
      <trkpt lat="44.56821" lon="3.18532">
        <ele>1092.2</ele>
        <time>2009-06-25T10:14:47Z</time>
      </trkpt>
      <trkpt lat="44.56825" lon="3.18494">
        <ele>1092.7</ele>
        <time>2009-06-25T10:15:11Z</time>
      </trkpt>
      <trkpt lat="44.56824" lon="3.1846">
        <ele>1092.2</ele>
        <time>2009-06-25T10:15:34Z</time>
      </trkpt>
      <trkpt lat="44.56821" lon="3.18445">
        <ele>1091.7</ele>
        <time>2009-06-25T10:15:45Z</time>
      </trkpt>
      <trkpt lat="44.56823" lon="3.18439">
        <ele>1091.7</ele>
        <time>2009-06-25T10:15:49Z</time>
      </trkpt>
      <trkpt lat="44.56829" lon="3.18403">
        <ele>1093.2</ele>
        <time>2009-06-25T10:16:16Z</time>
      </trkpt>
      <trkpt lat="44.56837" lon="3.18393">
        <ele>1093.2</ele>
        <time>2009-06-25T10:16:31Z</time>
      </trkpt>
      <trkpt lat="44.56838" lon="3.18391">
        <ele>1093.6</ele>
        <time>2009-06-25T10:16:35Z</time>
      </trkpt>
      <trkpt lat="44.56839" lon="3.18373">
        <ele>1094.1</ele>
        <time>2009-06-25T10:16:51Z</time>
      </trkpt>
      <trkpt lat="44.56842" lon="3.18362">
        <ele>1094.1</ele>
        <time>2009-06-25T10:17:02Z</time>
      </trkpt>
      <trkpt lat="44.56843" lon="3.18356">
        <ele>1094.1</ele>
        <time>2009-06-25T10:17:06Z</time>
      </trkpt>
      <trkpt lat="44.56839" lon="3.18323">
        <ele>1093.2</ele>
        <time>2009-06-25T10:17:30Z</time>
      </trkpt>
      <trkpt lat="44.56839" lon="3.18308">
        <ele>1093.6</ele>
        <time>2009-06-25T10:17:49Z</time>
      </trkpt>
      <trkpt lat="44.56838" lon="3.18301">
        <ele>1093.2</ele>
        <time>2009-06-25T10:18:09Z</time>
      </trkpt>
      <trkpt lat="44.56834" lon="3.18297">
        <ele>1091.7</ele>
        <time>2009-06-25T10:18:27Z</time>
      </trkpt>
      <trkpt lat="44.5684" lon="3.18299">
        <ele>1093.6</ele>
        <time>2009-06-25T10:18:46Z</time>
      </trkpt>
      <trkpt lat="44.56841" lon="3.18297">
        <ele>1094.6</ele>
        <time>2009-06-25T10:19:01Z</time>
      </trkpt>
      <trkpt lat="44.56844" lon="3.18278">
        <ele>1093.2</ele>
        <time>2009-06-25T10:19:17Z</time>
      </trkpt>
      <trkpt lat="44.56846" lon="3.18257">
        <ele>1091.7</ele>
        <time>2009-06-25T10:19:37Z</time>
      </trkpt>
      <trkpt lat="44.56847" lon="3.18248">
        <ele>1092.2</ele>
        <time>2009-06-25T10:19:57Z</time>
      </trkpt>
      <trkpt lat="44.56843" lon="3.18237">
        <ele>1091.7</ele>
        <time>2009-06-25T10:20:14Z</time>
      </trkpt>
      <trkpt lat="44.56837" lon="3.18221">
        <ele>1091.2</ele>
        <time>2009-06-25T10:20:29Z</time>
      </trkpt>
      <trkpt lat="44.56836" lon="3.18217">
        <ele>1091.7</ele>
        <time>2009-06-25T10:20:31Z</time>
      </trkpt>
      <trkpt lat="44.56825" lon="3.18195">
        <ele>1091.7</ele>
        <time>2009-06-25T10:20:54Z</time>
      </trkpt>
      <trkpt lat="44.56821" lon="3.18174">
        <ele>1092.2</ele>
        <time>2009-06-25T10:21:12Z</time>
      </trkpt>
      <trkpt lat="44.56817" lon="3.18148">
        <ele>1092.2</ele>
        <time>2009-06-25T10:21:32Z</time>
      </trkpt>
      <trkpt lat="44.5682" lon="3.18137">
        <ele>1092.2</ele>
        <time>2009-06-25T10:21:44Z</time>
      </trkpt>
      <trkpt lat="44.56822" lon="3.18134">
        <ele>1092.7</ele>
        <time>2009-06-25T10:21:48Z</time>
      </trkpt>
      <trkpt lat="44.56819" lon="3.18122">
        <ele>1091.7</ele>
        <time>2009-06-25T10:21:59Z</time>
      </trkpt>
      <trkpt lat="44.56809" lon="3.18107">
        <ele>1092.7</ele>
        <time>2009-06-25T10:22:19Z</time>
      </trkpt>
      <trkpt lat="44.56803" lon="3.18097">
        <ele>1093.2</ele>
        <time>2009-06-25T10:22:35Z</time>
      </trkpt>
      <trkpt lat="44.56801" lon="3.18089">
        <ele>1093.2</ele>
        <time>2009-06-25T10:22:54Z</time>
      </trkpt>
      <trkpt lat="44.568" lon="3.18089">
        <ele>1096</ele>
        <time>2009-06-25T10:24:06Z</time>
      </trkpt>
      <trkpt lat="44.56799" lon="3.18089">
        <ele>1095.1</ele>
        <time>2009-06-25T10:25:28Z</time>
      </trkpt>
      <trkpt lat="44.56805" lon="3.18085">
        <ele>1095.1</ele>
        <time>2009-06-25T10:26:14Z</time>
      </trkpt>
      <trkpt lat="44.56807" lon="3.18076">
        <ele>1095.6</ele>
        <time>2009-06-25T10:26:22Z</time>
      </trkpt>
      <trkpt lat="44.5681" lon="3.18054">
        <ele>1095.6</ele>
        <time>2009-06-25T10:26:41Z</time>
      </trkpt>
      <trkpt lat="44.56816" lon="3.18038">
        <ele>1096</ele>
        <time>2009-06-25T10:27:01Z</time>
      </trkpt>
      <trkpt lat="44.56824" lon="3.18031">
        <ele>1095.6</ele>
        <time>2009-06-25T10:27:14Z</time>
      </trkpt>
      <trkpt lat="44.56855" lon="3.18037">
        <ele>1094.6</ele>
        <time>2009-06-25T10:27:43Z</time>
      </trkpt>
      <trkpt lat="44.56882" lon="3.18053">
        <ele>1093.2</ele>
        <time>2009-06-25T10:28:09Z</time>
      </trkpt>
      <trkpt lat="44.56915" lon="3.18069">
        <ele>1093.2</ele>
        <time>2009-06-25T10:28:39Z</time>
      </trkpt>
      <trkpt lat="44.56946" lon="3.18087">
        <ele>1093.2</ele>
        <time>2009-06-25T10:29:08Z</time>
      </trkpt>
      <trkpt lat="44.56965" lon="3.18097">
        <ele>1093.2</ele>
        <time>2009-06-25T10:29:35Z</time>
      </trkpt>
      <trkpt lat="44.56963" lon="3.18095">
        <ele>1093.6</ele>
        <time>2009-06-25T10:29:58Z</time>
      </trkpt>
      <trkpt lat="44.56963" lon="3.18092">
        <ele>1093.6</ele>
        <time>2009-06-25T10:30:17Z</time>
      </trkpt>
      <trkpt lat="44.56963" lon="3.18091">
        <ele>1093.6</ele>
        <time>2009-06-25T10:30:37Z</time>
      </trkpt>
      <trkpt lat="44.56963" lon="3.1809">
        <ele>1094.1</ele>
        <time>2009-06-25T10:31:10Z</time>
      </trkpt>
      <trkpt lat="44.56973" lon="3.1809">
        <ele>1094.1</ele>
        <time>2009-06-25T10:31:23Z</time>
      </trkpt>
      <trkpt lat="44.56991" lon="3.18078">
        <ele>1094.1</ele>
        <time>2009-06-25T10:31:44Z</time>
      </trkpt>
      <trkpt lat="44.5701" lon="3.18061">
        <ele>1094.6</ele>
        <time>2009-06-25T10:32:08Z</time>
      </trkpt>
      <trkpt lat="44.57014" lon="3.18051">
        <ele>1095.6</ele>
        <time>2009-06-25T10:32:28Z</time>
      </trkpt>
      <trkpt lat="44.57018" lon="3.18032">
        <ele>1095.6</ele>
        <time>2009-06-25T10:32:48Z</time>
      </trkpt>
      <trkpt lat="44.57018" lon="3.18018">
        <ele>1094.6</ele>
        <time>2009-06-25T10:33:06Z</time>
      </trkpt>
      <trkpt lat="44.57013" lon="3.18009">
        <ele>1093.2</ele>
        <time>2009-06-25T10:33:27Z</time>
      </trkpt>
      <trkpt lat="44.57013" lon="3.18">
        <ele>1093.6</ele>
        <time>2009-06-25T10:33:50Z</time>
      </trkpt>
      <trkpt lat="44.57011" lon="3.1798">
        <ele>1093.6</ele>
        <time>2009-06-25T10:34:09Z</time>
      </trkpt>
      <trkpt lat="44.57011" lon="3.17976">
        <ele>1093.6</ele>
        <time>2009-06-25T10:34:12Z</time>
      </trkpt>
      <trkpt lat="44.57014" lon="3.17937">
        <ele>1095.1</ele>
        <time>2009-06-25T10:34:39Z</time>
      </trkpt>
      <trkpt lat="44.57021" lon="3.17906">
        <ele>1095.1</ele>
        <time>2009-06-25T10:35:01Z</time>
      </trkpt>
      <trkpt lat="44.57025" lon="3.17895">
        <ele>1095.1</ele>
        <time>2009-06-25T10:35:18Z</time>
      </trkpt>
      <trkpt lat="44.57027" lon="3.17895">
        <ele>1095.6</ele>
        <time>2009-06-25T10:35:34Z</time>
      </trkpt>
      <trkpt lat="44.57026" lon="3.17893">
        <ele>1094.6</ele>
        <time>2009-06-25T10:36:00Z</time>
      </trkpt>
      <trkpt lat="44.57027" lon="3.17873">
        <ele>1095.1</ele>
        <time>2009-06-25T10:36:19Z</time>
      </trkpt>
      <trkpt lat="44.57027" lon="3.17868">
        <ele>1095.1</ele>
        <time>2009-06-25T10:36:23Z</time>
      </trkpt>
      <trkpt lat="44.57031" lon="3.17842">
        <ele>1097</ele>
        <time>2009-06-25T10:36:45Z</time>
      </trkpt>
      <trkpt lat="44.57031" lon="3.17841">
        <ele>1097</ele>
        <time>2009-06-25T10:36:46Z</time>
      </trkpt>
      <trkpt lat="44.57027" lon="3.1782">
        <ele>1098.4</ele>
        <time>2009-06-25T10:37:03Z</time>
      </trkpt>
      <trkpt lat="44.57025" lon="3.17816">
        <ele>1098</ele>
        <time>2009-06-25T10:37:08Z</time>
      </trkpt>
      <trkpt lat="44.57025" lon="3.17811">
        <ele>1098.4</ele>
        <time>2009-06-25T10:37:12Z</time>
      </trkpt>
      <trkpt lat="44.57033" lon="3.17796">
        <ele>1099.9</ele>
        <time>2009-06-25T10:37:29Z</time>
      </trkpt>
      <trkpt lat="44.57034" lon="3.17793">
        <ele>1099.9</ele>
        <time>2009-06-25T10:37:33Z</time>
      </trkpt>
      <trkpt lat="44.57034" lon="3.17788">
        <ele>1099.9</ele>
        <time>2009-06-25T10:37:36Z</time>
      </trkpt>
      <trkpt lat="44.57036" lon="3.17783">
        <ele>1099.9</ele>
        <time>2009-06-25T10:37:40Z</time>
      </trkpt>
      <trkpt lat="44.57035" lon="3.17769">
        <ele>1100.8</ele>
        <time>2009-06-25T10:37:51Z</time>
      </trkpt>
      <trkpt lat="44.57037" lon="3.17749">
        <ele>1101.8</ele>
        <time>2009-06-25T10:38:04Z</time>
      </trkpt>
      <trkpt lat="44.57052" lon="3.17732">
        <ele>1102.3</ele>
        <time>2009-06-25T10:38:23Z</time>
      </trkpt>
      <trkpt lat="44.57072" lon="3.17711">
        <ele>1103.7</ele>
        <time>2009-06-25T10:38:47Z</time>
      </trkpt>
      <trkpt lat="44.57089" lon="3.17701">
        <ele>1105.7</ele>
        <time>2009-06-25T10:39:08Z</time>
      </trkpt>
      <trkpt lat="44.57109" lon="3.17702">
        <ele>1108.1</ele>
        <time>2009-06-25T10:39:28Z</time>
      </trkpt>
      <trkpt lat="44.57131" lon="3.17726">
        <ele>1107.1</ele>
        <time>2009-06-25T10:39:54Z</time>
      </trkpt>
      <trkpt lat="44.57153" lon="3.17739">
        <ele>1104.7</ele>
        <time>2009-06-25T10:40:15Z</time>
      </trkpt>
      <trkpt lat="44.57161" lon="3.17735">
        <ele>1103.7</ele>
        <time>2009-06-25T10:40:22Z</time>
      </trkpt>
      <trkpt lat="44.57168" lon="3.17731">
        <ele>1103.3</ele>
        <time>2009-06-25T10:40:30Z</time>
      </trkpt>
      <trkpt lat="44.57173" lon="3.17728">
        <ele>1102.8</ele>
        <time>2009-06-25T10:40:34Z</time>
      </trkpt>
      <trkpt lat="44.5718" lon="3.1772">
        <ele>1102.8</ele>
        <time>2009-06-25T10:40:46Z</time>
      </trkpt>
      <trkpt lat="44.57207" lon="3.17713">
        <ele>1101.3</ele>
        <time>2009-06-25T10:41:12Z</time>
      </trkpt>
      <trkpt lat="44.57219" lon="3.17706">
        <ele>1100.8</ele>
        <time>2009-06-25T10:41:28Z</time>
      </trkpt>
      <trkpt lat="44.57229" lon="3.17694">
        <ele>1100.8</ele>
        <time>2009-06-25T10:41:40Z</time>
      </trkpt>
      <trkpt lat="44.57239" lon="3.17652">
        <ele>1100.8</ele>
        <time>2009-06-25T10:42:07Z</time>
      </trkpt>
      <trkpt lat="44.57249" lon="3.17607">
        <ele>1102.3</ele>
        <time>2009-06-25T10:42:34Z</time>
      </trkpt>
      <trkpt lat="44.57251" lon="3.1756">
        <ele>1103.7</ele>
        <time>2009-06-25T10:43:03Z</time>
      </trkpt>
      <trkpt lat="44.57252" lon="3.17533">
        <ele>1105.2</ele>
        <time>2009-06-25T10:43:21Z</time>
      </trkpt>
      <trkpt lat="44.5725" lon="3.17483">
        <ele>1106.6</ele>
        <time>2009-06-25T10:43:50Z</time>
      </trkpt>
      <trkpt lat="44.57256" lon="3.17445">
        <ele>1104.2</ele>
        <time>2009-06-25T10:44:13Z</time>
      </trkpt>
      <trkpt lat="44.57261" lon="3.17411">
        <ele>1111.9</ele>
        <time>2009-06-25T10:44:36Z</time>
      </trkpt>
      <trkpt lat="44.57264" lon="3.17371">
        <ele>1111.4</ele>
        <time>2009-06-25T10:45:00Z</time>
      </trkpt>
      <trkpt lat="44.57266" lon="3.17329">
        <ele>1114.8</ele>
        <time>2009-06-25T10:45:24Z</time>
      </trkpt>
      <trkpt lat="44.57274" lon="3.17278">
        <ele>1112.4</ele>
        <time>2009-06-25T10:45:54Z</time>
      </trkpt>
      <trkpt lat="44.57285" lon="3.17239">
        <ele>1113.3</ele>
        <time>2009-06-25T10:46:18Z</time>
      </trkpt>
      <trkpt lat="44.57297" lon="3.17202">
        <ele>1113.3</ele>
        <time>2009-06-25T10:46:43Z</time>
      </trkpt>
      <trkpt lat="44.57309" lon="3.17178">
        <ele>1114.3</ele>
        <time>2009-06-25T10:47:06Z</time>
      </trkpt>
      <trkpt lat="44.57317" lon="3.17171">
        <ele>1112.9</ele>
        <time>2009-06-25T10:47:22Z</time>
      </trkpt>
      <trkpt lat="44.57323" lon="3.17151">
        <ele>1114.8</ele>
        <time>2009-06-25T10:47:46Z</time>
      </trkpt>
      <trkpt lat="44.5733" lon="3.17133">
        <ele>1117.7</ele>
        <time>2009-06-25T10:48:08Z</time>
      </trkpt>
      <trkpt lat="44.57339" lon="3.17124">
        <ele>1118.6</ele>
        <time>2009-06-25T10:48:28Z</time>
      </trkpt>
      <trkpt lat="44.57351" lon="3.17113">
        <ele>1117.2</ele>
        <time>2009-06-25T10:49:08Z</time>
      </trkpt>
      <trkpt lat="44.57351" lon="3.17105">
        <ele>1115.3</ele>
        <time>2009-06-25T10:49:23Z</time>
      </trkpt>
      <trkpt lat="44.57352" lon="3.17101">
        <ele>1114.8</ele>
        <time>2009-06-25T10:49:29Z</time>
      </trkpt>
      <trkpt lat="44.57353" lon="3.17088">
        <ele>1116.2</ele>
        <time>2009-06-25T10:49:52Z</time>
      </trkpt>
      <trkpt lat="44.5736" lon="3.17038">
        <ele>1122.5</ele>
        <time>2009-06-25T10:50:46Z</time>
      </trkpt>
      <trkpt lat="44.57359" lon="3.17008">
        <ele>1122.9</ele>
        <time>2009-06-25T10:51:13Z</time>
      </trkpt>
      <trkpt lat="44.57351" lon="3.16976">
        <ele>1123.4</ele>
        <time>2009-06-25T10:51:41Z</time>
      </trkpt>
      <trkpt lat="44.57358" lon="3.1695">
        <ele>1126.8</ele>
        <time>2009-06-25T10:52:03Z</time>
      </trkpt>
      <trkpt lat="44.57372" lon="3.16928">
        <ele>1126.8</ele>
        <time>2009-06-25T10:52:31Z</time>
      </trkpt>
      <trkpt lat="44.57382" lon="3.16901">
        <ele>1126.8</ele>
        <time>2009-06-25T10:52:54Z</time>
      </trkpt>
      <trkpt lat="44.57381" lon="3.16869">
        <ele>1125.8</ele>
        <time>2009-06-25T10:53:21Z</time>
      </trkpt>
      <trkpt lat="44.57374" lon="3.1685">
        <ele>1125.8</ele>
        <time>2009-06-25T10:53:37Z</time>
      </trkpt>
      <trkpt lat="44.57356" lon="3.16824">
        <ele>1125.4</ele>
        <time>2009-06-25T10:54:04Z</time>
      </trkpt>
      <trkpt lat="44.57364" lon="3.16772">
        <ele>1125.8</ele>
        <time>2009-06-25T10:54:47Z</time>
      </trkpt>
      <trkpt lat="44.57383" lon="3.1672">
        <ele>1123.9</ele>
        <time>2009-06-25T10:55:17Z</time>
      </trkpt>
      <trkpt lat="44.57394" lon="3.1668">
        <ele>1124.4</ele>
        <time>2009-06-25T10:55:40Z</time>
      </trkpt>
      <trkpt lat="44.57404" lon="3.16649">
        <ele>1129.7</ele>
        <time>2009-06-25T10:56:06Z</time>
      </trkpt>
      <trkpt lat="44.57417" lon="3.16618">
        <ele>1128.2</ele>
        <time>2009-06-25T10:56:26Z</time>
      </trkpt>
      <trkpt lat="44.57427" lon="3.16593">
        <ele>1130.2</ele>
        <time>2009-06-25T10:56:50Z</time>
      </trkpt>
      <trkpt lat="44.57436" lon="3.1655">
        <ele>1127.3</ele>
        <time>2009-06-25T10:57:20Z</time>
      </trkpt>
      <trkpt lat="44.57443" lon="3.16529">
        <ele>1128.2</ele>
        <time>2009-06-25T10:57:36Z</time>
      </trkpt>
      <trkpt lat="44.5745" lon="3.16491">
        <ele>1130.2</ele>
        <time>2009-06-25T10:58:02Z</time>
      </trkpt>
      <trkpt lat="44.5745" lon="3.16482">
        <ele>1129.2</ele>
        <time>2009-06-25T10:58:08Z</time>
      </trkpt>
      <trkpt lat="44.57453" lon="3.16445">
        <ele>1125.4</ele>
        <time>2009-06-25T10:58:33Z</time>
      </trkpt>
      <trkpt lat="44.57451" lon="3.16407">
        <ele>1124.9</ele>
        <time>2009-06-25T10:58:54Z</time>
      </trkpt>
      <trkpt lat="44.57458" lon="3.16363">
        <ele>1127.3</ele>
        <time>2009-06-25T10:59:27Z</time>
      </trkpt>
      <trkpt lat="44.57462" lon="3.16331">
        <ele>1126.8</ele>
        <time>2009-06-25T10:59:50Z</time>
      </trkpt>
      <trkpt lat="44.57481" lon="3.16287">
        <ele>1130.7</ele>
        <time>2009-06-25T11:00:41Z</time>
      </trkpt>
      <trkpt lat="44.57484" lon="3.16281">
        <ele>1130.7</ele>
        <time>2009-06-25T11:00:46Z</time>
      </trkpt>
      <trkpt lat="44.575" lon="3.16251">
        <ele>1130.7</ele>
        <time>2009-06-25T11:01:13Z</time>
      </trkpt>
      <trkpt lat="44.57512" lon="3.1622">
        <ele>1135.4</ele>
        <time>2009-06-25T11:01:39Z</time>
      </trkpt>
      <trkpt lat="44.57513" lon="3.16217">
        <ele>1135.9</ele>
        <time>2009-06-25T11:01:42Z</time>
      </trkpt>
      <trkpt lat="44.57521" lon="3.16178">
        <ele>1142.2</ele>
        <time>2009-06-25T11:02:11Z</time>
      </trkpt>
      <trkpt lat="44.57525" lon="3.16158">
        <ele>1109.5</ele>
        <time>2009-06-25T11:03:32Z</time>
      </trkpt>
      <trkpt lat="44.57525" lon="3.16152">
        <ele>1126.3</ele>
        <time>2009-06-25T11:04:14Z</time>
      </trkpt>
      <trkpt lat="44.57528" lon="3.16126">
        <ele>1136.4</ele>
        <time>2009-06-25T11:04:37Z</time>
      </trkpt>
      <trkpt lat="44.57536" lon="3.161">
        <ele>1145.6</ele>
        <time>2009-06-25T11:05:04Z</time>
      </trkpt>
      <trkpt lat="44.57542" lon="3.1607">
        <ele>1147.5</ele>
        <time>2009-06-25T11:05:27Z</time>
      </trkpt>
      <trkpt lat="44.57553" lon="3.16041">
        <ele>1149.9</ele>
        <time>2009-06-25T11:05:53Z</time>
      </trkpt>
      <trkpt lat="44.57569" lon="3.16025">
        <ele>1151.3</ele>
        <time>2009-06-25T11:06:12Z</time>
      </trkpt>
      <trkpt lat="44.5757" lon="3.16022">
        <ele>1151.3</ele>
        <time>2009-06-25T11:06:13Z</time>
      </trkpt>
      <trkpt lat="44.57586" lon="3.15994">
        <ele>1154.7</ele>
        <time>2009-06-25T11:06:36Z</time>
      </trkpt>
      <trkpt lat="44.57599" lon="3.15963">
        <ele>1158.5</ele>
        <time>2009-06-25T11:07:02Z</time>
      </trkpt>
      <trkpt lat="44.57614" lon="3.15927">
        <ele>1162.8</ele>
        <time>2009-06-25T11:07:30Z</time>
      </trkpt>
      <trkpt lat="44.57616" lon="3.15916">
        <ele>1166.2</ele>
        <time>2009-06-25T11:07:39Z</time>
      </trkpt>
      <trkpt lat="44.57624" lon="3.15882">
        <ele>1168.1</ele>
        <time>2009-06-25T11:08:06Z</time>
      </trkpt>
      <trkpt lat="44.57631" lon="3.15851">
        <ele>1167.2</ele>
        <time>2009-06-25T11:08:31Z</time>
      </trkpt>
      <trkpt lat="44.57644" lon="3.15805">
        <ele>1158.5</ele>
        <time>2009-06-25T11:09:03Z</time>
      </trkpt>
      <trkpt lat="44.57671" lon="3.15778">
        <ele>1163.8</ele>
        <time>2009-06-25T11:09:34Z</time>
      </trkpt>
      <trkpt lat="44.57675" lon="3.15754">
        <ele>1166.7</ele>
        <time>2009-06-25T11:09:53Z</time>
      </trkpt>
      <trkpt lat="44.57677" lon="3.15706">
        <ele>1169.1</ele>
        <time>2009-06-25T11:10:24Z</time>
      </trkpt>
      <trkpt lat="44.57674" lon="3.1567">
        <ele>1173.4</ele>
        <time>2009-06-25T11:10:51Z</time>
      </trkpt>
      <trkpt lat="44.57676" lon="3.15668">
        <ele>1173.4</ele>
        <time>2009-06-25T11:10:53Z</time>
      </trkpt>
      <trkpt lat="44.57687" lon="3.15667">
        <ele>1173.9</ele>
        <time>2009-06-25T11:11:02Z</time>
      </trkpt>
      <trkpt lat="44.5771" lon="3.15659">
        <ele>1168.1</ele>
        <time>2009-06-25T11:12:31Z</time>
      </trkpt>
      <trkpt lat="44.57714" lon="3.15659">
        <ele>1169.1</ele>
        <time>2009-06-25T11:12:42Z</time>
      </trkpt>
      <trkpt lat="44.57717" lon="3.15662">
        <ele>1168.6</ele>
        <time>2009-06-25T11:12:46Z</time>
      </trkpt>
      <trkpt lat="44.57724" lon="3.15681">
        <ele>1172.9</ele>
        <time>2009-06-25T11:13:05Z</time>
      </trkpt>
      <trkpt lat="44.5774" lon="3.15701">
        <ele>1175.3</ele>
        <time>2009-06-25T11:13:29Z</time>
      </trkpt>
      <trkpt lat="44.57741" lon="3.15704">
        <ele>1177.3</ele>
        <time>2009-06-25T11:13:49Z</time>
      </trkpt>
      <trkpt lat="44.57751" lon="3.1571">
        <ele>1177.7</ele>
        <time>2009-06-25T11:14:08Z</time>
      </trkpt>
      <trkpt lat="44.57762" lon="3.1571">
        <ele>1178.2</ele>
        <time>2009-06-25T11:14:27Z</time>
      </trkpt>
      <trkpt lat="44.57774" lon="3.15711">
        <ele>1178.7</ele>
        <time>2009-06-25T11:14:46Z</time>
      </trkpt>
      <trkpt lat="44.57789" lon="3.15714">
        <ele>1179.2</ele>
        <time>2009-06-25T11:15:08Z</time>
      </trkpt>
      <trkpt lat="44.57802" lon="3.15735">
        <ele>1182.1</ele>
        <time>2009-06-25T11:15:32Z</time>
      </trkpt>
      <trkpt lat="44.57805" lon="3.15749">
        <ele>1184</ele>
        <time>2009-06-25T11:15:44Z</time>
      </trkpt>
      <trkpt lat="44.57806" lon="3.15777">
        <ele>1187.8</ele>
        <time>2009-06-25T11:16:07Z</time>
      </trkpt>
      <trkpt lat="44.57818" lon="3.1581">
        <ele>1189.8</ele>
        <time>2009-06-25T11:16:34Z</time>
      </trkpt>
      <trkpt lat="44.57831" lon="3.15834">
        <ele>1191.7</ele>
        <time>2009-06-25T11:16:57Z</time>
      </trkpt>
      <trkpt lat="44.57842" lon="3.15847">
        <ele>1193.1</ele>
        <time>2009-06-25T11:17:13Z</time>
      </trkpt>
      <trkpt lat="44.57855" lon="3.15876">
        <ele>1195.1</ele>
        <time>2009-06-25T11:17:40Z</time>
      </trkpt>
      <trkpt lat="44.5786" lon="3.15884">
        <ele>1196</ele>
        <time>2009-06-25T11:17:59Z</time>
      </trkpt>
      <trkpt lat="44.57862" lon="3.15885">
        <ele>1195.1</ele>
        <time>2009-06-25T11:18:21Z</time>
      </trkpt>
      <trkpt lat="44.57859" lon="3.15884">
        <ele>1194.6</ele>
        <time>2009-06-25T11:18:37Z</time>
      </trkpt>
      <trkpt lat="44.57858" lon="3.15884">
        <ele>1195.1</ele>
        <time>2009-06-25T11:19:05Z</time>
      </trkpt>
      <trkpt lat="44.5786" lon="3.15879">
        <ele>1197</ele>
        <time>2009-06-25T12:00:27Z</time>
      </trkpt>
      <trkpt lat="44.57865" lon="3.15884">
        <ele>1194.6</ele>
        <time>2009-06-25T12:01:53Z</time>
      </trkpt>
      <trkpt lat="44.57865" lon="3.15892">
        <ele>1192.7</ele>
        <time>2009-06-25T12:02:04Z</time>
      </trkpt>
      <trkpt lat="44.57863" lon="3.15901">
        <ele>1191.2</ele>
        <time>2009-06-25T12:02:09Z</time>
      </trkpt>
      <trkpt lat="44.5788" lon="3.15939">
        <ele>1189.3</ele>
        <time>2009-06-25T12:02:36Z</time>
      </trkpt>
      <trkpt lat="44.57903" lon="3.15953">
        <ele>1185.9</ele>
        <time>2009-06-25T12:03:03Z</time>
      </trkpt>
      <trkpt lat="44.57905" lon="3.15947">
        <ele>1188.8</ele>
        <time>2009-06-25T12:03:29Z</time>
      </trkpt>
      <trkpt lat="44.57906" lon="3.15947">
        <ele>1191.7</ele>
        <time>2009-06-25T12:03:48Z</time>
      </trkpt>
      <trkpt lat="44.57912" lon="3.15947">
        <ele>1190.2</ele>
        <time>2009-06-25T12:04:05Z</time>
      </trkpt>
      <trkpt lat="44.57913" lon="3.15946">
        <ele>1193.1</ele>
        <time>2009-06-25T12:04:30Z</time>
      </trkpt>
      <trkpt lat="44.57916" lon="3.15944">
        <ele>1193.6</ele>
        <time>2009-06-25T12:04:57Z</time>
      </trkpt>
      <trkpt lat="44.57938" lon="3.15933">
        <ele>1192.7</ele>
        <time>2009-06-25T12:05:20Z</time>
      </trkpt>
      <trkpt lat="44.57941" lon="3.15931">
        <ele>1192.7</ele>
        <time>2009-06-25T12:05:24Z</time>
      </trkpt>
      <trkpt lat="44.57951" lon="3.15928">
        <ele>1192.7</ele>
        <time>2009-06-25T12:05:33Z</time>
      </trkpt>
      <trkpt lat="44.5798" lon="3.15911">
        <ele>1192.7</ele>
        <time>2009-06-25T12:06:01Z</time>
      </trkpt>
      <trkpt lat="44.57981" lon="3.1591">
        <ele>1192.2</ele>
        <time>2009-06-25T12:06:03Z</time>
      </trkpt>
      <trkpt lat="44.57987" lon="3.15912">
        <ele>1192.2</ele>
        <time>2009-06-25T12:06:08Z</time>
      </trkpt>
      <trkpt lat="44.58005" lon="3.15902">
        <ele>1194.6</ele>
        <time>2009-06-25T12:06:31Z</time>
      </trkpt>
      <trkpt lat="44.58025" lon="3.15893">
        <ele>1197.5</ele>
        <time>2009-06-25T12:06:58Z</time>
      </trkpt>
      <trkpt lat="44.58037" lon="3.15892">
        <ele>1202.7</ele>
        <time>2009-06-25T12:07:21Z</time>
      </trkpt>
      <trkpt lat="44.58047" lon="3.15892">
        <ele>1206.6</ele>
        <time>2009-06-25T12:07:40Z</time>
      </trkpt>
      <trkpt lat="44.5806" lon="3.15889">
        <ele>1209.5</ele>
        <time>2009-06-25T12:08:00Z</time>
      </trkpt>
      <trkpt lat="44.58069" lon="3.15882">
        <ele>1212.4</ele>
        <time>2009-06-25T12:08:19Z</time>
      </trkpt>
      <trkpt lat="44.58081" lon="3.1588">
        <ele>1215.2</ele>
        <time>2009-06-25T12:08:38Z</time>
      </trkpt>
      <trkpt lat="44.58095" lon="3.15869">
        <ele>1219.6</ele>
        <time>2009-06-25T12:09:01Z</time>
      </trkpt>
      <trkpt lat="44.58106" lon="3.15867">
        <ele>1221.5</ele>
        <time>2009-06-25T12:09:21Z</time>
      </trkpt>
      <trkpt lat="44.58116" lon="3.15862">
        <ele>1223.9</ele>
        <time>2009-06-25T12:09:41Z</time>
      </trkpt>
      <trkpt lat="44.58126" lon="3.15854">
        <ele>1228.7</ele>
        <time>2009-06-25T12:10:03Z</time>
      </trkpt>
      <trkpt lat="44.58137" lon="3.15853">
        <ele>1233.5</ele>
        <time>2009-06-25T12:10:25Z</time>
      </trkpt>
      <trkpt lat="44.58149" lon="3.15849">
        <ele>1236.9</ele>
        <time>2009-06-25T12:10:49Z</time>
      </trkpt>
      <trkpt lat="44.58156" lon="3.15851">
        <ele>1239.3</ele>
        <time>2009-06-25T12:11:06Z</time>
      </trkpt>
      <trkpt lat="44.58167" lon="3.15853">
        <ele>1242.6</ele>
        <time>2009-06-25T12:11:29Z</time>
      </trkpt>
      <trkpt lat="44.58184" lon="3.15854">
        <ele>1245</ele>
        <time>2009-06-25T12:11:54Z</time>
      </trkpt>
      <trkpt lat="44.58201" lon="3.15855">
        <ele>1246.5</ele>
        <time>2009-06-25T12:12:14Z</time>
      </trkpt>
      <trkpt lat="44.58202" lon="3.15856">
        <ele>1246.5</ele>
        <time>2009-06-25T12:12:15Z</time>
      </trkpt>
      <trkpt lat="44.58229" lon="3.15858">
        <ele>1244.1</ele>
        <time>2009-06-25T12:12:42Z</time>
      </trkpt>
      <trkpt lat="44.58232" lon="3.1586">
        <ele>1244.6</ele>
        <time>2009-06-25T12:12:49Z</time>
      </trkpt>
      <trkpt lat="44.58245" lon="3.1587">
        <ele>1247.9</ele>
        <time>2009-06-25T12:13:08Z</time>
      </trkpt>
      <trkpt lat="44.58258" lon="3.15872">
        <ele>1250.3</ele>
        <time>2009-06-25T12:13:28Z</time>
      </trkpt>
      <trkpt lat="44.58273" lon="3.1587">
        <ele>1253.7</ele>
        <time>2009-06-25T12:13:51Z</time>
      </trkpt>
      <trkpt lat="44.58287" lon="3.15866">
        <ele>1257.5</ele>
        <time>2009-06-25T12:14:15Z</time>
      </trkpt>
      <trkpt lat="44.58298" lon="3.15869">
        <ele>1260</ele>
        <time>2009-06-25T12:14:37Z</time>
      </trkpt>
      <trkpt lat="44.583" lon="3.15869">
        <ele>1261.9</ele>
        <time>2009-06-25T12:14:55Z</time>
      </trkpt>
      <trkpt lat="44.583" lon="3.15862">
        <ele>1262.4</ele>
        <time>2009-06-25T12:15:11Z</time>
      </trkpt>
      <trkpt lat="44.58302" lon="3.15849">
        <ele>1262.8</ele>
        <time>2009-06-25T12:15:22Z</time>
      </trkpt>
      <trkpt lat="44.58305" lon="3.15827">
        <ele>1267.1</ele>
        <time>2009-06-25T12:15:42Z</time>
      </trkpt>
      <trkpt lat="44.58308" lon="3.15808">
        <ele>1270</ele>
        <time>2009-06-25T12:16:02Z</time>
      </trkpt>
      <trkpt lat="44.58311" lon="3.15799">
        <ele>1269.6</ele>
        <time>2009-06-25T12:16:33Z</time>
      </trkpt>
      <trkpt lat="44.58314" lon="3.15785">
        <ele>1272.9</ele>
        <time>2009-06-25T12:16:56Z</time>
      </trkpt>
      <trkpt lat="44.58318" lon="3.15768">
        <ele>1275.3</ele>
        <time>2009-06-25T12:17:12Z</time>
      </trkpt>
      <trkpt lat="44.58322" lon="3.15751">
        <ele>1276.8</ele>
        <time>2009-06-25T12:17:27Z</time>
      </trkpt>
      <trkpt lat="44.58329" lon="3.15716">
        <ele>1280.1</ele>
        <time>2009-06-25T12:17:54Z</time>
      </trkpt>
      <trkpt lat="44.5833" lon="3.15678">
        <ele>1277.7</ele>
        <time>2009-06-25T12:18:21Z</time>
      </trkpt>
      <trkpt lat="44.58321" lon="3.15644">
        <ele>1278.7</ele>
        <time>2009-06-25T12:18:48Z</time>
      </trkpt>
      <trkpt lat="44.58301" lon="3.156">
        <ele>1279.2</ele>
        <time>2009-06-25T12:19:21Z</time>
      </trkpt>
      <trkpt lat="44.58301" lon="3.15562">
        <ele>1282.5</ele>
        <time>2009-06-25T12:19:49Z</time>
      </trkpt>
      <trkpt lat="44.58303" lon="3.15561">
        <ele>1282</ele>
        <time>2009-06-25T12:19:52Z</time>
      </trkpt>
      <trkpt lat="44.58338" lon="3.15557">
        <ele>1280.1</ele>
        <time>2009-06-25T12:20:23Z</time>
      </trkpt>
      <trkpt lat="44.58355" lon="3.15558">
        <ele>1280.1</ele>
        <time>2009-06-25T12:20:47Z</time>
      </trkpt>
      <trkpt lat="44.5836" lon="3.15557">
        <ele>1281.1</ele>
        <time>2009-06-25T12:21:03Z</time>
      </trkpt>
      <trkpt lat="44.58365" lon="3.15558">
        <ele>1283.5</ele>
        <time>2009-06-25T12:21:25Z</time>
      </trkpt>
      <trkpt lat="44.58378" lon="3.15563">
        <ele>1285.9</ele>
        <time>2009-06-25T12:21:49Z</time>
      </trkpt>
      <trkpt lat="44.58386" lon="3.15565">
        <ele>1285.9</ele>
        <time>2009-06-25T12:22:09Z</time>
      </trkpt>
      <trkpt lat="44.58395" lon="3.15557">
        <ele>1290.7</ele>
        <time>2009-06-25T12:22:28Z</time>
      </trkpt>
      <trkpt lat="44.58404" lon="3.1555">
        <ele>1293.6</ele>
        <time>2009-06-25T12:22:47Z</time>
      </trkpt>
      <trkpt lat="44.58415" lon="3.15544">
        <ele>1297.9</ele>
        <time>2009-06-25T12:23:10Z</time>
      </trkpt>
      <trkpt lat="44.58429" lon="3.15537">
        <ele>1298.4</ele>
        <time>2009-06-25T12:23:32Z</time>
      </trkpt>
      <trkpt lat="44.58443" lon="3.15529">
        <ele>1300.3</ele>
        <time>2009-06-25T12:23:52Z</time>
      </trkpt>
      <trkpt lat="44.58458" lon="3.15516">
        <ele>1303.7</ele>
        <time>2009-06-25T12:24:16Z</time>
      </trkpt>
      <trkpt lat="44.58465" lon="3.15504">
        <ele>1305.1</ele>
        <time>2009-06-25T12:24:34Z</time>
      </trkpt>
      <trkpt lat="44.58472" lon="3.15496">
        <ele>1308.5</ele>
        <time>2009-06-25T12:24:51Z</time>
      </trkpt>
      <trkpt lat="44.58479" lon="3.15486">
        <ele>1307.5</ele>
        <time>2009-06-25T12:25:13Z</time>
      </trkpt>
      <trkpt lat="44.58477" lon="3.15481">
        <ele>1312.3</ele>
        <time>2009-06-25T12:25:39Z</time>
      </trkpt>
      <trkpt lat="44.58471" lon="3.15469">
        <ele>1316.7</ele>
        <time>2009-06-25T12:26:06Z</time>
      </trkpt>
      <trkpt lat="44.58475" lon="3.15465">
        <ele>1318.6</ele>
        <time>2009-06-25T12:26:23Z</time>
      </trkpt>
      <trkpt lat="44.58481" lon="3.15459">
        <ele>1320</ele>
        <time>2009-06-25T12:26:50Z</time>
      </trkpt>
      <trkpt lat="44.58473" lon="3.15442">
        <ele>1328.7</ele>
        <time>2009-06-25T12:27:25Z</time>
      </trkpt>
      <trkpt lat="44.58476" lon="3.15433">
        <ele>1335.9</ele>
        <time>2009-06-25T12:27:47Z</time>
      </trkpt>
      <trkpt lat="44.58486" lon="3.15431">
        <ele>1334.4</ele>
        <time>2009-06-25T12:28:07Z</time>
      </trkpt>
      <trkpt lat="44.58492" lon="3.15427">
        <ele>1334.9</ele>
        <time>2009-06-25T12:28:25Z</time>
      </trkpt>
      <trkpt lat="44.58496" lon="3.15424">
        <ele>1337.8</ele>
        <time>2009-06-25T12:28:42Z</time>
      </trkpt>
      <trkpt lat="44.58496" lon="3.15422">
        <ele>1339.3</ele>
        <time>2009-06-25T12:29:02Z</time>
      </trkpt>
      <trkpt lat="44.58497" lon="3.15407">
        <ele>1342.1</ele>
        <time>2009-06-25T12:29:21Z</time>
      </trkpt>
      <trkpt lat="44.58495" lon="3.1539">
        <ele>1345</ele>
        <time>2009-06-25T12:29:43Z</time>
      </trkpt>
      <trkpt lat="44.58494" lon="3.15385">
        <ele>1345.5</ele>
        <time>2009-06-25T12:30:02Z</time>
      </trkpt>
      <trkpt lat="44.58499" lon="3.15364">
        <ele>1348.4</ele>
        <time>2009-06-25T12:30:22Z</time>
      </trkpt>
      <trkpt lat="44.58504" lon="3.15339">
        <ele>1349.3</ele>
        <time>2009-06-25T12:30:44Z</time>
      </trkpt>
      <trkpt lat="44.58505" lon="3.15336">
        <ele>1349.3</ele>
        <time>2009-06-25T12:30:46Z</time>
      </trkpt>
      <trkpt lat="44.58509" lon="3.15311">
        <ele>1347.9</ele>
        <time>2009-06-25T12:31:08Z</time>
      </trkpt>
      <trkpt lat="44.58515" lon="3.15282">
        <ele>1345.5</ele>
        <time>2009-06-25T12:31:31Z</time>
      </trkpt>
      <trkpt lat="44.58516" lon="3.15274">
        <ele>1345</ele>
        <time>2009-06-25T12:31:36Z</time>
      </trkpt>
      <trkpt lat="44.58526" lon="3.15246">
        <ele>1344</ele>
        <time>2009-06-25T12:31:58Z</time>
      </trkpt>
      <trkpt lat="44.58542" lon="3.15226">
        <ele>1344.5</ele>
        <time>2009-06-25T12:32:18Z</time>
      </trkpt>
      <trkpt lat="44.58558" lon="3.152">
        <ele>1346</ele>
        <time>2009-06-25T12:32:45Z</time>
      </trkpt>
      <trkpt lat="44.58581" lon="3.15169">
        <ele>1346.9</ele>
        <time>2009-06-25T12:33:14Z</time>
      </trkpt>
      <trkpt lat="44.58593" lon="3.15151">
        <ele>1348.9</ele>
        <time>2009-06-25T12:33:32Z</time>
      </trkpt>
      <trkpt lat="44.58614" lon="3.15122">
        <ele>1349.8</ele>
        <time>2009-06-25T12:34:01Z</time>
      </trkpt>
      <trkpt lat="44.58623" lon="3.15111">
        <ele>1350.3</ele>
        <time>2009-06-25T12:34:13Z</time>
      </trkpt>
      <trkpt lat="44.58628" lon="3.15105">
        <ele>1350.3</ele>
        <time>2009-06-25T12:34:18Z</time>
      </trkpt>
      <trkpt lat="44.58645" lon="3.15079">
        <ele>1351.3</ele>
        <time>2009-06-25T12:34:43Z</time>
      </trkpt>
      <trkpt lat="44.58669" lon="3.15054">
        <ele>1351.3</ele>
        <time>2009-06-25T12:35:08Z</time>
      </trkpt>
      <trkpt lat="44.58691" lon="3.15037">
        <ele>1351.8</ele>
        <time>2009-06-25T12:35:34Z</time>
      </trkpt>
      <trkpt lat="44.58708" lon="3.15019">
        <ele>1353.2</ele>
        <time>2009-06-25T12:35:54Z</time>
      </trkpt>
      <trkpt lat="44.58734" lon="3.14998">
        <ele>1354.2</ele>
        <time>2009-06-25T12:36:23Z</time>
      </trkpt>
      <trkpt lat="44.58754" lon="3.14976">
        <ele>1354.6</ele>
        <time>2009-06-25T12:36:50Z</time>
      </trkpt>
      <trkpt lat="44.58764" lon="3.14968">
        <ele>1353.7</ele>
        <time>2009-06-25T12:37:10Z</time>
      </trkpt>
      <trkpt lat="44.58768" lon="3.14965">
        <ele>1354.6</ele>
        <time>2009-06-25T12:37:23Z</time>
      </trkpt>
      <trkpt lat="44.58773" lon="3.1494">
        <ele>1357</ele>
        <time>2009-06-25T12:37:42Z</time>
      </trkpt>
      <trkpt lat="44.5878" lon="3.14908">
        <ele>1355.6</ele>
        <time>2009-06-25T12:38:06Z</time>
      </trkpt>
      <trkpt lat="44.58781" lon="3.14897">
        <ele>1355.6</ele>
        <time>2009-06-25T12:38:15Z</time>
      </trkpt>
      <trkpt lat="44.58788" lon="3.14875">
        <ele>1355.6</ele>
        <time>2009-06-25T12:38:32Z</time>
      </trkpt>
      <trkpt lat="44.58794" lon="3.14852">
        <ele>1357</ele>
        <time>2009-06-25T12:38:54Z</time>
      </trkpt>
      <trkpt lat="44.58799" lon="3.1483">
        <ele>1357</ele>
        <time>2009-06-25T12:39:14Z</time>
      </trkpt>
      <trkpt lat="44.58805" lon="3.14809">
        <ele>1356.1</ele>
        <time>2009-06-25T12:39:34Z</time>
      </trkpt>
      <trkpt lat="44.5882" lon="3.14796">
        <ele>1356.5</ele>
        <time>2009-06-25T12:39:56Z</time>
      </trkpt>
      <trkpt lat="44.5882" lon="3.14796">
        <ele>1356.5</ele>
        <time>2009-06-25T12:39:57Z</time>
      </trkpt>
      <trkpt lat="44.58837" lon="3.14781">
        <ele>1355.6</ele>
        <time>2009-06-25T12:40:17Z</time>
      </trkpt>
      <trkpt lat="44.58845" lon="3.14764">
        <ele>1356.1</ele>
        <time>2009-06-25T12:40:34Z</time>
      </trkpt>
      <trkpt lat="44.58849" lon="3.14761">
        <ele>1356.5</ele>
        <time>2009-06-25T12:40:38Z</time>
      </trkpt>
      <trkpt lat="44.58852" lon="3.14742">
        <ele>1357</ele>
        <time>2009-06-25T12:40:54Z</time>
      </trkpt>
      <trkpt lat="44.58856" lon="3.14729">
        <ele>1357.5</ele>
        <time>2009-06-25T12:41:03Z</time>
      </trkpt>
      <trkpt lat="44.58866" lon="3.14703">
        <ele>1357.5</ele>
        <time>2009-06-25T12:41:25Z</time>
      </trkpt>
      <trkpt lat="44.58867" lon="3.14701">
        <ele>1358</ele>
        <time>2009-06-25T12:41:28Z</time>
      </trkpt>
      <trkpt lat="44.5887" lon="3.14686">
        <ele>1358</ele>
        <time>2009-06-25T12:41:40Z</time>
      </trkpt>
      <trkpt lat="44.58874" lon="3.1466">
        <ele>1358</ele>
        <time>2009-06-25T12:42:00Z</time>
      </trkpt>
      <trkpt lat="44.58881" lon="3.14634">
        <ele>1358.5</ele>
        <time>2009-06-25T12:42:22Z</time>
      </trkpt>
      <trkpt lat="44.58883" lon="3.14624">
        <ele>1359</ele>
        <time>2009-06-25T12:42:31Z</time>
      </trkpt>
      <trkpt lat="44.58891" lon="3.14601">
        <ele>1359.9</ele>
        <time>2009-06-25T12:42:54Z</time>
      </trkpt>
      <trkpt lat="44.58895" lon="3.1459">
        <ele>1359.9</ele>
        <time>2009-06-25T12:43:13Z</time>
      </trkpt>
      <trkpt lat="44.58896" lon="3.14589">
        <ele>1360.4</ele>
        <time>2009-06-25T12:43:43Z</time>
      </trkpt>
      <trkpt lat="44.58896" lon="3.14586">
        <ele>1359.9</ele>
        <time>2009-06-25T12:43:48Z</time>
      </trkpt>
      <trkpt lat="44.58899" lon="3.14554">
        <ele>1359.9</ele>
        <time>2009-06-25T12:44:11Z</time>
      </trkpt>
      <trkpt lat="44.58904" lon="3.14522">
        <ele>1359.9</ele>
        <time>2009-06-25T12:44:33Z</time>
      </trkpt>
      <trkpt lat="44.58909" lon="3.14488">
        <ele>1359</ele>
        <time>2009-06-25T12:44:57Z</time>
      </trkpt>
      <trkpt lat="44.58909" lon="3.14484">
        <ele>1358.5</ele>
        <time>2009-06-25T12:45:00Z</time>
      </trkpt>
      <trkpt lat="44.58913" lon="3.14451">
        <ele>1357.5</ele>
        <time>2009-06-25T12:45:23Z</time>
      </trkpt>
      <trkpt lat="44.58919" lon="3.14426">
        <ele>1356.1</ele>
        <time>2009-06-25T12:45:41Z</time>
      </trkpt>
      <trkpt lat="44.58925" lon="3.14403">
        <ele>1353.7</ele>
        <time>2009-06-25T12:46:03Z</time>
      </trkpt>
      <trkpt lat="44.58921" lon="3.14395">
        <ele>1350.3</ele>
        <time>2009-06-25T12:46:23Z</time>
      </trkpt>
      <trkpt lat="44.58912" lon="3.14382">
        <ele>1348.9</ele>
        <time>2009-06-25T12:46:46Z</time>
      </trkpt>
      <trkpt lat="44.5891" lon="3.14376">
        <ele>1347.4</ele>
        <time>2009-06-25T12:46:57Z</time>
      </trkpt>
      <trkpt lat="44.58901" lon="3.14379">
        <ele>1345</ele>
        <time>2009-06-25T12:47:13Z</time>
      </trkpt>
      <trkpt lat="44.58899" lon="3.14371">
        <ele>1343.1</ele>
        <time>2009-06-25T12:47:24Z</time>
      </trkpt>
      <trkpt lat="44.589" lon="3.14368">
        <ele>1343.1</ele>
        <time>2009-06-25T12:47:42Z</time>
      </trkpt>
      <trkpt lat="44.58893" lon="3.14362">
        <ele>1341.7</ele>
        <time>2009-06-25T12:49:08Z</time>
      </trkpt>
      <trkpt lat="44.58889" lon="3.1435">
        <ele>1339.7</ele>
        <time>2009-06-25T12:49:24Z</time>
      </trkpt>
      <trkpt lat="44.58887" lon="3.14331">
        <ele>1335.9</ele>
        <time>2009-06-25T12:49:44Z</time>
      </trkpt>
      <trkpt lat="44.58882" lon="3.14311">
        <ele>1330.1</ele>
        <time>2009-06-25T12:50:06Z</time>
      </trkpt>
      <trkpt lat="44.58877" lon="3.14289">
        <ele>1327.3</ele>
        <time>2009-06-25T12:50:25Z</time>
      </trkpt>
      <trkpt lat="44.58871" lon="3.14267">
        <ele>1323.4</ele>
        <time>2009-06-25T12:50:47Z</time>
      </trkpt>
      <trkpt lat="44.58865" lon="3.14246">
        <ele>1320</ele>
        <time>2009-06-25T12:51:08Z</time>
      </trkpt>
      <trkpt lat="44.58857" lon="3.14188">
        <ele>1309</ele>
        <time>2009-06-25T12:53:18Z</time>
      </trkpt>
      <trkpt lat="44.58855" lon="3.14182">
        <ele>1310.4</ele>
        <time>2009-06-25T12:53:39Z</time>
      </trkpt>
      <trkpt lat="44.58856" lon="3.14174">
        <ele>1309</ele>
        <time>2009-06-25T12:55:00Z</time>
      </trkpt>
      <trkpt lat="44.58862" lon="3.14173">
        <ele>1307.5</ele>
        <time>2009-06-25T12:55:31Z</time>
      </trkpt>
      <trkpt lat="44.58856" lon="3.14156">
        <ele>1310.4</ele>
        <time>2009-06-25T12:56:16Z</time>
      </trkpt>
      <trkpt lat="44.58867" lon="3.14155">
        <ele>1309.9</ele>
        <time>2009-06-25T12:56:47Z</time>
      </trkpt>
      <trkpt lat="44.58874" lon="3.14156">
        <ele>1308.5</ele>
        <time>2009-06-25T12:57:22Z</time>
      </trkpt>
      <trkpt lat="44.58882" lon="3.14151">
        <ele>1309.5</ele>
        <time>2009-06-25T12:57:49Z</time>
      </trkpt>
      <trkpt lat="44.58889" lon="3.14101">
        <ele>1309</ele>
        <time>2009-06-25T12:59:09Z</time>
      </trkpt>
      <trkpt lat="44.58886" lon="3.14083">
        <ele>1309.5</ele>
        <time>2009-06-25T12:59:40Z</time>
      </trkpt>
      <trkpt lat="44.58885" lon="3.1404">
        <ele>1300.3</ele>
        <time>2009-06-25T13:00:51Z</time>
      </trkpt>
      <trkpt lat="44.58892" lon="3.14016">
        <ele>1293.1</ele>
        <time>2009-06-25T13:01:25Z</time>
      </trkpt>
      <trkpt lat="44.58897" lon="3.13979">
        <ele>1284.9</ele>
        <time>2009-06-25T13:01:47Z</time>
      </trkpt>
      <trkpt lat="44.58904" lon="3.13964">
        <ele>1281.6</ele>
        <time>2009-06-25T13:02:03Z</time>
      </trkpt>
      <trkpt lat="44.58905" lon="3.13963">
        <ele>1281.1</ele>
        <time>2009-06-25T13:02:04Z</time>
      </trkpt>
      <trkpt lat="44.58908" lon="3.13958">
        <ele>1280.6</ele>
        <time>2009-06-25T13:02:07Z</time>
      </trkpt>
      <trkpt lat="44.58909" lon="3.13937">
        <ele>1278.7</ele>
        <time>2009-06-25T13:02:26Z</time>
      </trkpt>
      <trkpt lat="44.58909" lon="3.13922">
        <ele>1276.8</ele>
        <time>2009-06-25T13:02:43Z</time>
      </trkpt>
      <trkpt lat="44.58911" lon="3.13908">
        <ele>1272.9</ele>
        <time>2009-06-25T13:03:52Z</time>
      </trkpt>
      <trkpt lat="44.58908" lon="3.139">
        <ele>1274.9</ele>
        <time>2009-06-25T13:04:22Z</time>
      </trkpt>
      <trkpt lat="44.58908" lon="3.13877">
        <ele>1274.4</ele>
        <time>2009-06-25T13:04:39Z</time>
      </trkpt>
      <trkpt lat="44.58905" lon="3.13846">
        <ele>1272.9</ele>
        <time>2009-06-25T13:05:02Z</time>
      </trkpt>
      <trkpt lat="44.58901" lon="3.13833">
        <ele>1272</ele>
        <time>2009-06-25T13:05:15Z</time>
      </trkpt>
      <trkpt lat="44.58897" lon="3.1382">
        <ele>1271</ele>
        <time>2009-06-25T13:05:32Z</time>
      </trkpt>
      <trkpt lat="44.58893" lon="3.13813">
        <ele>1271.5</ele>
        <time>2009-06-25T13:05:40Z</time>
      </trkpt>
      <trkpt lat="44.58886" lon="3.13791">
        <ele>1271.5</ele>
        <time>2009-06-25T13:06:00Z</time>
      </trkpt>
      <trkpt lat="44.58881" lon="3.13774">
        <ele>1271.5</ele>
        <time>2009-06-25T13:06:17Z</time>
      </trkpt>
      <trkpt lat="44.58876" lon="3.13757">
        <ele>1271</ele>
        <time>2009-06-25T13:06:34Z</time>
      </trkpt>
      <trkpt lat="44.58875" lon="3.13756">
        <ele>1270</ele>
        <time>2009-06-25T13:06:59Z</time>
      </trkpt>
      <trkpt lat="44.58871" lon="3.1375">
        <ele>1270.5</ele>
        <time>2009-06-25T13:07:20Z</time>
      </trkpt>
      <trkpt lat="44.58867" lon="3.13739">
        <ele>1271</ele>
        <time>2009-06-25T13:07:30Z</time>
      </trkpt>
      <trkpt lat="44.58862" lon="3.13717">
        <ele>1271.5</ele>
        <time>2009-06-25T13:07:50Z</time>
      </trkpt>
      <trkpt lat="44.5886" lon="3.13708">
        <ele>1271.5</ele>
        <time>2009-06-25T13:08:06Z</time>
      </trkpt>
      <trkpt lat="44.58858" lon="3.13708">
        <ele>1272</ele>
        <time>2009-06-25T13:08:25Z</time>
      </trkpt>
      <trkpt lat="44.58853" lon="3.13704">
        <ele>1272.4</ele>
        <time>2009-06-25T13:08:42Z</time>
      </trkpt>
      <trkpt lat="44.58845" lon="3.13682">
        <ele>1272</ele>
        <time>2009-06-25T13:09:04Z</time>
      </trkpt>
      <trkpt lat="44.58839" lon="3.13664">
        <ele>1272</ele>
        <time>2009-06-25T13:09:23Z</time>
      </trkpt>
      <trkpt lat="44.58835" lon="3.13645">
        <ele>1272</ele>
        <time>2009-06-25T13:09:42Z</time>
      </trkpt>
      <trkpt lat="44.58831" lon="3.13632">
        <ele>1271.5</ele>
        <time>2009-06-25T13:09:57Z</time>
      </trkpt>
      <trkpt lat="44.58832" lon="3.13626">
        <ele>1272.9</ele>
        <time>2009-06-25T13:10:10Z</time>
      </trkpt>
      <trkpt lat="44.58833" lon="3.13612">
        <ele>1273.9</ele>
        <time>2009-06-25T13:10:25Z</time>
      </trkpt>
      <trkpt lat="44.58827" lon="3.13594">
        <ele>1273.4</ele>
        <time>2009-06-25T13:10:44Z</time>
      </trkpt>
      <trkpt lat="44.58824" lon="3.13577">
        <ele>1272.9</ele>
        <time>2009-06-25T13:11:02Z</time>
      </trkpt>
      <trkpt lat="44.5882" lon="3.13563">
        <ele>1272.9</ele>
        <time>2009-06-25T13:11:18Z</time>
      </trkpt>
      <trkpt lat="44.58817" lon="3.13548">
        <ele>1273.4</ele>
        <time>2009-06-25T13:11:34Z</time>
      </trkpt>
      <trkpt lat="44.58814" lon="3.13541">
        <ele>1273.4</ele>
        <time>2009-06-25T13:11:50Z</time>
      </trkpt>
      <trkpt lat="44.58815" lon="3.13525">
        <ele>1273.4</ele>
        <time>2009-06-25T13:12:05Z</time>
      </trkpt>
      <trkpt lat="44.58813" lon="3.13518">
        <ele>1274.4</ele>
        <time>2009-06-25T13:12:20Z</time>
      </trkpt>
      <trkpt lat="44.58809" lon="3.13504">
        <ele>1274.4</ele>
        <time>2009-06-25T13:12:36Z</time>
      </trkpt>
      <trkpt lat="44.58808" lon="3.13496">
        <ele>1274.9</ele>
        <time>2009-06-25T13:12:52Z</time>
      </trkpt>
      <trkpt lat="44.58808" lon="3.1349">
        <ele>1275.3</ele>
        <time>2009-06-25T13:13:06Z</time>
      </trkpt>
      <trkpt lat="44.58808" lon="3.13484">
        <ele>1274.9</ele>
        <time>2009-06-25T13:13:22Z</time>
      </trkpt>
      <trkpt lat="44.58808" lon="3.13479">
        <ele>1274.9</ele>
        <time>2009-06-25T13:13:34Z</time>
      </trkpt>
      <trkpt lat="44.58805" lon="3.1347">
        <ele>1275.3</ele>
        <time>2009-06-25T13:13:53Z</time>
      </trkpt>
      <trkpt lat="44.58803" lon="3.13463">
        <ele>1274.9</ele>
        <time>2009-06-25T13:14:08Z</time>
      </trkpt>
      <trkpt lat="44.58802" lon="3.13459">
        <ele>1275.3</ele>
        <time>2009-06-25T13:14:24Z</time>
      </trkpt>
      <trkpt lat="44.58799" lon="3.13451">
        <ele>1275.3</ele>
        <time>2009-06-25T13:14:44Z</time>
      </trkpt>
      <trkpt lat="44.58798" lon="3.13446">
        <ele>1275.8</ele>
        <time>2009-06-25T13:15:03Z</time>
      </trkpt>
      <trkpt lat="44.58797" lon="3.13445">
        <ele>1275.8</ele>
        <time>2009-06-25T13:15:19Z</time>
      </trkpt>
      <trkpt lat="44.58799" lon="3.13442">
        <ele>1274.4</ele>
        <time>2009-06-25T13:15:50Z</time>
      </trkpt>
      <trkpt lat="44.588" lon="3.1344">
        <ele>1274.9</ele>
        <time>2009-06-25T13:16:08Z</time>
      </trkpt>
      <trkpt lat="44.58803" lon="3.13435">
        <ele>1275.3</ele>
        <time>2009-06-25T13:16:26Z</time>
      </trkpt>
      <trkpt lat="44.58803" lon="3.13435">
        <ele>1275.8</ele>
        <time>2009-06-25T13:16:42Z</time>
      </trkpt>
      <trkpt lat="44.58802" lon="3.13434">
        <ele>1276.8</ele>
        <time>2009-06-25T13:17:10Z</time>
      </trkpt>
      <trkpt lat="44.58803" lon="3.13425">
        <ele>1278.2</ele>
        <time>2009-06-25T13:17:36Z</time>
      </trkpt>
      <trkpt lat="44.58803" lon="3.13424">
        <ele>1278.2</ele>
        <time>2009-06-25T13:17:37Z</time>
      </trkpt>
      <trkpt lat="44.58797" lon="3.1341">
        <ele>1278.2</ele>
        <time>2009-06-25T13:17:49Z</time>
      </trkpt>
      <trkpt lat="44.58795" lon="3.13381">
        <ele>1280.1</ele>
        <time>2009-06-25T13:18:12Z</time>
      </trkpt>
      <trkpt lat="44.58796" lon="3.13369">
        <ele>1281.6</ele>
        <time>2009-06-25T13:18:23Z</time>
      </trkpt>
      <trkpt lat="44.58797" lon="3.13342">
        <ele>1282</ele>
        <time>2009-06-25T13:18:45Z</time>
      </trkpt>
      <trkpt lat="44.588" lon="3.13315">
        <ele>1282.5</ele>
        <time>2009-06-25T13:19:06Z</time>
      </trkpt>
      <trkpt lat="44.58795" lon="3.13291">
        <ele>1281.6</ele>
        <time>2009-06-25T13:19:26Z</time>
      </trkpt>
      <trkpt lat="44.58789" lon="3.13271">
        <ele>1281.6</ele>
        <time>2009-06-25T13:19:47Z</time>
      </trkpt>
      <trkpt lat="44.58786" lon="3.13253">
        <ele>1282</ele>
        <time>2009-06-25T13:20:07Z</time>
      </trkpt>
      <trkpt lat="44.58784" lon="3.13242">
        <ele>1282</ele>
        <time>2009-06-25T13:20:24Z</time>
      </trkpt>
      <trkpt lat="44.58787" lon="3.13231">
        <ele>1284</ele>
        <time>2009-06-25T13:20:42Z</time>
      </trkpt>
      <trkpt lat="44.58789" lon="3.13226">
        <ele>1285.4</ele>
        <time>2009-06-25T13:21:01Z</time>
      </trkpt>
      <trkpt lat="44.58788" lon="3.13221">
        <ele>1286.4</ele>
        <time>2009-06-25T13:21:27Z</time>
      </trkpt>
      <trkpt lat="44.58789" lon="3.13218">
        <ele>1284.9</ele>
        <time>2009-06-25T13:21:48Z</time>
      </trkpt>
      <trkpt lat="44.58792" lon="3.13217">
        <ele>1284.5</ele>
        <time>2009-06-25T13:24:07Z</time>
      </trkpt>
      <trkpt lat="44.58789" lon="3.13217">
        <ele>1286.4</ele>
        <time>2009-06-25T13:27:08Z</time>
      </trkpt>
      <trkpt lat="44.58787" lon="3.13211">
        <ele>1286.9</ele>
        <time>2009-06-25T13:27:24Z</time>
      </trkpt>
      <trkpt lat="44.58785" lon="3.13196">
        <ele>1289.3</ele>
        <time>2009-06-25T13:27:54Z</time>
      </trkpt>
      <trkpt lat="44.58784" lon="3.1318">
        <ele>1289.3</ele>
        <time>2009-06-25T13:28:10Z</time>
      </trkpt>
      <trkpt lat="44.58776" lon="3.13165">
        <ele>1288.3</ele>
        <time>2009-06-25T13:28:29Z</time>
      </trkpt>
      <trkpt lat="44.58769" lon="3.13147">
        <ele>1285.9</ele>
        <time>2009-06-25T13:28:48Z</time>
      </trkpt>
      <trkpt lat="44.58763" lon="3.13129">
        <ele>1285.4</ele>
        <time>2009-06-25T13:29:07Z</time>
      </trkpt>
      <trkpt lat="44.58763" lon="3.13121">
        <ele>1285.9</ele>
        <time>2009-06-25T13:29:27Z</time>
      </trkpt>
      <trkpt lat="44.58761" lon="3.13123">
        <ele>1286.9</ele>
        <time>2009-06-25T13:29:50Z</time>
      </trkpt>
      <trkpt lat="44.58756" lon="3.13122">
        <ele>1285.4</ele>
        <time>2009-06-25T13:30:25Z</time>
      </trkpt>
      <trkpt lat="44.58744" lon="3.1311">
        <ele>1285.9</ele>
        <time>2009-06-25T13:30:45Z</time>
      </trkpt>
      <trkpt lat="44.58741" lon="3.13109">
        <ele>1285.9</ele>
        <time>2009-06-25T13:30:50Z</time>
      </trkpt>
      <trkpt lat="44.58733" lon="3.13107">
        <ele>1286.4</ele>
        <time>2009-06-25T13:30:59Z</time>
      </trkpt>
      <trkpt lat="44.5873" lon="3.13104">
        <ele>1285.9</ele>
        <time>2009-06-25T13:31:03Z</time>
      </trkpt>
      <trkpt lat="44.58711" lon="3.13099">
        <ele>1285.9</ele>
        <time>2009-06-25T13:31:22Z</time>
      </trkpt>
      <trkpt lat="44.58692" lon="3.13082">
        <ele>1286.4</ele>
        <time>2009-06-25T13:31:46Z</time>
      </trkpt>
      <trkpt lat="44.58679" lon="3.13069">
        <ele>1287.4</ele>
        <time>2009-06-25T13:32:06Z</time>
      </trkpt>
      <trkpt lat="44.58669" lon="3.13061">
        <ele>1287.4</ele>
        <time>2009-06-25T13:32:25Z</time>
      </trkpt>
      <trkpt lat="44.58654" lon="3.13052">
        <ele>1287.4</ele>
        <time>2009-06-25T13:32:44Z</time>
      </trkpt>
      <trkpt lat="44.58652" lon="3.1305">
        <ele>1286.9</ele>
        <time>2009-06-25T13:33:03Z</time>
      </trkpt>
      <trkpt lat="44.58638" lon="3.1304">
        <ele>1287.8</ele>
        <time>2009-06-25T13:33:21Z</time>
      </trkpt>
      <trkpt lat="44.58619" lon="3.13038">
        <ele>1287.8</ele>
        <time>2009-06-25T13:33:41Z</time>
      </trkpt>
      <trkpt lat="44.58603" lon="3.13032">
        <ele>1287.4</ele>
        <time>2009-06-25T13:33:57Z</time>
      </trkpt>
      <trkpt lat="44.58593" lon="3.13027">
        <ele>1287.4</ele>
        <time>2009-06-25T13:34:08Z</time>
      </trkpt>
      <trkpt lat="44.58584" lon="3.13023">
        <ele>1286.9</ele>
        <time>2009-06-25T13:34:19Z</time>
      </trkpt>
      <trkpt lat="44.58566" lon="3.13013">
        <ele>1285.9</ele>
        <time>2009-06-25T13:34:40Z</time>
      </trkpt>
      <trkpt lat="44.58551" lon="3.13">
        <ele>1285.4</ele>
        <time>2009-06-25T13:34:59Z</time>
      </trkpt>
      <trkpt lat="44.58535" lon="3.12985">
        <ele>1285.4</ele>
        <time>2009-06-25T13:35:21Z</time>
      </trkpt>
      <trkpt lat="44.58522" lon="3.12971">
        <ele>1285.4</ele>
        <time>2009-06-25T13:35:38Z</time>
      </trkpt>
      <trkpt lat="44.58506" lon="3.12962">
        <ele>1284.9</ele>
        <time>2009-06-25T13:35:57Z</time>
      </trkpt>
      <trkpt lat="44.58487" lon="3.12954">
        <ele>1284</ele>
        <time>2009-06-25T13:36:19Z</time>
      </trkpt>
      <trkpt lat="44.58468" lon="3.12943">
        <ele>1283.5</ele>
        <time>2009-06-25T13:36:41Z</time>
      </trkpt>
      <trkpt lat="44.58451" lon="3.12933">
        <ele>1284</ele>
        <time>2009-06-25T13:37:02Z</time>
      </trkpt>
      <trkpt lat="44.58435" lon="3.12928">
        <ele>1284</ele>
        <time>2009-06-25T13:37:20Z</time>
      </trkpt>
      <trkpt lat="44.58431" lon="3.12924">
        <ele>1284</ele>
        <time>2009-06-25T13:37:26Z</time>
      </trkpt>
      <trkpt lat="44.58425" lon="3.12918">
        <ele>1284</ele>
        <time>2009-06-25T13:37:33Z</time>
      </trkpt>
      <trkpt lat="44.58411" lon="3.12905">
        <ele>1284.5</ele>
        <time>2009-06-25T13:37:55Z</time>
      </trkpt>
      <trkpt lat="44.58401" lon="3.12895">
        <ele>1284.5</ele>
        <time>2009-06-25T13:38:11Z</time>
      </trkpt>
      <trkpt lat="44.58394" lon="3.12889">
        <ele>1284.5</ele>
        <time>2009-06-25T13:38:26Z</time>
      </trkpt>
      <trkpt lat="44.58386" lon="3.12886">
        <ele>1284</ele>
        <time>2009-06-25T13:38:42Z</time>
      </trkpt>
      <trkpt lat="44.58379" lon="3.1288">
        <ele>1284</ele>
        <time>2009-06-25T13:38:57Z</time>
      </trkpt>
      <trkpt lat="44.58368" lon="3.12874">
        <ele>1284.5</ele>
        <time>2009-06-25T13:39:16Z</time>
      </trkpt>
      <trkpt lat="44.5836" lon="3.12868">
        <ele>1284</ele>
        <time>2009-06-25T13:39:29Z</time>
      </trkpt>
      <trkpt lat="44.58349" lon="3.1286">
        <ele>1284.5</ele>
        <time>2009-06-25T13:39:47Z</time>
      </trkpt>
      <trkpt lat="44.58332" lon="3.12863">
        <ele>1284.5</ele>
        <time>2009-06-25T13:40:07Z</time>
      </trkpt>
      <trkpt lat="44.58323" lon="3.12863">
        <ele>1284.5</ele>
        <time>2009-06-25T13:40:23Z</time>
      </trkpt>
      <trkpt lat="44.58313" lon="3.1287">
        <ele>1284.5</ele>
        <time>2009-06-25T13:40:44Z</time>
      </trkpt>
      <trkpt lat="44.58312" lon="3.12869">
        <ele>1285.4</ele>
        <time>2009-06-25T13:41:08Z</time>
      </trkpt>
      <trkpt lat="44.5831" lon="3.12867">
        <ele>1284</ele>
        <time>2009-06-25T13:41:29Z</time>
      </trkpt>
      <trkpt lat="44.58311" lon="3.12866">
        <ele>1284.5</ele>
        <time>2009-06-25T13:41:47Z</time>
      </trkpt>
      <trkpt lat="44.5831" lon="3.12866">
        <ele>1284.9</ele>
        <time>2009-06-25T13:42:07Z</time>
      </trkpt>
      <trkpt lat="44.58307" lon="3.12864">
        <ele>1284.9</ele>
        <time>2009-06-25T13:42:26Z</time>
      </trkpt>
      <trkpt lat="44.58301" lon="3.12862">
        <ele>1285.9</ele>
        <time>2009-06-25T13:42:42Z</time>
      </trkpt>
      <trkpt lat="44.58294" lon="3.12857">
        <ele>1286.9</ele>
        <time>2009-06-25T13:42:56Z</time>
      </trkpt>
      <trkpt lat="44.58291" lon="3.12856">
        <ele>1286.9</ele>
        <time>2009-06-25T13:43:00Z</time>
      </trkpt>
      <trkpt lat="44.58274" lon="3.12847">
        <ele>1288.8</ele>
        <time>2009-06-25T13:43:20Z</time>
      </trkpt>
      <trkpt lat="44.58259" lon="3.12839">
        <ele>1291.7</ele>
        <time>2009-06-25T13:43:43Z</time>
      </trkpt>
      <trkpt lat="44.58246" lon="3.12824">
        <ele>1292.6</ele>
        <time>2009-06-25T13:44:02Z</time>
      </trkpt>
      <trkpt lat="44.5823" lon="3.12819">
        <ele>1293.6</ele>
        <time>2009-06-25T13:44:24Z</time>
      </trkpt>
      <trkpt lat="44.58217" lon="3.1282">
        <ele>1293.1</ele>
        <time>2009-06-25T13:44:37Z</time>
      </trkpt>
      <trkpt lat="44.58213" lon="3.1282">
        <ele>1293.1</ele>
        <time>2009-06-25T13:44:41Z</time>
      </trkpt>
      <trkpt lat="44.58205" lon="3.1282">
        <ele>1293.1</ele>
        <time>2009-06-25T13:44:49Z</time>
      </trkpt>
      <trkpt lat="44.58189" lon="3.12812">
        <ele>1293.1</ele>
        <time>2009-06-25T13:45:08Z</time>
      </trkpt>
      <trkpt lat="44.58173" lon="3.12809">
        <ele>1294.1</ele>
        <time>2009-06-25T13:45:27Z</time>
      </trkpt>
      <trkpt lat="44.58166" lon="3.1281">
        <ele>1294.5</ele>
        <time>2009-06-25T13:45:35Z</time>
      </trkpt>
      <trkpt lat="44.5815" lon="3.12817">
        <ele>1296.5</ele>
        <time>2009-06-25T13:45:54Z</time>
      </trkpt>
      <trkpt lat="44.58139" lon="3.12821">
        <ele>1297.9</ele>
        <time>2009-06-25T13:46:10Z</time>
      </trkpt>
      <trkpt lat="44.58123" lon="3.12826">
        <ele>1300.3</ele>
        <time>2009-06-25T13:46:29Z</time>
      </trkpt>
      <trkpt lat="44.58107" lon="3.12828">
        <ele>1302.7</ele>
        <time>2009-06-25T13:46:49Z</time>
      </trkpt>
      <trkpt lat="44.58089" lon="3.12816">
        <ele>1305.1</ele>
        <time>2009-06-25T13:47:12Z</time>
      </trkpt>
      <trkpt lat="44.58079" lon="3.12804">
        <ele>1306.6</ele>
        <time>2009-06-25T13:47:30Z</time>
      </trkpt>
      <trkpt lat="44.58062" lon="3.12793">
        <ele>1308</ele>
        <time>2009-06-25T13:47:50Z</time>
      </trkpt>
      <trkpt lat="44.58054" lon="3.12793">
        <ele>1308</ele>
        <time>2009-06-25T13:48:00Z</time>
      </trkpt>
      <trkpt lat="44.58032" lon="3.12791">
        <ele>1308</ele>
        <time>2009-06-25T13:48:24Z</time>
      </trkpt>
      <trkpt lat="44.58028" lon="3.12791">
        <ele>1308</ele>
        <time>2009-06-25T13:48:45Z</time>
      </trkpt>
      <trkpt lat="44.58018" lon="3.12785">
        <ele>1306.6</ele>
        <time>2009-06-25T13:49:03Z</time>
      </trkpt>
      <trkpt lat="44.57999" lon="3.12782">
        <ele>1303.7</ele>
        <time>2009-06-25T13:49:25Z</time>
      </trkpt>
      <trkpt lat="44.57979" lon="3.12777">
        <ele>1301.3</ele>
        <time>2009-06-25T13:49:45Z</time>
      </trkpt>
      <trkpt lat="44.57957" lon="3.12762">
        <ele>1300.8</ele>
        <time>2009-06-25T13:50:09Z</time>
      </trkpt>
      <trkpt lat="44.57955" lon="3.12761">
        <ele>1300.8</ele>
        <time>2009-06-25T13:50:12Z</time>
      </trkpt>
      <trkpt lat="44.57944" lon="3.12756">
        <ele>1299.9</ele>
        <time>2009-06-25T13:50:24Z</time>
      </trkpt>
      <trkpt lat="44.57928" lon="3.12753">
        <ele>1298.9</ele>
        <time>2009-06-25T13:50:43Z</time>
      </trkpt>
      <trkpt lat="44.57909" lon="3.1275">
        <ele>1297.4</ele>
        <time>2009-06-25T13:51:07Z</time>
      </trkpt>
      <trkpt lat="44.57889" lon="3.12747">
        <ele>1295.5</ele>
        <time>2009-06-25T13:51:29Z</time>
      </trkpt>
      <trkpt lat="44.57878" lon="3.12751">
        <ele>1295</ele>
        <time>2009-06-25T13:51:48Z</time>
      </trkpt>
      <trkpt lat="44.57876" lon="3.12752">
        <ele>1294.1</ele>
        <time>2009-06-25T13:52:15Z</time>
      </trkpt>
      <trkpt lat="44.57869" lon="3.12748">
        <ele>1293.6</ele>
        <time>2009-06-25T13:52:36Z</time>
      </trkpt>
      <trkpt lat="44.57857" lon="3.12741">
        <ele>1293.1</ele>
        <time>2009-06-25T13:52:54Z</time>
      </trkpt>
      <trkpt lat="44.57844" lon="3.12734">
        <ele>1293.6</ele>
        <time>2009-06-25T13:53:10Z</time>
      </trkpt>
      <trkpt lat="44.57831" lon="3.12725">
        <ele>1294.1</ele>
        <time>2009-06-25T13:53:29Z</time>
      </trkpt>
      <trkpt lat="44.5783" lon="3.12725">
        <ele>1294.1</ele>
        <time>2009-06-25T13:53:29Z</time>
      </trkpt>
      <trkpt lat="44.57814" lon="3.12722">
        <ele>1294.1</ele>
        <time>2009-06-25T13:53:51Z</time>
      </trkpt>
      <trkpt lat="44.57801" lon="3.12722">
        <ele>1294.1</ele>
        <time>2009-06-25T13:54:08Z</time>
      </trkpt>
      <trkpt lat="44.57794" lon="3.12722">
        <ele>1294.5</ele>
        <time>2009-06-25T13:54:18Z</time>
      </trkpt>
      <trkpt lat="44.57784" lon="3.12719">
        <ele>1295</ele>
        <time>2009-06-25T13:54:30Z</time>
      </trkpt>
      <trkpt lat="44.57765" lon="3.12712">
        <ele>1296</ele>
        <time>2009-06-25T13:54:51Z</time>
      </trkpt>
      <trkpt lat="44.57746" lon="3.1271">
        <ele>1296.5</ele>
        <time>2009-06-25T13:55:13Z</time>
      </trkpt>
      <trkpt lat="44.57734" lon="3.12704">
        <ele>1297.4</ele>
        <time>2009-06-25T13:55:30Z</time>
      </trkpt>
      <trkpt lat="44.57727" lon="3.12703">
        <ele>1297.9</ele>
        <time>2009-06-25T13:55:43Z</time>
      </trkpt>
      <trkpt lat="44.57714" lon="3.12699">
        <ele>1297.4</ele>
        <time>2009-06-25T13:56:02Z</time>
      </trkpt>
      <trkpt lat="44.57713" lon="3.12696">
        <ele>1297.4</ele>
        <time>2009-06-25T13:56:04Z</time>
      </trkpt>
      <trkpt lat="44.57699" lon="3.12685">
        <ele>1297</ele>
        <time>2009-06-25T13:56:26Z</time>
      </trkpt>
      <trkpt lat="44.57685" lon="3.12677">
        <ele>1297.9</ele>
        <time>2009-06-25T13:56:45Z</time>
      </trkpt>
      <trkpt lat="44.57684" lon="3.12675">
        <ele>1297.9</ele>
        <time>2009-06-25T13:56:46Z</time>
      </trkpt>
      <trkpt lat="44.57677" lon="3.12668">
        <ele>1297</ele>
        <time>2009-06-25T13:57:09Z</time>
      </trkpt>
      <trkpt lat="44.57676" lon="3.12667">
        <ele>1297.9</ele>
        <time>2009-06-25T13:57:27Z</time>
      </trkpt>
      <trkpt lat="44.57676" lon="3.12666">
        <ele>1297</ele>
        <time>2009-06-25T13:57:45Z</time>
      </trkpt>
      <trkpt lat="44.57666" lon="3.12664">
        <ele>1297.4</ele>
        <time>2009-06-25T13:58:02Z</time>
      </trkpt>
      <trkpt lat="44.57659" lon="3.12663">
        <ele>1297.4</ele>
        <time>2009-06-25T13:58:11Z</time>
      </trkpt>
      <trkpt lat="44.57641" lon="3.1267">
        <ele>1297</ele>
        <time>2009-06-25T13:58:33Z</time>
      </trkpt>
      <trkpt lat="44.57634" lon="3.12668">
        <ele>1297.9</ele>
        <time>2009-06-25T13:58:49Z</time>
      </trkpt>
      <trkpt lat="44.57626" lon="3.12662">
        <ele>1298.4</ele>
        <time>2009-06-25T13:59:05Z</time>
      </trkpt>
      <trkpt lat="44.57616" lon="3.12657">
        <ele>1298.9</ele>
        <time>2009-06-25T13:59:20Z</time>
      </trkpt>
      <trkpt lat="44.57603" lon="3.12651">
        <ele>1299.4</ele>
        <time>2009-06-25T13:59:39Z</time>
      </trkpt>
      <trkpt lat="44.57596" lon="3.12644">
        <ele>1299.9</ele>
        <time>2009-06-25T13:59:54Z</time>
      </trkpt>
      <trkpt lat="44.57586" lon="3.12644">
        <ele>1301.8</ele>
        <time>2009-06-25T14:00:10Z</time>
      </trkpt>
      <trkpt lat="44.57579" lon="3.12639">
        <ele>1304.6</ele>
        <time>2009-06-25T14:00:26Z</time>
      </trkpt>
      <trkpt lat="44.57568" lon="3.12634">
        <ele>1306.1</ele>
        <time>2009-06-25T14:00:44Z</time>
      </trkpt>
      <trkpt lat="44.57553" lon="3.12628">
        <ele>1307.5</ele>
        <time>2009-06-25T14:01:04Z</time>
      </trkpt>
      <trkpt lat="44.57537" lon="3.12624">
        <ele>1309.5</ele>
        <time>2009-06-25T14:01:27Z</time>
      </trkpt>
      <trkpt lat="44.5752" lon="3.1262">
        <ele>1310.4</ele>
        <time>2009-06-25T14:01:47Z</time>
      </trkpt>
      <trkpt lat="44.57507" lon="3.12617">
        <ele>1311.9</ele>
        <time>2009-06-25T14:02:06Z</time>
      </trkpt>
      <trkpt lat="44.57496" lon="3.1261">
        <ele>1312.8</ele>
        <time>2009-06-25T14:02:25Z</time>
      </trkpt>
      <trkpt lat="44.5749" lon="3.12605">
        <ele>1312.8</ele>
        <time>2009-06-25T14:02:42Z</time>
      </trkpt>
      <trkpt lat="44.57478" lon="3.12598">
        <ele>1314.8</ele>
        <time>2009-06-25T14:03:00Z</time>
      </trkpt>
      <trkpt lat="44.57466" lon="3.12596">
        <ele>1317.1</ele>
        <time>2009-06-25T14:03:19Z</time>
      </trkpt>
      <trkpt lat="44.57455" lon="3.12592">
        <ele>1318.1</ele>
        <time>2009-06-25T14:03:38Z</time>
      </trkpt>
      <trkpt lat="44.57441" lon="3.12589">
        <ele>1320</ele>
        <time>2009-06-25T14:03:57Z</time>
      </trkpt>
      <trkpt lat="44.57423" lon="3.12582">
        <ele>1322.9</ele>
        <time>2009-06-25T14:04:18Z</time>
      </trkpt>
      <trkpt lat="44.57415" lon="3.12574">
        <ele>1322.4</ele>
        <time>2009-06-25T14:04:35Z</time>
      </trkpt>
      <trkpt lat="44.57405" lon="3.12569">
        <ele>1323.9</ele>
        <time>2009-06-25T14:04:52Z</time>
      </trkpt>
      <trkpt lat="44.57391" lon="3.12557">
        <ele>1324.8</ele>
        <time>2009-06-25T14:05:14Z</time>
      </trkpt>
      <trkpt lat="44.57381" lon="3.12547">
        <ele>1325.8</ele>
        <time>2009-06-25T14:05:31Z</time>
      </trkpt>
      <trkpt lat="44.57373" lon="3.12527">
        <ele>1326.3</ele>
        <time>2009-06-25T14:05:50Z</time>
      </trkpt>
      <trkpt lat="44.57373" lon="3.12527">
        <ele>1326.8</ele>
        <time>2009-06-25T14:06:09Z</time>
      </trkpt>
      <trkpt lat="44.57374" lon="3.12529">
        <ele>1327.3</ele>
        <time>2009-06-25T14:07:04Z</time>
      </trkpt>
      <trkpt lat="44.57375" lon="3.12528">
        <ele>1327.3</ele>
        <time>2009-06-25T14:07:26Z</time>
      </trkpt>
      <trkpt lat="44.57375" lon="3.1253">
        <ele>1327.3</ele>
        <time>2009-06-25T14:07:57Z</time>
      </trkpt>
      <trkpt lat="44.57373" lon="3.12532">
        <ele>1325.8</ele>
        <time>2009-06-25T14:08:15Z</time>
      </trkpt>
      <trkpt lat="44.57375" lon="3.12527">
        <ele>1326.3</ele>
        <time>2009-06-25T14:08:47Z</time>
      </trkpt>
      <trkpt lat="44.57374" lon="3.12528">
        <ele>1325.8</ele>
        <time>2009-06-25T14:09:14Z</time>
      </trkpt>
      <trkpt lat="44.57375" lon="3.12525">
        <ele>1327.7</ele>
        <time>2009-06-25T14:09:48Z</time>
      </trkpt>
      <trkpt lat="44.57373" lon="3.12524">
        <ele>1327.3</ele>
        <time>2009-06-25T14:10:11Z</time>
      </trkpt>
      <trkpt lat="44.5737" lon="3.1252">
        <ele>1327.3</ele>
        <time>2009-06-25T14:10:27Z</time>
      </trkpt>
      <trkpt lat="44.57362" lon="3.12504">
        <ele>1328.7</ele>
        <time>2009-06-25T14:10:47Z</time>
      </trkpt>
      <trkpt lat="44.57351" lon="3.12501">
        <ele>1328.7</ele>
        <time>2009-06-25T14:11:06Z</time>
      </trkpt>
      <trkpt lat="44.57346" lon="3.12493">
        <ele>1328.7</ele>
        <time>2009-06-25T14:11:22Z</time>
      </trkpt>
      <trkpt lat="44.57346" lon="3.1249">
        <ele>1328.7</ele>
        <time>2009-06-25T14:11:25Z</time>
      </trkpt>
      <trkpt lat="44.57338" lon="3.12475">
        <ele>1329.6</ele>
        <time>2009-06-25T14:11:44Z</time>
      </trkpt>
      <trkpt lat="44.57334" lon="3.12459">
        <ele>1330.6</ele>
        <time>2009-06-25T14:12:00Z</time>
      </trkpt>
      <trkpt lat="44.57327" lon="3.12452">
        <ele>1332</ele>
        <time>2009-06-25T14:12:12Z</time>
      </trkpt>
      <trkpt lat="44.57312" lon="3.12441">
        <ele>1333.5</ele>
        <time>2009-06-25T14:12:32Z</time>
      </trkpt>
      <trkpt lat="44.57299" lon="3.12427">
        <ele>1334.9</ele>
        <time>2009-06-25T14:12:53Z</time>
      </trkpt>
      <trkpt lat="44.57291" lon="3.12421">
        <ele>1336.4</ele>
        <time>2009-06-25T14:13:10Z</time>
      </trkpt>
      <trkpt lat="44.57287" lon="3.12413">
        <ele>1336.9</ele>
        <time>2009-06-25T14:13:26Z</time>
      </trkpt>
      <trkpt lat="44.57281" lon="3.124">
        <ele>1337.8</ele>
        <time>2009-06-25T14:13:44Z</time>
      </trkpt>
      <trkpt lat="44.57283" lon="3.1238">
        <ele>1339.3</ele>
        <time>2009-06-25T14:14:02Z</time>
      </trkpt>
      <trkpt lat="44.57285" lon="3.12375">
        <ele>1339.7</ele>
        <time>2009-06-25T14:14:18Z</time>
      </trkpt>
      <trkpt lat="44.57284" lon="3.12372">
        <ele>1340.7</ele>
        <time>2009-06-25T14:14:42Z</time>
      </trkpt>
      <trkpt lat="44.57284" lon="3.12373">
        <ele>1340.7</ele>
        <time>2009-06-25T14:15:01Z</time>
      </trkpt>
      <trkpt lat="44.57284" lon="3.12373">
        <ele>1338.8</ele>
        <time>2009-06-25T14:15:17Z</time>
      </trkpt>
      <trkpt lat="44.57283" lon="3.12372">
        <ele>1338.3</ele>
        <time>2009-06-25T14:15:29Z</time>
      </trkpt>
      <trkpt lat="44.57273" lon="3.12357">
        <ele>1339.3</ele>
        <time>2009-06-25T14:15:48Z</time>
      </trkpt>
      <trkpt lat="44.57265" lon="3.12348">
        <ele>1340.7</ele>
        <time>2009-06-25T14:16:06Z</time>
      </trkpt>
      <trkpt lat="44.57252" lon="3.12336">
        <ele>1342.1</ele>
        <time>2009-06-25T14:16:25Z</time>
      </trkpt>
      <trkpt lat="44.57239" lon="3.12323">
        <ele>1343.1</ele>
        <time>2009-06-25T14:16:44Z</time>
      </trkpt>
      <trkpt lat="44.57228" lon="3.12313">
        <ele>1344</ele>
        <time>2009-06-25T14:17:01Z</time>
      </trkpt>
      <trkpt lat="44.57215" lon="3.12304">
        <ele>1346</ele>
        <time>2009-06-25T14:17:19Z</time>
      </trkpt>
      <trkpt lat="44.57204" lon="3.12293">
        <ele>1347.4</ele>
        <time>2009-06-25T14:17:36Z</time>
      </trkpt>
      <trkpt lat="44.57192" lon="3.12287">
        <ele>1348.9</ele>
        <time>2009-06-25T14:17:55Z</time>
      </trkpt>
      <trkpt lat="44.57177" lon="3.12281">
        <ele>1349.8</ele>
        <time>2009-06-25T14:18:15Z</time>
      </trkpt>
      <trkpt lat="44.57161" lon="3.12289">
        <ele>1350.3</ele>
        <time>2009-06-25T14:18:37Z</time>
      </trkpt>
      <trkpt lat="44.57159" lon="3.12288">
        <ele>1350.3</ele>
        <time>2009-06-25T14:18:54Z</time>
      </trkpt>
      <trkpt lat="44.57156" lon="3.12278">
        <ele>1348.9</ele>
        <time>2009-06-25T14:19:13Z</time>
      </trkpt>
      <trkpt lat="44.57152" lon="3.12249">
        <ele>1347.4</ele>
        <time>2009-06-25T14:19:39Z</time>
      </trkpt>
      <trkpt lat="44.57157" lon="3.12236">
        <ele>1347.4</ele>
        <time>2009-06-25T14:19:59Z</time>
      </trkpt>
      <trkpt lat="44.57157" lon="3.12227">
        <ele>1349.3</ele>
        <time>2009-06-25T14:20:17Z</time>
      </trkpt>
      <trkpt lat="44.57158" lon="3.12224">
        <ele>1347.9</ele>
        <time>2009-06-25T14:20:56Z</time>
      </trkpt>
      <trkpt lat="44.57158" lon="3.12224">
        <ele>1348.9</ele>
        <time>2009-06-25T14:21:00Z</time>
      </trkpt>
      <trkpt lat="44.57156" lon="3.12239">
        <ele>1347.4</ele>
        <time>2009-06-25T14:38:18Z</time>
      </trkpt>
      <trkpt lat="44.57155" lon="3.12241">
        <ele>1348.4</ele>
        <time>2009-06-25T14:38:57Z</time>
      </trkpt>
      <trkpt lat="44.57148" lon="3.12276">
        <ele>1349.8</ele>
        <time>2009-06-25T14:39:23Z</time>
      </trkpt>
      <trkpt lat="44.57146" lon="3.12281">
        <ele>1349.3</ele>
        <time>2009-06-25T14:39:35Z</time>
      </trkpt>
      <trkpt lat="44.57139" lon="3.12319">
        <ele>1351.3</ele>
        <time>2009-06-25T14:39:58Z</time>
      </trkpt>
      <trkpt lat="44.57134" lon="3.1235">
        <ele>1352.2</ele>
        <time>2009-06-25T14:40:21Z</time>
      </trkpt>
      <trkpt lat="44.57135" lon="3.12352">
        <ele>1352.2</ele>
        <time>2009-06-25T14:40:41Z</time>
      </trkpt>
      <trkpt lat="44.57123" lon="3.12365">
        <ele>1352.7</ele>
        <time>2009-06-25T14:40:59Z</time>
      </trkpt>
      <trkpt lat="44.57093" lon="3.12377">
        <ele>1353.7</ele>
        <time>2009-06-25T14:41:24Z</time>
      </trkpt>
      <trkpt lat="44.5706" lon="3.12384">
        <ele>1353.7</ele>
        <time>2009-06-25T14:41:54Z</time>
      </trkpt>
      <trkpt lat="44.57038" lon="3.12403">
        <ele>1355.1</ele>
        <time>2009-06-25T14:42:17Z</time>
      </trkpt>
      <trkpt lat="44.57021" lon="3.12433">
        <ele>1357.5</ele>
        <time>2009-06-25T14:42:47Z</time>
      </trkpt>
      <trkpt lat="44.57003" lon="3.12458">
        <ele>1359.4</ele>
        <time>2009-06-25T14:43:11Z</time>
      </trkpt>
      <trkpt lat="44.56985" lon="3.1248">
        <ele>1361.8</ele>
        <time>2009-06-25T14:43:34Z</time>
      </trkpt>
      <trkpt lat="44.56963" lon="3.12503">
        <ele>1363.3</ele>
        <time>2009-06-25T14:44:00Z</time>
      </trkpt>
      <trkpt lat="44.56948" lon="3.12526">
        <ele>1365.7</ele>
        <time>2009-06-25T14:44:23Z</time>
      </trkpt>
      <trkpt lat="44.56937" lon="3.12544">
        <ele>1367.6</ele>
        <time>2009-06-25T14:44:40Z</time>
      </trkpt>
      <trkpt lat="44.56933" lon="3.12572">
        <ele>1369.5</ele>
        <time>2009-06-25T14:45:03Z</time>
      </trkpt>
      <trkpt lat="44.56932" lon="3.12593">
        <ele>1371.9</ele>
        <time>2009-06-25T14:45:23Z</time>
      </trkpt>
      <trkpt lat="44.56923" lon="3.12614">
        <ele>1374.8</ele>
        <time>2009-06-25T14:45:45Z</time>
      </trkpt>
      <trkpt lat="44.56908" lon="3.12639">
        <ele>1376.8</ele>
        <time>2009-06-25T14:46:09Z</time>
      </trkpt>
      <trkpt lat="44.56903" lon="3.12671">
        <ele>1378.7</ele>
        <time>2009-06-25T14:46:32Z</time>
      </trkpt>
      <trkpt lat="44.56899" lon="3.12681">
        <ele>1380.1</ele>
        <time>2009-06-25T14:46:42Z</time>
      </trkpt>
      <trkpt lat="44.56896" lon="3.12691">
        <ele>1381.1</ele>
        <time>2009-06-25T14:46:50Z</time>
      </trkpt>
      <trkpt lat="44.56885" lon="3.12715">
        <ele>1383.5</ele>
        <time>2009-06-25T14:47:13Z</time>
      </trkpt>
      <trkpt lat="44.56876" lon="3.12727">
        <ele>1384.4</ele>
        <time>2009-06-25T14:47:28Z</time>
      </trkpt>
      <trkpt lat="44.56865" lon="3.12747">
        <ele>1385.9</ele>
        <time>2009-06-25T14:47:45Z</time>
      </trkpt>
      <trkpt lat="44.56863" lon="3.1275">
        <ele>1385.9</ele>
        <time>2009-06-25T14:47:48Z</time>
      </trkpt>
      <trkpt lat="44.56861" lon="3.12754">
        <ele>1385.9</ele>
        <time>2009-06-25T14:47:52Z</time>
      </trkpt>
      <trkpt lat="44.56852" lon="3.12774">
        <ele>1387.8</ele>
        <time>2009-06-25T14:48:09Z</time>
      </trkpt>
      <trkpt lat="44.56843" lon="3.12794">
        <ele>1390.2</ele>
        <time>2009-06-25T14:48:27Z</time>
      </trkpt>
      <trkpt lat="44.56839" lon="3.12796">
        <ele>1390.2</ele>
        <time>2009-06-25T14:48:31Z</time>
      </trkpt>
      <trkpt lat="44.56836" lon="3.12801">
        <ele>1390.7</ele>
        <time>2009-06-25T14:48:35Z</time>
      </trkpt>
      <trkpt lat="44.56829" lon="3.12814">
        <ele>1392.1</ele>
        <time>2009-06-25T14:48:46Z</time>
      </trkpt>
      <trkpt lat="44.56825" lon="3.12822">
        <ele>1393.1</ele>
        <time>2009-06-25T14:48:53Z</time>
      </trkpt>
      <trkpt lat="44.56812" lon="3.12845">
        <ele>1393.6</ele>
        <time>2009-06-25T14:49:13Z</time>
      </trkpt>
      <trkpt lat="44.56797" lon="3.12873">
        <ele>1396</ele>
        <time>2009-06-25T14:49:36Z</time>
      </trkpt>
      <trkpt lat="44.56784" lon="3.12912">
        <ele>1396</ele>
        <time>2009-06-25T14:50:00Z</time>
      </trkpt>
      <trkpt lat="44.56777" lon="3.12926">
        <ele>1396.4</ele>
        <time>2009-06-25T14:50:15Z</time>
      </trkpt>
      <trkpt lat="44.56764" lon="3.12957">
        <ele>1396.4</ele>
        <time>2009-06-25T14:50:41Z</time>
      </trkpt>
      <trkpt lat="44.5675" lon="3.12992">
        <ele>1397.4</ele>
        <time>2009-06-25T14:51:06Z</time>
      </trkpt>
      <trkpt lat="44.56736" lon="3.13025">
        <ele>1396.9</ele>
        <time>2009-06-25T14:51:32Z</time>
      </trkpt>
      <trkpt lat="44.56727" lon="3.13048">
        <ele>1398.4</ele>
        <time>2009-06-25T14:51:52Z</time>
      </trkpt>
      <trkpt lat="44.56713" lon="3.13084">
        <ele>1397.9</ele>
        <time>2009-06-25T14:52:19Z</time>
      </trkpt>
      <trkpt lat="44.567" lon="3.13109">
        <ele>1399.8</ele>
        <time>2009-06-25T14:52:39Z</time>
      </trkpt>
      <trkpt lat="44.56682" lon="3.13139">
        <ele>1397.4</ele>
        <time>2009-06-25T14:53:04Z</time>
      </trkpt>
      <trkpt lat="44.56665" lon="3.1317">
        <ele>1398.8</ele>
        <time>2009-06-25T14:53:27Z</time>
      </trkpt>
      <trkpt lat="44.56649" lon="3.13202">
        <ele>1398.4</ele>
        <time>2009-06-25T14:53:50Z</time>
      </trkpt>
      <trkpt lat="44.56633" lon="3.1324">
        <ele>1398.4</ele>
        <time>2009-06-25T14:54:14Z</time>
      </trkpt>
      <trkpt lat="44.56609" lon="3.13278">
        <ele>1396.4</ele>
        <time>2009-06-25T14:54:42Z</time>
      </trkpt>
      <trkpt lat="44.56585" lon="3.13314">
        <ele>1396</ele>
        <time>2009-06-25T14:55:09Z</time>
      </trkpt>
      <trkpt lat="44.56567" lon="3.13338">
        <ele>1397.9</ele>
        <time>2009-06-25T14:55:30Z</time>
      </trkpt>
      <trkpt lat="44.56549" lon="3.13366">
        <ele>1397.9</ele>
        <time>2009-06-25T14:55:51Z</time>
      </trkpt>
      <trkpt lat="44.56525" lon="3.13387">
        <ele>1397.9</ele>
        <time>2009-06-25T14:56:14Z</time>
      </trkpt>
      <trkpt lat="44.56505" lon="3.13412">
        <ele>1396.4</ele>
        <time>2009-06-25T14:56:36Z</time>
      </trkpt>
      <trkpt lat="44.56507" lon="3.13451">
        <ele>1394.5</ele>
        <time>2009-06-25T14:56:57Z</time>
      </trkpt>
      <trkpt lat="44.56491" lon="3.13497">
        <ele>1396.9</ele>
        <time>2009-06-25T14:57:27Z</time>
      </trkpt>
      <trkpt lat="44.56486" lon="3.13539">
        <ele>1396</ele>
        <time>2009-06-25T14:57:53Z</time>
      </trkpt>
      <trkpt lat="44.56491" lon="3.13582">
        <ele>1395</ele>
        <time>2009-06-25T14:58:18Z</time>
      </trkpt>
      <trkpt lat="44.56485" lon="3.13634">
        <ele>1394.5</ele>
        <time>2009-06-25T14:58:48Z</time>
      </trkpt>
      <trkpt lat="44.56473" lon="3.1368">
        <ele>1395.5</ele>
        <time>2009-06-25T14:59:15Z</time>
      </trkpt>
      <trkpt lat="44.56461" lon="3.13726">
        <ele>1396.4</ele>
        <time>2009-06-25T14:59:43Z</time>
      </trkpt>
      <trkpt lat="44.56448" lon="3.13769">
        <ele>1396</ele>
        <time>2009-06-25T15:00:09Z</time>
      </trkpt>
      <trkpt lat="44.56435" lon="3.13817">
        <ele>1395.5</ele>
        <time>2009-06-25T15:00:39Z</time>
      </trkpt>
      <trkpt lat="44.56422" lon="3.13853">
        <ele>1395.5</ele>
        <time>2009-06-25T15:01:02Z</time>
      </trkpt>
      <trkpt lat="44.56411" lon="3.13885">
        <ele>1395.5</ele>
        <time>2009-06-25T15:01:22Z</time>
      </trkpt>
      <trkpt lat="44.56403" lon="3.13919">
        <ele>1395.5</ele>
        <time>2009-06-25T15:01:42Z</time>
      </trkpt>
      <trkpt lat="44.56393" lon="3.13966">
        <ele>1395.5</ele>
        <time>2009-06-25T15:02:11Z</time>
      </trkpt>
      <trkpt lat="44.56395" lon="3.13974">
        <ele>1396</ele>
        <time>2009-06-25T15:02:16Z</time>
      </trkpt>
      <trkpt lat="44.56389" lon="3.14022">
        <ele>1394.5</ele>
        <time>2009-06-25T15:02:44Z</time>
      </trkpt>
      <trkpt lat="44.56379" lon="3.14075">
        <ele>1393.6</ele>
        <time>2009-06-25T15:03:14Z</time>
      </trkpt>
      <trkpt lat="44.56362" lon="3.14122">
        <ele>1391.7</ele>
        <time>2009-06-25T15:03:44Z</time>
      </trkpt>
      <trkpt lat="44.56353" lon="3.14155">
        <ele>1390.7</ele>
        <time>2009-06-25T15:04:03Z</time>
      </trkpt>
      <trkpt lat="44.56332" lon="3.14206">
        <ele>1389.2</ele>
        <time>2009-06-25T15:04:34Z</time>
      </trkpt>
      <trkpt lat="44.56311" lon="3.14247">
        <ele>1387.8</ele>
        <time>2009-06-25T15:05:02Z</time>
      </trkpt>
      <trkpt lat="44.56289" lon="3.14291">
        <ele>1387.3</ele>
        <time>2009-06-25T15:05:32Z</time>
      </trkpt>
      <trkpt lat="44.56265" lon="3.14329">
        <ele>1385.9</ele>
        <time>2009-06-25T15:06:01Z</time>
      </trkpt>
      <trkpt lat="44.56251" lon="3.14344">
        <ele>1384.4</ele>
        <time>2009-06-25T15:06:18Z</time>
      </trkpt>
      <trkpt lat="44.56245" lon="3.14353">
        <ele>1383</ele>
        <time>2009-06-25T15:06:26Z</time>
      </trkpt>
      <trkpt lat="44.56243" lon="3.1436">
        <ele>1382</ele>
        <time>2009-06-25T15:06:30Z</time>
      </trkpt>
      <trkpt lat="44.56239" lon="3.14367">
        <ele>1381.5</ele>
        <time>2009-06-25T15:06:35Z</time>
      </trkpt>
      <trkpt lat="44.56213" lon="3.14374">
        <ele>1381.5</ele>
        <time>2009-06-25T15:06:58Z</time>
      </trkpt>
      <trkpt lat="44.56189" lon="3.14347">
        <ele>1383</ele>
        <time>2009-06-25T15:07:24Z</time>
      </trkpt>
      <trkpt lat="44.56166" lon="3.14354">
        <ele>1382</ele>
        <time>2009-06-25T15:07:44Z</time>
      </trkpt>
      <trkpt lat="44.56141" lon="3.14356">
        <ele>1381.1</ele>
        <time>2009-06-25T15:08:04Z</time>
      </trkpt>
      <trkpt lat="44.56115" lon="3.14356">
        <ele>1381.5</ele>
        <time>2009-06-25T15:08:24Z</time>
      </trkpt>
      <trkpt lat="44.56087" lon="3.14361">
        <ele>1383</ele>
        <time>2009-06-25T15:08:50Z</time>
      </trkpt>
      <trkpt lat="44.56047" lon="3.14358">
        <ele>1384.4</ele>
        <time>2009-06-25T15:09:21Z</time>
      </trkpt>
      <trkpt lat="44.56021" lon="3.14368">
        <ele>1384.4</ele>
        <time>2009-06-25T15:09:43Z</time>
      </trkpt>
      <trkpt lat="44.55993" lon="3.14376">
        <ele>1383</ele>
        <time>2009-06-25T15:10:04Z</time>
      </trkpt>
      <trkpt lat="44.55959" lon="3.14386">
        <ele>1380.1</ele>
        <time>2009-06-25T15:10:29Z</time>
      </trkpt>
      <trkpt lat="44.55926" lon="3.14393">
        <ele>1378.7</ele>
        <time>2009-06-25T15:10:53Z</time>
      </trkpt>
      <trkpt lat="44.55891" lon="3.14396">
        <ele>1378.2</ele>
        <time>2009-06-25T15:11:17Z</time>
      </trkpt>
      <trkpt lat="44.55862" lon="3.14397">
        <ele>1376.3</ele>
        <time>2009-06-25T15:11:40Z</time>
      </trkpt>
      <trkpt lat="44.55841" lon="3.14403">
        <ele>1377.2</ele>
        <time>2009-06-25T15:11:59Z</time>
      </trkpt>
      <trkpt lat="44.55813" lon="3.14415">
        <ele>1375.8</ele>
        <time>2009-06-25T15:12:21Z</time>
      </trkpt>
      <trkpt lat="44.55778" lon="3.14427">
        <ele>1375.8</ele>
        <time>2009-06-25T15:12:45Z</time>
      </trkpt>
      <trkpt lat="44.55751" lon="3.14435">
        <ele>1374.3</ele>
        <time>2009-06-25T15:13:04Z</time>
      </trkpt>
      <trkpt lat="44.55723" lon="3.14441">
        <ele>1375.8</ele>
        <time>2009-06-25T15:13:28Z</time>
      </trkpt>
      <trkpt lat="44.55702" lon="3.14446">
        <ele>1375.8</ele>
        <time>2009-06-25T15:13:47Z</time>
      </trkpt>
      <trkpt lat="44.55696" lon="3.14442">
        <ele>1374.3</ele>
        <time>2009-06-25T15:13:53Z</time>
      </trkpt>
      <trkpt lat="44.55671" lon="3.14446">
        <ele>1371</ele>
        <time>2009-06-25T15:14:14Z</time>
      </trkpt>
      <trkpt lat="44.55644" lon="3.14453">
        <ele>1371.4</ele>
        <time>2009-06-25T15:14:37Z</time>
      </trkpt>
      <trkpt lat="44.55631" lon="3.14455">
        <ele>1370.5</ele>
        <time>2009-06-25T15:14:45Z</time>
      </trkpt>
      <trkpt lat="44.55601" lon="3.14464">
        <ele>1368.6</ele>
        <time>2009-06-25T15:15:08Z</time>
      </trkpt>
      <trkpt lat="44.55573" lon="3.14469">
        <ele>1365.7</ele>
        <time>2009-06-25T15:15:28Z</time>
      </trkpt>
      <trkpt lat="44.5554" lon="3.14474">
        <ele>1362.3</ele>
        <time>2009-06-25T15:15:53Z</time>
      </trkpt>
      <trkpt lat="44.55511" lon="3.14478">
        <ele>1359.9</ele>
        <time>2009-06-25T15:16:13Z</time>
      </trkpt>
      <trkpt lat="44.55482" lon="3.14489">
        <ele>1359.9</ele>
        <time>2009-06-25T15:16:37Z</time>
      </trkpt>
      <trkpt lat="44.55431" lon="3.14495">
        <ele>1360.9</ele>
        <time>2009-06-25T15:17:23Z</time>
      </trkpt>
      <trkpt lat="44.55396" lon="3.14501">
        <ele>1359.9</ele>
        <time>2009-06-25T15:17:47Z</time>
      </trkpt>
      <trkpt lat="44.55361" lon="3.145">
        <ele>1355.1</ele>
        <time>2009-06-25T15:18:18Z</time>
      </trkpt>
      <trkpt lat="44.55332" lon="3.14506">
        <ele>1356.5</ele>
        <time>2009-06-25T15:18:37Z</time>
      </trkpt>
      <trkpt lat="44.55304" lon="3.14514">
        <ele>1354.6</ele>
        <time>2009-06-25T15:18:59Z</time>
      </trkpt>
      <trkpt lat="44.55276" lon="3.14521">
        <ele>1359.9</ele>
        <time>2009-06-25T15:19:19Z</time>
      </trkpt>
      <trkpt lat="44.55242" lon="3.14533">
        <ele>1358</ele>
        <time>2009-06-25T15:19:45Z</time>
      </trkpt>
      <trkpt lat="44.55205" lon="3.14543">
        <ele>1357.5</ele>
        <time>2009-06-25T15:20:12Z</time>
      </trkpt>
      <trkpt lat="44.55171" lon="3.14553">
        <ele>1355.6</ele>
        <time>2009-06-25T15:20:36Z</time>
      </trkpt>
      <trkpt lat="44.55135" lon="3.14555">
        <ele>1356.1</ele>
        <time>2009-06-25T15:21:05Z</time>
      </trkpt>
      <trkpt lat="44.55109" lon="3.14563">
        <ele>1354.6</ele>
        <time>2009-06-25T15:21:25Z</time>
      </trkpt>
      <trkpt lat="44.55076" lon="3.14572">
        <ele>1347.9</ele>
        <time>2009-06-25T15:21:49Z</time>
      </trkpt>
      <trkpt lat="44.55037" lon="3.14579">
        <ele>1348.9</ele>
        <time>2009-06-25T15:22:20Z</time>
      </trkpt>
      <trkpt lat="44.55005" lon="3.14585">
        <ele>1346.9</ele>
        <time>2009-06-25T15:22:43Z</time>
      </trkpt>
      <trkpt lat="44.54977" lon="3.14593">
        <ele>1345.5</ele>
        <time>2009-06-25T15:23:02Z</time>
      </trkpt>
      <trkpt lat="44.54954" lon="3.14597">
        <ele>1343.6</ele>
        <time>2009-06-25T15:23:20Z</time>
      </trkpt>
      <trkpt lat="44.54927" lon="3.14604">
        <ele>1343.1</ele>
        <time>2009-06-25T15:23:41Z</time>
      </trkpt>
      <trkpt lat="44.54893" lon="3.1461">
        <ele>1341.7</ele>
        <time>2009-06-25T15:24:07Z</time>
      </trkpt>
      <trkpt lat="44.54865" lon="3.14618">
        <ele>1339.7</ele>
        <time>2009-06-25T15:24:32Z</time>
      </trkpt>
      <trkpt lat="44.54853" lon="3.1462">
        <ele>1338.3</ele>
        <time>2009-06-25T15:24:49Z</time>
      </trkpt>
      <trkpt lat="44.54826" lon="3.14626">
        <ele>1335.9</ele>
        <time>2009-06-25T15:25:16Z</time>
      </trkpt>
      <trkpt lat="44.54796" lon="3.14632">
        <ele>1331.1</ele>
        <time>2009-06-25T15:25:43Z</time>
      </trkpt>
      <trkpt lat="44.54768" lon="3.14635">
        <ele>1330.6</ele>
        <time>2009-06-25T15:26:08Z</time>
      </trkpt>
      <trkpt lat="44.54767" lon="3.14635">
        <ele>1331.5</ele>
        <time>2009-06-25T15:26:53Z</time>
      </trkpt>
      <trkpt lat="44.54736" lon="3.14637">
        <ele>1330.1</ele>
        <time>2009-06-25T15:27:18Z</time>
      </trkpt>
      <trkpt lat="44.54701" lon="3.14633">
        <ele>1325.8</ele>
        <time>2009-06-25T15:27:48Z</time>
      </trkpt>
      <trkpt lat="44.54669" lon="3.14633">
        <ele>1322.4</ele>
        <time>2009-06-25T15:28:15Z</time>
      </trkpt>
      <trkpt lat="44.54667" lon="3.14631">
        <ele>1322.4</ele>
        <time>2009-06-25T15:28:17Z</time>
      </trkpt>
      <trkpt lat="44.54638" lon="3.14634">
        <ele>1317.6</ele>
        <time>2009-06-25T15:28:42Z</time>
      </trkpt>
      <trkpt lat="44.54614" lon="3.14639">
        <ele>1314.3</ele>
        <time>2009-06-25T15:29:01Z</time>
      </trkpt>
      <trkpt lat="44.54585" lon="3.1464">
        <ele>1309.9</ele>
        <time>2009-06-25T15:29:25Z</time>
      </trkpt>
      <trkpt lat="44.54548" lon="3.14636">
        <ele>1306.6</ele>
        <time>2009-06-25T15:29:55Z</time>
      </trkpt>
      <trkpt lat="44.54515" lon="3.14632">
        <ele>1303.7</ele>
        <time>2009-06-25T15:30:19Z</time>
      </trkpt>
      <trkpt lat="44.54486" lon="3.14645">
        <ele>1300.8</ele>
        <time>2009-06-25T15:30:45Z</time>
      </trkpt>
      <trkpt lat="44.54465" lon="3.14668">
        <ele>1297.9</ele>
        <time>2009-06-25T15:31:08Z</time>
      </trkpt>
      <trkpt lat="44.54446" lon="3.14687">
        <ele>1295.5</ele>
        <time>2009-06-25T15:31:27Z</time>
      </trkpt>
      <trkpt lat="44.54416" lon="3.14692">
        <ele>1291.7</ele>
        <time>2009-06-25T15:31:51Z</time>
      </trkpt>
      <trkpt lat="44.54387" lon="3.14698">
        <ele>1287.4</ele>
        <time>2009-06-25T15:32:15Z</time>
      </trkpt>
      <trkpt lat="44.54359" lon="3.14703">
        <ele>1283</ele>
        <time>2009-06-25T15:32:40Z</time>
      </trkpt>
      <trkpt lat="44.54338" lon="3.14712">
        <ele>1280.1</ele>
        <time>2009-06-25T15:32:57Z</time>
      </trkpt>
      <trkpt lat="44.54307" lon="3.14714">
        <ele>1274.9</ele>
        <time>2009-06-25T15:33:24Z</time>
      </trkpt>
      <trkpt lat="44.54287" lon="3.14737">
        <ele>1272.4</ele>
        <time>2009-06-25T15:33:50Z</time>
      </trkpt>
      <trkpt lat="44.54288" lon="3.14784">
        <ele>1274.4</ele>
        <time>2009-06-25T15:34:17Z</time>
      </trkpt>
      <trkpt lat="44.54286" lon="3.14836">
        <ele>1273.9</ele>
        <time>2009-06-25T15:34:47Z</time>
      </trkpt>
      <trkpt lat="44.54294" lon="3.14882">
        <ele>1271</ele>
        <time>2009-06-25T15:35:14Z</time>
      </trkpt>
      <trkpt lat="44.54303" lon="3.14916">
        <ele>1268.1</ele>
        <time>2009-06-25T15:35:37Z</time>
      </trkpt>
      <trkpt lat="44.5431" lon="3.14941">
        <ele>1262.8</ele>
        <time>2009-06-25T15:35:58Z</time>
      </trkpt>
      <trkpt lat="44.54316" lon="3.14978">
        <ele>1259</ele>
        <time>2009-06-25T15:36:21Z</time>
      </trkpt>
      <trkpt lat="44.54322" lon="3.15023">
        <ele>1253.7</ele>
        <time>2009-06-25T15:36:48Z</time>
      </trkpt>
      <trkpt lat="44.54328" lon="3.15054">
        <ele>1252.2</ele>
        <time>2009-06-25T15:37:08Z</time>
      </trkpt>
      <trkpt lat="44.5434" lon="3.15086">
        <ele>1248.9</ele>
        <time>2009-06-25T15:37:33Z</time>
      </trkpt>
      <trkpt lat="44.54344" lon="3.15102">
        <ele>1245</ele>
        <time>2009-06-25T15:37:45Z</time>
      </trkpt>
      <trkpt lat="44.54344" lon="3.15111">
        <ele>1243.6</ele>
        <time>2009-06-25T15:37:50Z</time>
      </trkpt>
      <trkpt lat="44.5435" lon="3.15146">
        <ele>1238.8</ele>
        <time>2009-06-25T15:38:13Z</time>
      </trkpt>
      <trkpt lat="44.54355" lon="3.15188">
        <ele>1233.5</ele>
        <time>2009-06-25T15:38:38Z</time>
      </trkpt>
      <trkpt lat="44.54359" lon="3.15234">
        <ele>1228.2</ele>
        <time>2009-06-25T15:39:06Z</time>
      </trkpt>
      <trkpt lat="44.54361" lon="3.15273">
        <ele>1225.3</ele>
        <time>2009-06-25T15:39:30Z</time>
      </trkpt>
      <trkpt lat="44.54334" lon="3.15313">
        <ele>1226.3</ele>
        <time>2009-06-25T15:40:01Z</time>
      </trkpt>
      <trkpt lat="44.54311" lon="3.15338">
        <ele>1228.7</ele>
        <time>2009-06-25T15:40:28Z</time>
      </trkpt>
      <trkpt lat="44.54286" lon="3.15373">
        <ele>1228.2</ele>
        <time>2009-06-25T15:40:57Z</time>
      </trkpt>
      <trkpt lat="44.54271" lon="3.15414">
        <ele>1226.3</ele>
        <time>2009-06-25T15:41:22Z</time>
      </trkpt>
      <trkpt lat="44.54255" lon="3.15467">
        <ele>1223.4</ele>
        <time>2009-06-25T15:41:52Z</time>
      </trkpt>
      <trkpt lat="44.54237" lon="3.15514">
        <ele>1220.1</ele>
        <time>2009-06-25T15:42:23Z</time>
      </trkpt>
      <trkpt lat="44.54227" lon="3.15549">
        <ele>1215.7</ele>
        <time>2009-06-25T15:42:47Z</time>
      </trkpt>
      <trkpt lat="44.54208" lon="3.15575">
        <ele>1212.4</ele>
        <time>2009-06-25T15:43:10Z</time>
      </trkpt>
      <trkpt lat="44.54188" lon="3.156">
        <ele>1209.5</ele>
        <time>2009-06-25T15:43:33Z</time>
      </trkpt>
      <trkpt lat="44.54167" lon="3.15631">
        <ele>1204.7</ele>
        <time>2009-06-25T15:43:59Z</time>
      </trkpt>
      <trkpt lat="44.54149" lon="3.1566">
        <ele>1203.7</ele>
        <time>2009-06-25T15:44:22Z</time>
      </trkpt>
      <trkpt lat="44.54129" lon="3.15689">
        <ele>1202.7</ele>
        <time>2009-06-25T15:44:46Z</time>
      </trkpt>
      <trkpt lat="44.54108" lon="3.15716">
        <ele>1200.3</ele>
        <time>2009-06-25T15:45:09Z</time>
      </trkpt>
      <trkpt lat="44.54097" lon="3.15733">
        <ele>1197.5</ele>
        <time>2009-06-25T15:45:24Z</time>
      </trkpt>
      <trkpt lat="44.54093" lon="3.15738">
        <ele>1197</ele>
        <time>2009-06-25T15:45:28Z</time>
      </trkpt>
      <trkpt lat="44.54061" lon="3.15748">
        <ele>1193.1</ele>
        <time>2009-06-25T15:45:54Z</time>
      </trkpt>
      <trkpt lat="44.54043" lon="3.15759">
        <ele>1193.6</ele>
        <time>2009-06-25T15:46:15Z</time>
      </trkpt>
      <trkpt lat="44.54017" lon="3.1578">
        <ele>1191.7</ele>
        <time>2009-06-25T15:46:38Z</time>
      </trkpt>
      <trkpt lat="44.5399" lon="3.15801">
        <ele>1188.8</ele>
        <time>2009-06-25T15:47:01Z</time>
      </trkpt>
      <trkpt lat="44.53953" lon="3.15819">
        <ele>1185.4</ele>
        <time>2009-06-25T15:47:33Z</time>
      </trkpt>
      <trkpt lat="44.53946" lon="3.15823">
        <ele>1185</ele>
        <time>2009-06-25T15:47:52Z</time>
      </trkpt>
      <trkpt lat="44.53943" lon="3.15823">
        <ele>1185</ele>
        <time>2009-06-25T15:48:27Z</time>
      </trkpt>
      <trkpt lat="44.53921" lon="3.15826">
        <ele>1182.1</ele>
        <time>2009-06-25T15:48:50Z</time>
      </trkpt>
      <trkpt lat="44.53908" lon="3.15829">
        <ele>1180.6</ele>
        <time>2009-06-25T15:49:12Z</time>
      </trkpt>
      <trkpt lat="44.5388" lon="3.15845">
        <ele>1176.3</ele>
        <time>2009-06-25T15:49:39Z</time>
      </trkpt>
      <trkpt lat="44.53856" lon="3.1587">
        <ele>1171.5</ele>
        <time>2009-06-25T15:50:03Z</time>
      </trkpt>
      <trkpt lat="44.53819" lon="3.15887">
        <ele>1167.7</ele>
        <time>2009-06-25T15:50:33Z</time>
      </trkpt>
      <trkpt lat="44.53786" lon="3.15909">
        <ele>1164.3</ele>
        <time>2009-06-25T15:51:01Z</time>
      </trkpt>
      <trkpt lat="44.53755" lon="3.15932">
        <ele>1160.9</ele>
        <time>2009-06-25T15:51:30Z</time>
      </trkpt>
      <trkpt lat="44.5373" lon="3.15956">
        <ele>1158.1</ele>
        <time>2009-06-25T15:51:54Z</time>
      </trkpt>
      <trkpt lat="44.53705" lon="3.15982">
        <ele>1155.2</ele>
        <time>2009-06-25T15:52:21Z</time>
      </trkpt>
      <trkpt lat="44.53681" lon="3.1601">
        <ele>1151.3</ele>
        <time>2009-06-25T15:52:48Z</time>
      </trkpt>
      <trkpt lat="44.53659" lon="3.16045">
        <ele>1145.1</ele>
        <time>2009-06-25T15:53:16Z</time>
      </trkpt>
      <trkpt lat="44.53641" lon="3.16063">
        <ele>1140.7</ele>
        <time>2009-06-25T15:53:38Z</time>
      </trkpt>
      <trkpt lat="44.53629" lon="3.16075">
        <ele>1138.3</ele>
        <time>2009-06-25T15:53:53Z</time>
      </trkpt>
      <trkpt lat="44.53611" lon="3.16103">
        <ele>1133.5</ele>
        <time>2009-06-25T15:54:17Z</time>
      </trkpt>
      <trkpt lat="44.53587" lon="3.16128">
        <ele>1128.7</ele>
        <time>2009-06-25T15:54:44Z</time>
      </trkpt>
      <trkpt lat="44.53563" lon="3.16149">
        <ele>1123.9</ele>
        <time>2009-06-25T15:55:11Z</time>
      </trkpt>
      <trkpt lat="44.53539" lon="3.16171">
        <ele>1118.6</ele>
        <time>2009-06-25T15:55:37Z</time>
      </trkpt>
      <trkpt lat="44.5352" lon="3.16189">
        <ele>1114.8</ele>
        <time>2009-06-25T15:55:57Z</time>
      </trkpt>
      <trkpt lat="44.53496" lon="3.16199">
        <ele>1110.9</ele>
        <time>2009-06-25T15:56:20Z</time>
      </trkpt>
      <trkpt lat="44.5347" lon="3.16206">
        <ele>1109</ele>
        <time>2009-06-25T15:56:47Z</time>
      </trkpt>
      <trkpt lat="44.53453" lon="3.16202">
        <ele>1107.6</ele>
        <time>2009-06-25T15:57:03Z</time>
      </trkpt>
      <trkpt lat="44.53437" lon="3.16194">
        <ele>1103.3</ele>
        <time>2009-06-25T15:57:19Z</time>
      </trkpt>
      <trkpt lat="44.53426" lon="3.16192">
        <ele>1100.4</ele>
        <time>2009-06-25T15:57:37Z</time>
      </trkpt>
      <trkpt lat="44.53422" lon="3.16188">
        <ele>1099.9</ele>
        <time>2009-06-25T15:57:41Z</time>
      </trkpt>
      <trkpt lat="44.5341" lon="3.16177">
        <ele>1101.3</ele>
        <time>2009-06-25T15:57:53Z</time>
      </trkpt>
      <trkpt lat="44.53398" lon="3.16208">
        <ele>1095.1</ele>
        <time>2009-06-25T15:58:16Z</time>
      </trkpt>
      <trkpt lat="44.53394" lon="3.16213">
        <ele>1094.6</ele>
        <time>2009-06-25T15:58:21Z</time>
      </trkpt>
      <trkpt lat="44.53388" lon="3.16215">
        <ele>1090.8</ele>
        <time>2009-06-25T15:58:53Z</time>
      </trkpt>
      <trkpt lat="44.53386" lon="3.16214">
        <ele>1088.8</ele>
        <time>2009-06-25T16:00:27Z</time>
      </trkpt>
      <trkpt lat="44.5339" lon="3.16221">
        <ele>1088.8</ele>
        <time>2009-06-25T16:00:46Z</time>
      </trkpt>
      <trkpt lat="44.53389" lon="3.16228">
        <ele>1087.9</ele>
        <time>2009-06-25T16:00:54Z</time>
      </trkpt>
      <trkpt lat="44.53376" lon="3.16262">
        <ele>1086.9</ele>
        <time>2009-06-25T16:01:22Z</time>
      </trkpt>
      <trkpt lat="44.53367" lon="3.16276">
        <ele>1086.9</ele>
        <time>2009-06-25T16:01:36Z</time>
      </trkpt>
      <trkpt lat="44.53346" lon="3.16269">
        <ele>1084</ele>
        <time>2009-06-25T16:01:56Z</time>
      </trkpt>
      <trkpt lat="44.53318" lon="3.1624">
        <ele>1077.3</ele>
        <time>2009-06-25T16:02:27Z</time>
      </trkpt>
      <trkpt lat="44.53298" lon="3.16231">
        <ele>1073</ele>
        <time>2009-06-25T16:02:46Z</time>
      </trkpt>
      <trkpt lat="44.53277" lon="3.16246">
        <ele>1071.5</ele>
        <time>2009-06-25T16:03:09Z</time>
      </trkpt>
      <trkpt lat="44.53257" lon="3.1627">
        <ele>1067.2</ele>
        <time>2009-06-25T16:03:32Z</time>
      </trkpt>
      <trkpt lat="44.53258" lon="3.16282">
        <ele>1066.7</ele>
        <time>2009-06-25T16:03:40Z</time>
      </trkpt>
      <trkpt lat="44.53269" lon="3.16318">
        <ele>1065.3</ele>
        <time>2009-06-25T16:04:06Z</time>
      </trkpt>
      <trkpt lat="44.53253" lon="3.16358">
        <ele>1065.3</ele>
        <time>2009-06-25T16:04:33Z</time>
      </trkpt>
      <trkpt lat="44.5322" lon="3.16368">
        <ele>1066.3</ele>
        <time>2009-06-25T16:05:01Z</time>
      </trkpt>
      <trkpt lat="44.53178" lon="3.16354">
        <ele>1065.8</ele>
        <time>2009-06-25T16:05:31Z</time>
      </trkpt>
      <trkpt lat="44.53147" lon="3.16352">
        <ele>1067.7</ele>
        <time>2009-06-25T16:05:58Z</time>
      </trkpt>
      <trkpt lat="44.53127" lon="3.16357">
        <ele>1070.1</ele>
        <time>2009-06-25T16:06:18Z</time>
      </trkpt>
      <trkpt lat="44.53101" lon="3.16354">
        <ele>1070.1</ele>
        <time>2009-06-25T16:06:41Z</time>
      </trkpt>
      <trkpt lat="44.53078" lon="3.16368">
        <ele>1072</ele>
        <time>2009-06-25T16:07:03Z</time>
      </trkpt>
      <trkpt lat="44.53051" lon="3.16388">
        <ele>1073.4</ele>
        <time>2009-06-25T16:07:28Z</time>
      </trkpt>
      <trkpt lat="44.5302" lon="3.16407">
        <ele>1075.9</ele>
        <time>2009-06-25T16:07:55Z</time>
      </trkpt>
      <trkpt lat="44.53" lon="3.16413">
        <ele>1078.7</ele>
        <time>2009-06-25T16:08:17Z</time>
      </trkpt>
      <trkpt lat="44.52978" lon="3.16409">
        <ele>1080.7</ele>
        <time>2009-06-25T16:08:41Z</time>
      </trkpt>
      <trkpt lat="44.52965" lon="3.16425">
        <ele>1084</ele>
        <time>2009-06-25T16:09:04Z</time>
      </trkpt>
      <trkpt lat="44.52954" lon="3.16447">
        <ele>1087.4</ele>
        <time>2009-06-25T16:09:26Z</time>
      </trkpt>
      <trkpt lat="44.52941" lon="3.16468">
        <ele>1089.8</ele>
        <time>2009-06-25T16:09:47Z</time>
      </trkpt>
      <trkpt lat="44.52928" lon="3.16488">
        <ele>1091.7</ele>
        <time>2009-06-25T16:10:12Z</time>
      </trkpt>
      <trkpt lat="44.52911" lon="3.16499">
        <ele>1094.6</ele>
        <time>2009-06-25T16:10:36Z</time>
      </trkpt>
      <trkpt lat="44.52898" lon="3.16515">
        <ele>1096.5</ele>
        <time>2009-06-25T16:10:55Z</time>
      </trkpt>
      <trkpt lat="44.52888" lon="3.16535">
        <ele>1099.9</ele>
        <time>2009-06-25T16:11:16Z</time>
      </trkpt>
      <trkpt lat="44.52879" lon="3.16557">
        <ele>1100.4</ele>
        <time>2009-06-25T16:11:41Z</time>
      </trkpt>
      <trkpt lat="44.52883" lon="3.16569">
        <ele>1101.8</ele>
        <time>2009-06-25T16:12:32Z</time>
      </trkpt>
      <trkpt lat="44.52885" lon="3.16575">
        <ele>1102.3</ele>
        <time>2009-06-25T16:12:36Z</time>
      </trkpt>
      <trkpt lat="44.52892" lon="3.16608">
        <ele>1103.3</ele>
        <time>2009-06-25T16:13:04Z</time>
      </trkpt>
      <trkpt lat="44.52897" lon="3.16645">
        <ele>1103.7</ele>
        <time>2009-06-25T16:13:31Z</time>
      </trkpt>
      <trkpt lat="44.52898" lon="3.16687">
        <ele>1106.6</ele>
        <time>2009-06-25T16:14:00Z</time>
      </trkpt>
      <trkpt lat="44.52902" lon="3.16736">
        <ele>1108.1</ele>
        <time>2009-06-25T16:14:29Z</time>
      </trkpt>
      <trkpt lat="44.52898" lon="3.16776">
        <ele>1109.5</ele>
        <time>2009-06-25T16:14:58Z</time>
      </trkpt>
      <trkpt lat="44.52881" lon="3.16797">
        <ele>1110.9</ele>
        <time>2009-06-25T16:15:18Z</time>
      </trkpt>
      <trkpt lat="44.52863" lon="3.16829">
        <ele>1112.9</ele>
        <time>2009-06-25T16:15:45Z</time>
      </trkpt>
      <trkpt lat="44.5285" lon="3.1686">
        <ele>1113.8</ele>
        <time>2009-06-25T16:16:07Z</time>
      </trkpt>
      <trkpt lat="44.52834" lon="3.169">
        <ele>1114.8</ele>
        <time>2009-06-25T16:16:32Z</time>
      </trkpt>
      <trkpt lat="44.52815" lon="3.16945">
        <ele>1112.9</ele>
        <time>2009-06-25T16:17:02Z</time>
      </trkpt>
      <trkpt lat="44.528" lon="3.16982">
        <ele>1110.4</ele>
        <time>2009-06-25T16:17:26Z</time>
      </trkpt>
      <trkpt lat="44.52789" lon="3.16989">
        <ele>1110</ele>
        <time>2009-06-25T16:17:38Z</time>
      </trkpt>
      <trkpt lat="44.52781" lon="3.16972">
        <ele>1109.5</ele>
        <time>2009-06-25T16:17:52Z</time>
      </trkpt>
      <trkpt lat="44.52776" lon="3.16968">
        <ele>1109</ele>
        <time>2009-06-25T16:17:57Z</time>
      </trkpt>
      <trkpt lat="44.52753" lon="3.16989">
        <ele>1105.7</ele>
        <time>2009-06-25T16:18:23Z</time>
      </trkpt>
      <trkpt lat="44.52725" lon="3.17011">
        <ele>1103.3</ele>
        <time>2009-06-25T16:18:50Z</time>
      </trkpt>
      <trkpt lat="44.52714" lon="3.1702">
        <ele>1102.3</ele>
        <time>2009-06-25T16:19:02Z</time>
      </trkpt>
      <trkpt lat="44.52708" lon="3.17026">
        <ele>1102.3</ele>
        <time>2009-06-25T16:19:10Z</time>
      </trkpt>
      <trkpt lat="44.52701" lon="3.17029">
        <ele>1101.8</ele>
        <time>2009-06-25T16:19:17Z</time>
      </trkpt>
      <trkpt lat="44.52685" lon="3.17044">
        <ele>1100.4</ele>
        <time>2009-06-25T16:19:36Z</time>
      </trkpt>
      <trkpt lat="44.5266" lon="3.17066">
        <ele>1099.9</ele>
        <time>2009-06-25T16:20:00Z</time>
      </trkpt>
      <trkpt lat="44.52635" lon="3.17085">
        <ele>1097</ele>
        <time>2009-06-25T16:20:27Z</time>
      </trkpt>
      <trkpt lat="44.52609" lon="3.17096">
        <ele>1092.7</ele>
        <time>2009-06-25T16:20:51Z</time>
      </trkpt>
      <trkpt lat="44.52581" lon="3.1711">
        <ele>1089.3</ele>
        <time>2009-06-25T16:21:18Z</time>
      </trkpt>
      <trkpt lat="44.52549" lon="3.17124">
        <ele>1086.9</ele>
        <time>2009-06-25T16:21:48Z</time>
      </trkpt>
      <trkpt lat="44.52516" lon="3.17123">
        <ele>1084.5</ele>
        <time>2009-06-25T16:22:17Z</time>
      </trkpt>
      <trkpt lat="44.52479" lon="3.17137">
        <ele>1084</ele>
        <time>2009-06-25T16:22:49Z</time>
      </trkpt>
      <trkpt lat="44.52445" lon="3.17165">
        <ele>1083.5</ele>
        <time>2009-06-25T16:23:24Z</time>
      </trkpt>
      <trkpt lat="44.52416" lon="3.17172">
        <ele>1080.2</ele>
        <time>2009-06-25T16:23:47Z</time>
      </trkpt>
      <trkpt lat="44.52384" lon="3.17182">
        <ele>1080.2</ele>
        <time>2009-06-25T16:24:17Z</time>
      </trkpt>
      <trkpt lat="44.52374" lon="3.17212">
        <ele>1077.8</ele>
        <time>2009-06-25T16:24:37Z</time>
      </trkpt>
      <trkpt lat="44.5236" lon="3.17247">
        <ele>1076.8</ele>
        <time>2009-06-25T16:25:03Z</time>
      </trkpt>
      <trkpt lat="44.52344" lon="3.1728">
        <ele>1073</ele>
        <time>2009-06-25T16:25:27Z</time>
      </trkpt>
      <trkpt lat="44.52317" lon="3.17302">
        <ele>1072</ele>
        <time>2009-06-25T16:25:54Z</time>
      </trkpt>
      <trkpt lat="44.52289" lon="3.17336">
        <ele>1069.1</ele>
        <time>2009-06-25T16:26:24Z</time>
      </trkpt>
      <trkpt lat="44.52263" lon="3.17367">
        <ele>1063.8</ele>
        <time>2009-06-25T16:26:52Z</time>
      </trkpt>
      <trkpt lat="44.5226" lon="3.17372">
        <ele>1062.9</ele>
        <time>2009-06-25T16:26:56Z</time>
      </trkpt>
      <trkpt lat="44.52241" lon="3.17413">
        <ele>1059.5</ele>
        <time>2009-06-25T16:27:24Z</time>
      </trkpt>
      <trkpt lat="44.52229" lon="3.17451">
        <ele>1061.4</ele>
        <time>2009-06-25T16:27:51Z</time>
      </trkpt>
      <trkpt lat="44.52215" lon="3.17478">
        <ele>1063.4</ele>
        <time>2009-06-25T16:28:13Z</time>
      </trkpt>
      <trkpt lat="44.52198" lon="3.17509">
        <ele>1062.4</ele>
        <time>2009-06-25T16:28:37Z</time>
      </trkpt>
      <trkpt lat="44.52193" lon="3.17518">
        <ele>1060.9</ele>
        <time>2009-06-25T16:28:44Z</time>
      </trkpt>
      <trkpt lat="44.5217" lon="3.17558">
        <ele>1059</ele>
        <time>2009-06-25T16:29:12Z</time>
      </trkpt>
      <trkpt lat="44.52151" lon="3.17595">
        <ele>1056.6</ele>
        <time>2009-06-25T16:29:38Z</time>
      </trkpt>
      <trkpt lat="44.52137" lon="3.17631">
        <ele>1054.2</ele>
        <time>2009-06-25T16:30:01Z</time>
      </trkpt>
      <trkpt lat="44.52124" lon="3.17666">
        <ele>1052.3</ele>
        <time>2009-06-25T16:30:23Z</time>
      </trkpt>
      <trkpt lat="44.52106" lon="3.17701">
        <ele>1050.9</ele>
        <time>2009-06-25T16:30:48Z</time>
      </trkpt>
      <trkpt lat="44.521" lon="3.17719">
        <ele>1049.9</ele>
        <time>2009-06-25T16:31:00Z</time>
      </trkpt>
      <trkpt lat="44.52101" lon="3.17723">
        <ele>1049.4</ele>
        <time>2009-06-25T16:31:03Z</time>
      </trkpt>
      <trkpt lat="44.52102" lon="3.1773">
        <ele>1048.5</ele>
        <time>2009-06-25T16:31:06Z</time>
      </trkpt>
      <trkpt lat="44.5207" lon="3.17767">
        <ele>1039.8</ele>
        <time>2009-06-25T16:31:35Z</time>
      </trkpt>
      <trkpt lat="44.5204" lon="3.1781">
        <ele>1042.2</ele>
        <time>2009-06-25T16:32:11Z</time>
      </trkpt>
      <trkpt lat="44.52033" lon="3.17815">
        <ele>1041.7</ele>
        <time>2009-06-25T16:32:16Z</time>
      </trkpt>
      <trkpt lat="44.52034" lon="3.17823">
        <ele>1040.8</ele>
        <time>2009-06-25T16:32:20Z</time>
      </trkpt>
      <trkpt lat="44.52011" lon="3.17848">
        <ele>1039.3</ele>
        <time>2009-06-25T16:32:43Z</time>
      </trkpt>
      <trkpt lat="44.51993" lon="3.17873">
        <ele>1038.4</ele>
        <time>2009-06-25T16:33:02Z</time>
      </trkpt>
      <trkpt lat="44.51976" lon="3.17905">
        <ele>1034</ele>
        <time>2009-06-25T16:33:23Z</time>
      </trkpt>
      <trkpt lat="44.51973" lon="3.17917">
        <ele>1032.6</ele>
        <time>2009-06-25T16:33:32Z</time>
      </trkpt>
      <trkpt lat="44.51968" lon="3.1793">
        <ele>1031.1</ele>
        <time>2009-06-25T16:33:40Z</time>
      </trkpt>
      <trkpt lat="44.51949" lon="3.17958">
        <ele>1028.8</ele>
        <time>2009-06-25T16:34:03Z</time>
      </trkpt>
      <trkpt lat="44.51932" lon="3.1799">
        <ele>1026.4</ele>
        <time>2009-06-25T16:34:27Z</time>
      </trkpt>
      <trkpt lat="44.51932" lon="3.17997">
        <ele>1026.8</ele>
        <time>2009-06-25T16:34:31Z</time>
      </trkpt>
      <trkpt lat="44.51924" lon="3.1803">
        <ele>1027.8</ele>
        <time>2009-06-25T16:34:57Z</time>
      </trkpt>
      <trkpt lat="44.51922" lon="3.18035">
        <ele>1027.3</ele>
        <time>2009-06-25T16:35:01Z</time>
      </trkpt>
      <trkpt lat="44.51916" lon="3.18041">
        <ele>1026.8</ele>
        <time>2009-06-25T16:35:06Z</time>
      </trkpt>
      <trkpt lat="44.5191" lon="3.18059">
        <ele>1021.5</ele>
        <time>2009-06-25T16:35:18Z</time>
      </trkpt>
      <trkpt lat="44.51892" lon="3.18089">
        <ele>1016.7</ele>
        <time>2009-06-25T16:35:41Z</time>
      </trkpt>
      <trkpt lat="44.51874" lon="3.18117">
        <ele>1014.8</ele>
        <time>2009-06-25T16:36:03Z</time>
      </trkpt>
      <trkpt lat="44.51869" lon="3.18124">
        <ele>1011.9</ele>
        <time>2009-06-25T16:36:11Z</time>
      </trkpt>
      <trkpt lat="44.51841" lon="3.18141">
        <ele>1008.6</ele>
        <time>2009-06-25T16:36:39Z</time>
      </trkpt>
      <trkpt lat="44.51811" lon="3.18153">
        <ele>1006.1</ele>
        <time>2009-06-25T16:37:05Z</time>
      </trkpt>
      <trkpt lat="44.51794" lon="3.18167">
        <ele>999.4</ele>
        <time>2009-06-25T16:37:25Z</time>
      </trkpt>
      <trkpt lat="44.51776" lon="3.18189">
        <ele>999.4</ele>
        <time>2009-06-25T16:37:48Z</time>
      </trkpt>
      <trkpt lat="44.51754" lon="3.18206">
        <ele>999.4</ele>
        <time>2009-06-25T16:38:11Z</time>
      </trkpt>
      <trkpt lat="44.51718" lon="3.18224">
        <ele>998</ele>
        <time>2009-06-25T16:38:38Z</time>
      </trkpt>
      <trkpt lat="44.51713" lon="3.18225">
        <ele>996.5</ele>
        <time>2009-06-25T16:39:01Z</time>
      </trkpt>
      <trkpt lat="44.51709" lon="3.18228">
        <ele>996.1</ele>
        <time>2009-06-25T16:39:28Z</time>
      </trkpt>
      <trkpt lat="44.51682" lon="3.18215">
        <ele>991.7</ele>
        <time>2009-06-25T16:39:55Z</time>
      </trkpt>
      <trkpt lat="44.51657" lon="3.1821">
        <ele>987.4</ele>
        <time>2009-06-25T16:40:22Z</time>
      </trkpt>
      <trkpt lat="44.51634" lon="3.18187">
        <ele>985</ele>
        <time>2009-06-25T16:40:48Z</time>
      </trkpt>
      <trkpt lat="44.51626" lon="3.18177">
        <ele>984.5</ele>
        <time>2009-06-25T16:41:02Z</time>
      </trkpt>
      <trkpt lat="44.51619" lon="3.18195">
        <ele>985</ele>
        <time>2009-06-25T16:41:16Z</time>
      </trkpt>
      <trkpt lat="44.51599" lon="3.18213">
        <ele>984</ele>
        <time>2009-06-25T16:41:38Z</time>
      </trkpt>
      <trkpt lat="44.51576" lon="3.18217">
        <ele>979.2</ele>
        <time>2009-06-25T16:42:00Z</time>
      </trkpt>
      <trkpt lat="44.51569" lon="3.18211">
        <ele>976.8</ele>
        <time>2009-06-25T16:42:10Z</time>
      </trkpt>
      <trkpt lat="44.51554" lon="3.18206">
        <ele>972</ele>
        <time>2009-06-25T16:42:30Z</time>
      </trkpt>
      <trkpt lat="44.51547" lon="3.18223">
        <ele>970.1</ele>
        <time>2009-06-25T16:42:52Z</time>
      </trkpt>
      <trkpt lat="44.51536" lon="3.18243">
        <ele>964.8</ele>
        <time>2009-06-25T16:43:15Z</time>
      </trkpt>
      <trkpt lat="44.51531" lon="3.18249">
        <ele>962.9</ele>
        <time>2009-06-25T16:43:21Z</time>
      </trkpt>
      <trkpt lat="44.51528" lon="3.1828">
        <ele>961</ele>
        <time>2009-06-25T16:43:44Z</time>
      </trkpt>
      <trkpt lat="44.51524" lon="3.18313">
        <ele>956.6</ele>
        <time>2009-06-25T16:44:09Z</time>
      </trkpt>
      <trkpt lat="44.51516" lon="3.18344">
        <ele>953.3</ele>
        <time>2009-06-25T16:44:33Z</time>
      </trkpt>
      <trkpt lat="44.51508" lon="3.1836">
        <ele>952.3</ele>
        <time>2009-06-25T16:44:48Z</time>
      </trkpt>
      <trkpt lat="44.51506" lon="3.18367">
        <ele>952.8</ele>
        <time>2009-06-25T16:44:53Z</time>
      </trkpt>
      <trkpt lat="44.51489" lon="3.18388">
        <ele>945.6</ele>
        <time>2009-06-25T16:45:18Z</time>
      </trkpt>
      <trkpt lat="44.51465" lon="3.1839">
        <ele>945.6</ele>
        <time>2009-06-25T16:45:39Z</time>
      </trkpt>
      <trkpt lat="44.51449" lon="3.18366">
        <ele>941.3</ele>
        <time>2009-06-25T16:46:01Z</time>
      </trkpt>
      <trkpt lat="44.51434" lon="3.18375">
        <ele>935.5</ele>
        <time>2009-06-25T16:46:20Z</time>
      </trkpt>
      <trkpt lat="44.5142" lon="3.1839">
        <ele>930.7</ele>
        <time>2009-06-25T16:46:41Z</time>
      </trkpt>
      <trkpt lat="44.51415" lon="3.18393">
        <ele>928.3</ele>
        <time>2009-06-25T16:46:49Z</time>
      </trkpt>
      <trkpt lat="44.5139" lon="3.18389">
        <ele>929.2</ele>
        <time>2009-06-25T16:47:11Z</time>
      </trkpt>
      <trkpt lat="44.51388" lon="3.18404">
        <ele>928.8</ele>
        <time>2009-06-25T16:47:30Z</time>
      </trkpt>
      <trkpt lat="44.51393" lon="3.18423">
        <ele>927.3</ele>
        <time>2009-06-25T16:47:49Z</time>
      </trkpt>
      <trkpt lat="44.51394" lon="3.18424">
        <ele>927.3</ele>
        <time>2009-06-25T16:47:50Z</time>
      </trkpt>
      <trkpt lat="44.51403" lon="3.18441">
        <ele>926.4</ele>
        <time>2009-06-25T16:48:09Z</time>
      </trkpt>
      <trkpt lat="44.51414" lon="3.18457">
        <ele>924.9</ele>
        <time>2009-06-25T16:48:28Z</time>
      </trkpt>
      <trkpt lat="44.51425" lon="3.18467">
        <ele>921.6</ele>
        <time>2009-06-25T16:48:41Z</time>
      </trkpt>
      <trkpt lat="44.51438" lon="3.18483">
        <ele>924.5</ele>
        <time>2009-06-25T16:49:03Z</time>
      </trkpt>
      <trkpt lat="44.5144" lon="3.18485">
        <ele>925.9</ele>
        <time>2009-06-25T16:49:06Z</time>
      </trkpt>
      <trkpt lat="44.51462" lon="3.18489">
        <ele>925.4</ele>
        <time>2009-06-25T16:49:26Z</time>
      </trkpt>
      <trkpt lat="44.51483" lon="3.18485">
        <ele>926.4</ele>
        <time>2009-06-25T16:49:49Z</time>
      </trkpt>
      <trkpt lat="44.51506" lon="3.18483">
        <ele>925.9</ele>
        <time>2009-06-25T16:50:13Z</time>
      </trkpt>
      <trkpt lat="44.51521" lon="3.18473">
        <ele>933.6</ele>
        <time>2009-06-25T16:50:35Z</time>
      </trkpt>
      <trkpt lat="44.51522" lon="3.18471">
        <ele>933.6</ele>
        <time>2009-06-25T16:50:36Z</time>
      </trkpt>
      <trkpt lat="44.51543" lon="3.18454">
        <ele>929.7</ele>
        <time>2009-06-25T16:51:00Z</time>
      </trkpt>
      <trkpt lat="44.51558" lon="3.18441">
        <ele>927.3</ele>
        <time>2009-06-25T16:51:18Z</time>
      </trkpt>
      <trkpt lat="44.51579" lon="3.18423">
        <ele>923.5</ele>
        <time>2009-06-25T16:51:42Z</time>
      </trkpt>
      <trkpt lat="44.51605" lon="3.18445">
        <ele>926.4</ele>
        <time>2009-06-25T16:52:28Z</time>
      </trkpt>
      <trkpt lat="44.51609" lon="3.18447">
        <ele>929.2</ele>
        <time>2009-06-25T16:52:42Z</time>
      </trkpt>
      <trkpt lat="44.5163" lon="3.18459">
        <ele>927.3</ele>
        <time>2009-06-25T16:53:02Z</time>
      </trkpt>
      <trkpt lat="44.51653" lon="3.18466">
        <ele>925.9</ele>
        <time>2009-06-25T16:53:26Z</time>
      </trkpt>
      <trkpt lat="44.51677" lon="3.18468">
        <ele>920.1</ele>
        <time>2009-06-25T16:53:52Z</time>
      </trkpt>
      <trkpt lat="44.5168" lon="3.18476">
        <ele>920.6</ele>
        <time>2009-06-25T16:54:27Z</time>
      </trkpt>
      <trkpt lat="44.51662" lon="3.18509">
        <ele>915.3</ele>
        <time>2009-06-25T16:55:13Z</time>
      </trkpt>
      <trkpt lat="44.51658" lon="3.18525">
        <ele>913.4</ele>
        <time>2009-06-25T16:55:36Z</time>
      </trkpt>
      <trkpt lat="44.5166" lon="3.1856">
        <ele>905.2</ele>
        <time>2009-06-25T16:56:22Z</time>
      </trkpt>
      <trkpt lat="44.51668" lon="3.18569">
        <ele>899</ele>
        <time>2009-06-25T16:56:37Z</time>
      </trkpt>
      <trkpt lat="44.51675" lon="3.1859">
        <ele>895.6</ele>
        <time>2009-06-25T16:57:01Z</time>
      </trkpt>
      <trkpt lat="44.51659" lon="3.18609">
        <ele>896.1</ele>
        <time>2009-06-25T16:57:27Z</time>
      </trkpt>
      <trkpt lat="44.51653" lon="3.18614">
        <ele>894.6</ele>
        <time>2009-06-25T16:57:35Z</time>
      </trkpt>
      <trkpt lat="44.51639" lon="3.18622">
        <ele>887.9</ele>
        <time>2009-06-25T16:57:56Z</time>
      </trkpt>
      <trkpt lat="44.51625" lon="3.18629">
        <ele>883.1</ele>
        <time>2009-06-25T16:58:18Z</time>
      </trkpt>
      <trkpt lat="44.51605" lon="3.18648">
        <ele>883.6</ele>
        <time>2009-06-25T16:58:44Z</time>
      </trkpt>
      <trkpt lat="44.51589" lon="3.18664">
        <ele>880.7</ele>
        <time>2009-06-25T16:59:06Z</time>
      </trkpt>
      <trkpt lat="44.51573" lon="3.1868">
        <ele>878.8</ele>
        <time>2009-06-25T16:59:29Z</time>
      </trkpt>
      <trkpt lat="44.51565" lon="3.18691">
        <ele>875.4</ele>
        <time>2009-06-25T16:59:50Z</time>
      </trkpt>
      <trkpt lat="44.51565" lon="3.18691">
        <ele>874.9</ele>
        <time>2009-06-25T17:00:17Z</time>
      </trkpt>
      <trkpt lat="44.51562" lon="3.18692">
        <ele>877.3</ele>
        <time>2009-06-25T17:01:31Z</time>
      </trkpt>
      <trkpt lat="44.51564" lon="3.18687">
        <ele>874</ele>
        <time>2009-06-25T17:01:55Z</time>
      </trkpt>
      <trkpt lat="44.51556" lon="3.18695">
        <ele>871.6</ele>
        <time>2009-06-25T17:02:06Z</time>
      </trkpt>
      <trkpt lat="44.51534" lon="3.18725">
        <ele>871.6</ele>
        <time>2009-06-25T17:02:37Z</time>
      </trkpt>
      <trkpt lat="44.5151" lon="3.18759">
        <ele>872.1</ele>
        <time>2009-06-25T17:03:08Z</time>
      </trkpt>
      <trkpt lat="44.51489" lon="3.18782">
        <ele>874</ele>
        <time>2009-06-25T17:03:34Z</time>
      </trkpt>
      <trkpt lat="44.51462" lon="3.1879">
        <ele>875.4</ele>
        <time>2009-06-25T17:03:59Z</time>
      </trkpt>
      <trkpt lat="44.51434" lon="3.18796">
        <ele>878.8</ele>
        <time>2009-06-25T17:04:28Z</time>
      </trkpt>
      <trkpt lat="44.51415" lon="3.1881">
        <ele>880.2</ele>
        <time>2009-06-25T17:04:44Z</time>
      </trkpt>
      <trkpt lat="44.51403" lon="3.18844">
        <ele>881.2</ele>
        <time>2009-06-25T17:05:10Z</time>
      </trkpt>
      <trkpt lat="44.51403" lon="3.18894">
        <ele>881.2</ele>
        <time>2009-06-25T17:05:42Z</time>
      </trkpt>
      <trkpt lat="44.51405" lon="3.18936">
        <ele>885</ele>
        <time>2009-06-25T17:06:10Z</time>
      </trkpt>
      <trkpt lat="44.51404" lon="3.18978">
        <ele>886</ele>
        <time>2009-06-25T17:06:41Z</time>
      </trkpt>
      <trkpt lat="44.51393" lon="3.19011">
        <ele>889.3</ele>
        <time>2009-06-25T17:07:07Z</time>
      </trkpt>
      <trkpt lat="44.5137" lon="3.19045">
        <ele>893.2</ele>
        <time>2009-06-25T17:07:35Z</time>
      </trkpt>
      <trkpt lat="44.51346" lon="3.19071">
        <ele>896.1</ele>
        <time>2009-06-25T17:08:01Z</time>
      </trkpt>
      <trkpt lat="44.5132" lon="3.191">
        <ele>898</ele>
        <time>2009-06-25T17:08:31Z</time>
      </trkpt>
      <trkpt lat="44.51296" lon="3.19132">
        <ele>897.1</ele>
        <time>2009-06-25T17:09:02Z</time>
      </trkpt>
      <trkpt lat="44.51274" lon="3.19166">
        <ele>898</ele>
        <time>2009-06-25T17:09:32Z</time>
      </trkpt>
      <trkpt lat="44.51256" lon="3.192">
        <ele>899</ele>
        <time>2009-06-25T17:10:00Z</time>
      </trkpt>
      <trkpt lat="44.51243" lon="3.19222">
        <ele>901.8</ele>
        <time>2009-06-25T17:10:20Z</time>
      </trkpt>
      <trkpt lat="44.5123" lon="3.19247">
        <ele>903.8</ele>
        <time>2009-06-25T17:10:42Z</time>
      </trkpt>
      <trkpt lat="44.51227" lon="3.1926">
        <ele>906.2</ele>
        <time>2009-06-25T17:11:25Z</time>
      </trkpt>
      <trkpt lat="44.51248" lon="3.19251">
        <ele>908.6</ele>
        <time>2009-06-25T17:11:52Z</time>
      </trkpt>
      <trkpt lat="44.51267" lon="3.19237">
        <ele>909.6</ele>
        <time>2009-06-25T17:12:19Z</time>
      </trkpt>
      <trkpt lat="44.51285" lon="3.1922">
        <ele>909.6</ele>
        <time>2009-06-25T17:12:45Z</time>
      </trkpt>
      <trkpt lat="44.51287" lon="3.19217">
        <ele>909.6</ele>
        <time>2009-06-25T17:13:09Z</time>
      </trkpt>
      <trkpt lat="44.51289" lon="3.19211">
        <ele>912</ele>
        <time>2009-06-25T17:13:32Z</time>
      </trkpt>
      <trkpt lat="44.51294" lon="3.19191">
        <ele>909.1</ele>
        <time>2009-06-25T17:13:56Z</time>
      </trkpt>
      <trkpt lat="44.51296" lon="3.1919">
        <ele>910</ele>
        <time>2009-06-25T17:15:55Z</time>
      </trkpt>
    </trkseg>
  </trk>
</gpx>